Check out our new PWSWeather beta!
PWSweather.com
Personal Weather Stations
Station Observations
PARKVIEWX
Lake Worth Lake Charleston Parkview, Lake Worth, FL 33467

Lake Worth Lake Charleston ParkviewLake Worth, FL 33467

Lat: 26.565627, Lon: -80.162068

Elevation: 33

Station Type: Davis Vantage Pro 2

Parkviewx.com

High Low Average
Temperature 86.4°F30.2°C 64.0°F17.8°C 74.4°F23.6°C
Dew Point 75.9°F24.4°C 62.1°F16.7°C 69.3°F20.7°C
Winds 6.0 mph 9.7 kmh Calm Calm 3.0 mph S4.8 kmh S
Wind Gusts 17.0 mph27.4 kmh -- 5.0 mph8.0 kmh
Humidity 97% 68% 85%
Pressure 30.04 in1017.3 mb 29.93 in1013.5 mb -
Precipitation 0.04 in1.0 mm - -
Hour Temp Dew Point Humidity Winds Wind Gusts Pressure Precip Precip Rate Daily Precip Total
12:00 AM 65.7°F18.7°C 62.6°F17.0°C 90% Calm Calm -- 30.04 in1017.3 mb 0.00 in0.0 mm 0.00 in0.0 mm 0.00 in0.0 mm
12:01 AM 65.7°F18.7°C 62.6°F17.0°C 90% Calm Calm -- 30.04 in1017.3 mb 0.00 in0.0 mm 0.00 in0.0 mm 0.00 in0.0 mm
12:02 AM 65.7°F18.7°C 62.6°F17.0°C 90% Calm Calm -- 30.04 in1017.3 mb 0.00 in0.0 mm 0.00 in0.0 mm 0.00 in0.0 mm
12:03 AM 65.7°F18.7°C 62.6°F17.0°C 90% Calm Calm -- 30.04 in1017.3 mb 0.00 in0.0 mm 0.00 in0.0 mm 0.00 in0.0 mm
12:04 AM 65.7°F18.7°C 62.6°F17.0°C 90% Calm Calm -- 30.04 in1017.3 mb 0.00 in0.0 mm 0.00 in0.0 mm 0.00 in0.0 mm
12:05 AM 65.7°F18.7°C 62.6°F17.0°C 90% Calm Calm -- 30.04 in1017.3 mb 0.00 in0.0 mm 0.00 in0.0 mm 0.00 in0.0 mm
12:06 AM 65.5°F18.6°C 62.4°F16.9°C 90% Calm Calm -- 30.04 in1017.3 mb 0.00 in0.0 mm 0.00 in0.0 mm 0.00 in0.0 mm
12:07 AM 65.5°F18.6°C 62.4°F16.9°C 90% Calm Calm -- 30.04 in1017.3 mb 0.00 in0.0 mm 0.00 in0.0 mm 0.00 in0.0 mm
12:08 AM 65.5°F18.6°C 62.4°F16.9°C 90% Calm Calm -- 30.04 in1017.3 mb 0.00 in0.0 mm 0.00 in0.0 mm 0.00 in0.0 mm
12:09 AM 65.5°F18.6°C 62.4°F16.9°C 90% Calm Calm -- 30.04 in1017.3 mb 0.00 in0.0 mm 0.00 in0.0 mm 0.00 in0.0 mm
12:10 AM 65.5°F18.6°C 62.4°F16.9°C 90% Calm Calm -- 30.04 in1017.3 mb 0.00 in0.0 mm 0.00 in0.0 mm 0.00 in0.0 mm
12:12 AM 65.5°F18.6°C 62.4°F16.9°C 90% Calm Calm -- 30.04 in1017.3 mb 0.00 in0.0 mm 0.00 in0.0 mm 0.00 in0.0 mm
12:13 AM 65.5°F18.6°C 62.4°F16.9°C 90% Calm Calm -- 30.04 in1017.3 mb 0.00 in0.0 mm 0.00 in0.0 mm 0.00 in0.0 mm
12:14 AM 65.5°F18.6°C 62.4°F16.9°C 90% Calm Calm -- 30.04 in1017.3 mb 0.00 in0.0 mm 0.00 in0.0 mm 0.00 in0.0 mm
12:15 AM 65.5°F18.6°C 62.4°F16.9°C 90% Calm Calm -- 30.04 in1017.3 mb 0.00 in0.0 mm 0.00 in0.0 mm 0.00 in0.0 mm
12:16 AM 65.5°F18.6°C 62.4°F16.9°C 90% Calm Calm -- 30.04 in1017.3 mb 0.00 in0.0 mm 0.00 in0.0 mm 0.00 in0.0 mm
12:17 AM 65.5°F18.6°C 62.4°F16.9°C 90% Calm Calm -- 30.04 in1017.3 mb 0.00 in0.0 mm 0.00 in0.0 mm 0.00 in0.0 mm
12:18 AM 65.5°F18.6°C 62.4°F16.9°C 90% Calm Calm -- 30.04 in1017.3 mb 0.00 in0.0 mm 0.00 in0.0 mm 0.00 in0.0 mm
12:19 AM 65.5°F18.6°C 62.4°F16.9°C 90% Calm Calm -- 30.04 in1017.3 mb 0.00 in0.0 mm 0.00 in0.0 mm 0.00 in0.0 mm
12:20 AM 65.5°F18.6°C 62.4°F16.9°C 90% Calm Calm -- 30.04 in1017.3 mb 0.00 in0.0 mm 0.00 in0.0 mm 0.00 in0.0 mm
12:21 AM 65.5°F18.6°C 62.4°F16.9°C 90% Calm Calm -- 30.04 in1017.3 mb 0.00 in0.0 mm 0.00 in0.0 mm 0.00 in0.0 mm
12:22 AM 65.5°F18.6°C 62.4°F16.9°C 90% Calm Calm -- 30.04 in1017.3 mb 0.00 in0.0 mm 0.00 in0.0 mm 0.00 in0.0 mm
12:23 AM 65.5°F18.6°C 62.4°F16.9°C 90% Calm Calm -- 30.04 in1017.3 mb 0.00 in0.0 mm 0.00 in0.0 mm 0.00 in0.0 mm
12:24 AM 65.5°F18.6°C 62.4°F16.9°C 90% Calm Calm -- 30.04 in1017.3 mb 0.00 in0.0 mm 0.00 in0.0 mm 0.00 in0.0 mm
12:25 AM 65.5°F18.6°C 62.4°F16.9°C 90% Calm Calm -- 30.04 in1017.3 mb 0.00 in0.0 mm 0.00 in0.0 mm 0.00 in0.0 mm
12:26 AM 65.3°F18.5°C 62.2°F16.8°C 90% Calm Calm -- 30.04 in1017.3 mb 0.00 in0.0 mm 0.00 in0.0 mm 0.00 in0.0 mm
12:27 AM 65.3°F18.5°C 62.2°F16.8°C 90% Calm Calm -- 30.04 in1017.3 mb 0.00 in0.0 mm 0.00 in0.0 mm 0.00 in0.0 mm
12:28 AM 65.5°F18.6°C 62.4°F16.9°C 90% Calm Calm -- 30.04 in1017.3 mb 0.00 in0.0 mm 0.00 in0.0 mm 0.00 in0.0 mm
12:29 AM 65.3°F18.5°C 62.2°F16.8°C 90% Calm Calm -- 30.04 in1017.3 mb 0.00 in0.0 mm 0.00 in0.0 mm 0.00 in0.0 mm
12:30 AM 65.3°F18.5°C 62.2°F16.8°C 90% Calm Calm -- 30.04 in1017.3 mb 0.00 in0.0 mm 0.00 in0.0 mm 0.00 in0.0 mm
12:31 AM 65.3°F18.5°C 62.2°F16.8°C 90% Calm Calm -- 30.04 in1017.3 mb 0.00 in0.0 mm 0.00 in0.0 mm 0.00 in0.0 mm
12:32 AM 65.3°F18.5°C 62.2°F16.8°C 90% Calm Calm -- 30.04 in1017.3 mb 0.00 in0.0 mm 0.00 in0.0 mm 0.00 in0.0 mm
12:33 AM 65.1°F18.4°C 62.1°F16.7°C 90% Calm Calm -- 30.04 in1017.3 mb 0.00 in0.0 mm 0.00 in0.0 mm 0.00 in0.0 mm
12:34 AM 65.1°F18.4°C 62.1°F16.7°C 90% Calm Calm -- 30.04 in1017.3 mb 0.00 in0.0 mm 0.00 in0.0 mm 0.00 in0.0 mm
12:35 AM 65.1°F18.4°C 62.4°F16.9°C 91% Calm Calm -- 30.04 in1017.3 mb 0.00 in0.0 mm 0.00 in0.0 mm 0.00 in0.0 mm
12:36 AM 65.3°F18.5°C 62.6°F17.0°C 91% Calm Calm -- 30.04 in1017.3 mb 0.00 in0.0 mm 0.00 in0.0 mm 0.00 in0.0 mm
12:37 AM 65.3°F18.5°C 62.6°F17.0°C 91% Calm Calm -- 30.04 in1017.3 mb 0.00 in0.0 mm 0.00 in0.0 mm 0.00 in0.0 mm
12:38 AM 65.3°F18.5°C 62.6°F17.0°C 91% Calm Calm -- 30.04 in1017.3 mb 0.00 in0.0 mm 0.00 in0.0 mm 0.00 in0.0 mm
12:39 AM 65.3°F18.5°C 62.6°F17.0°C 91% Calm Calm -- 30.04 in1017.3 mb 0.00 in0.0 mm 0.00 in0.0 mm 0.00 in0.0 mm
12:40 AM 65.5°F18.6°C 62.8°F17.1°C 91% Calm Calm -- 30.04 in1017.3 mb 0.00 in0.0 mm 0.00 in0.0 mm 0.00 in0.0 mm
12:41 AM 65.5°F18.6°C 62.8°F17.1°C 91% Calm Calm -- 30.03 in1016.9 mb 0.00 in0.0 mm 0.00 in0.0 mm 0.00 in0.0 mm
12:42 AM 65.3°F18.5°C 62.6°F17.0°C 91% Calm Calm -- 30.03 in1016.9 mb 0.00 in0.0 mm 0.00 in0.0 mm 0.00 in0.0 mm
12:43 AM 65.3°F18.5°C 62.6°F17.0°C 91% Calm Calm -- 30.03 in1016.9 mb 0.00 in0.0 mm 0.00 in0.0 mm 0.00 in0.0 mm
12:44 AM 65.3°F18.5°C 62.6°F17.0°C 91% Calm Calm -- 30.03 in1016.9 mb 0.00 in0.0 mm 0.00 in0.0 mm 0.00 in0.0 mm
12:45 AM 65.3°F18.5°C 62.6°F17.0°C 91% Calm Calm 0.9 mph1.4 kmh 30.03 in1016.9 mb 0.00 in0.0 mm 0.00 in0.0 mm 0.00 in0.0 mm
12:46 AM 65.3°F18.5°C 62.6°F17.0°C 91% Calm Calm 0.9 mph1.4 kmh 30.03 in1016.9 mb 0.00 in0.0 mm 0.00 in0.0 mm 0.00 in0.0 mm
12:47 AM 65.3°F18.5°C 62.6°F17.0°C 91% Calm Calm 0.9 mph1.4 kmh 30.03 in1016.9 mb 0.00 in0.0 mm 0.00 in0.0 mm 0.00 in0.0 mm
12:48 AM 65.1°F18.4°C 62.4°F16.9°C 91% Calm Calm 0.9 mph1.4 kmh 30.03 in1016.9 mb 0.00 in0.0 mm 0.00 in0.0 mm 0.00 in0.0 mm
12:49 AM 65.1°F18.4°C 62.4°F16.9°C 91% Calm Calm 2.0 mph3.2 kmh 30.03 in1016.9 mb 0.00 in0.0 mm 0.00 in0.0 mm 0.00 in0.0 mm
12:50 AM 65.1°F18.4°C 62.4°F16.9°C 91% 0.9 mph S1.4 kmh S 0.9 mph1.4 kmh 30.03 in1016.9 mb 0.00 in0.0 mm 0.00 in0.0 mm 0.00 in0.0 mm
12:51 AM 65.1°F18.4°C 62.4°F16.9°C 91% 0.9 mph S1.4 kmh S 0.9 mph1.4 kmh 30.03 in1016.9 mb 0.00 in0.0 mm 0.00 in0.0 mm 0.00 in0.0 mm
12:52 AM 65.1°F18.4°C 62.4°F16.9°C 91% 0.9 mph S1.4 kmh S 2.0 mph3.2 kmh 30.03 in1016.9 mb 0.00 in0.0 mm 0.00 in0.0 mm 0.00 in0.0 mm
12:54 AM 65.1°F18.4°C 62.4°F16.9°C 91% 0.9 mph S1.4 kmh S 2.0 mph3.2 kmh 30.03 in1016.9 mb 0.00 in0.0 mm 0.00 in0.0 mm 0.00 in0.0 mm
12:55 AM 65.1°F18.4°C 62.4°F16.9°C 91% 0.9 mph S1.4 kmh S 0.9 mph1.4 kmh 30.03 in1016.9 mb 0.00 in0.0 mm 0.00 in0.0 mm 0.00 in0.0 mm
12:56 AM 65.1°F18.4°C 62.4°F16.9°C 91% 0.9 mph S1.4 kmh S 0.9 mph1.4 kmh 30.03 in1016.9 mb 0.00 in0.0 mm 0.00 in0.0 mm 0.00 in0.0 mm
12:57 AM 65.1°F18.4°C 62.4°F16.9°C 91% 0.9 mph S1.4 kmh S 0.9 mph1.4 kmh 30.03 in1016.9 mb 0.00 in0.0 mm 0.00 in0.0 mm 0.00 in0.0 mm
12:58 AM 65.1°F18.4°C 62.4°F16.9°C 91% 0.9 mph S1.4 kmh S 0.9 mph1.4 kmh 30.03 in1016.9 mb 0.00 in0.0 mm 0.00 in0.0 mm 0.00 in0.0 mm
12:59 AM 64.9°F18.3°C 62.2°F16.8°C 91% 0.9 mph S1.4 kmh S 2.0 mph3.2 kmh 30.03 in1016.9 mb 0.00 in0.0 mm 0.00 in0.0 mm 0.00 in0.0 mm
01:00 AM 64.9°F18.3°C 62.2°F16.8°C 91% 0.9 mph S1.4 kmh S 2.0 mph3.2 kmh 30.03 in1016.9 mb 0.00 in0.0 mm 0.00 in0.0 mm 0.00 in0.0 mm
01:01 AM 64.9°F18.3°C 62.2°F16.8°C 91% 0.9 mph S1.4 kmh S 0.9 mph1.4 kmh 30.03 in1016.9 mb 0.00 in0.0 mm 0.00 in0.0 mm 0.00 in0.0 mm
01:02 AM 64.9°F18.3°C 62.2°F16.8°C 91% 0.9 mph S1.4 kmh S 2.0 mph3.2 kmh 30.03 in1016.9 mb 0.00 in0.0 mm 0.00 in0.0 mm 0.00 in0.0 mm
01:03 AM 64.9°F18.3°C 62.2°F16.8°C 91% 0.9 mph S1.4 kmh S 2.0 mph3.2 kmh 30.02 in1016.6 mb 0.00 in0.0 mm 0.00 in0.0 mm 0.00 in0.0 mm
01:04 AM 64.9°F18.3°C 62.2°F16.8°C 91% 0.9 mph S1.4 kmh S 4.0 mph6.4 kmh 30.02 in1016.6 mb 0.00 in0.0 mm 0.00 in0.0 mm 0.00 in0.0 mm
01:05 AM 64.9°F18.3°C 62.2°F16.8°C 91% 0.9 mph S1.4 kmh S 2.0 mph3.2 kmh 30.02 in1016.6 mb 0.00 in0.0 mm 0.00 in0.0 mm 0.00 in0.0 mm
01:06 AM 64.9°F18.3°C 62.2°F16.8°C 91% 0.9 mph S1.4 kmh S 2.0 mph3.2 kmh 30.02 in1016.6 mb 0.00 in0.0 mm 0.00 in0.0 mm 0.00 in0.0 mm
01:07 AM 64.9°F18.3°C 62.2°F16.8°C 91% 0.9 mph S1.4 kmh S 2.0 mph3.2 kmh 30.02 in1016.6 mb 0.00 in0.0 mm 0.00 in0.0 mm 0.00 in0.0 mm
01:08 AM 64.9°F18.3°C 62.2°F16.8°C 91% 0.9 mph S1.4 kmh S 4.0 mph6.4 kmh 30.02 in1016.6 mb 0.00 in0.0 mm 0.00 in0.0 mm 0.00 in0.0 mm
01:09 AM 64.9°F18.3°C 62.2°F16.8°C 91% 0.9 mph S1.4 kmh S 4.0 mph6.4 kmh 30.02 in1016.6 mb 0.00 in0.0 mm 0.00 in0.0 mm 0.00 in0.0 mm
01:10 AM 64.9°F18.3°C 62.2°F16.8°C 91% 0.9 mph S1.4 kmh S 2.0 mph3.2 kmh 30.02 in1016.6 mb 0.00 in0.0 mm 0.00 in0.0 mm 0.00 in0.0 mm
01:11 AM 64.9°F18.3°C 62.2°F16.8°C 91% 0.9 mph S1.4 kmh S 2.9 mph4.7 kmh 30.01 in1016.3 mb 0.00 in0.0 mm 0.00 in0.0 mm 0.00 in0.0 mm
01:12 AM 64.9°F18.3°C 62.2°F16.8°C 91% 0.9 mph S1.4 kmh S 4.0 mph6.4 kmh 30.01 in1016.3 mb 0.00 in0.0 mm 0.00 in0.0 mm 0.00 in0.0 mm
01:13 AM 64.9°F18.3°C 62.2°F16.8°C 91% 0.9 mph S1.4 kmh S 0.9 mph1.4 kmh 30.01 in1016.3 mb 0.00 in0.0 mm 0.00 in0.0 mm 0.00 in0.0 mm
01:14 AM 64.9°F18.3°C 62.2°F16.8°C 91% 0.9 mph S1.4 kmh S 0.9 mph1.4 kmh 30.01 in1016.3 mb 0.00 in0.0 mm 0.00 in0.0 mm 0.00 in0.0 mm
01:15 AM 64.9°F18.3°C 62.6°F17.0°C 92% 0.9 mph SSE1.4 kmh SSE 4.0 mph6.4 kmh 30.01 in1016.3 mb 0.00 in0.0 mm 0.00 in0.0 mm 0.00 in0.0 mm
01:16 AM 64.9°F18.3°C 62.6°F17.0°C 92% 0.9 mph SSE1.4 kmh SSE 4.0 mph6.4 kmh 30.01 in1016.3 mb 0.00 in0.0 mm 0.00 in0.0 mm 0.00 in0.0 mm
01:17 AM 64.9°F18.3°C 62.6°F17.0°C 92% 0.9 mph SSE1.4 kmh SSE 2.0 mph3.2 kmh 30.01 in1016.3 mb 0.00 in0.0 mm 0.00 in0.0 mm 0.00 in0.0 mm
01:18 AM 64.9°F18.3°C 62.6°F17.0°C 92% 0.9 mph SSE1.4 kmh SSE 4.0 mph6.4 kmh 30.01 in1016.3 mb 0.00 in0.0 mm 0.00 in0.0 mm 0.00 in0.0 mm
01:19 AM 65.1°F18.4°C 62.8°F17.1°C 92% 0.9 mph S1.4 kmh S 4.0 mph6.4 kmh 30.01 in1016.3 mb 0.00 in0.0 mm 0.00 in0.0 mm 0.00 in0.0 mm
01:20 AM 65.1°F18.4°C 62.8°F17.1°C 92% 0.9 mph SSE1.4 kmh SSE 4.0 mph6.4 kmh 30.01 in1016.3 mb 0.00 in0.0 mm 0.00 in0.0 mm 0.00 in0.0 mm
01:21 AM 65.1°F18.4°C 62.8°F17.1°C 92% 2.0 mph SSE3.2 kmh SSE 5.0 mph8.0 kmh 30.01 in1016.3 mb 0.00 in0.0 mm 0.00 in0.0 mm 0.00 in0.0 mm
01:22 AM 65.1°F18.4°C 62.8°F17.1°C 92% 2.0 mph SSE3.2 kmh SSE 4.0 mph6.4 kmh 30.01 in1016.3 mb 0.00 in0.0 mm 0.00 in0.0 mm 0.00 in0.0 mm
01:23 AM 65.1°F18.4°C 62.8°F17.1°C 92% 2.0 mph SSE3.2 kmh SSE 4.0 mph6.4 kmh 30.01 in1016.3 mb 0.00 in0.0 mm 0.00 in0.0 mm 0.00 in0.0 mm
01:24 AM 65.3°F18.5°C 63.0°F17.2°C 92% 2.0 mph SE3.2 kmh SE 4.0 mph6.4 kmh 30.01 in1016.3 mb 0.00 in0.0 mm 0.00 in0.0 mm 0.00 in0.0 mm
01:25 AM 65.3°F18.5°C 63.0°F17.2°C 92% 2.0 mph SE3.2 kmh SE 2.0 mph3.2 kmh 30.01 in1016.3 mb 0.00 in0.0 mm 0.00 in0.0 mm 0.00 in0.0 mm
01:26 AM 65.5°F18.6°C 62.8°F17.1°C 91% 2.0 mph SE3.2 kmh SE 2.0 mph3.2 kmh 30.01 in1016.3 mb 0.00 in0.0 mm 0.00 in0.0 mm 0.00 in0.0 mm
01:27 AM 65.5°F18.6°C 62.8°F17.1°C 91% 2.0 mph SE3.2 kmh SE 2.0 mph3.2 kmh 30.01 in1016.3 mb 0.00 in0.0 mm 0.00 in0.0 mm 0.00 in0.0 mm
01:29 AM 65.5°F18.6°C 62.8°F17.1°C 91% 2.0 mph SE3.2 kmh SE 2.0 mph3.2 kmh 30.01 in1016.3 mb 0.00 in0.0 mm 0.00 in0.0 mm 0.00 in0.0 mm
01:30 AM 65.5°F18.6°C 62.8°F17.1°C 91% 2.0 mph SE3.2 kmh SE 2.0 mph3.2 kmh 30.01 in1016.3 mb 0.00 in0.0 mm 0.00 in0.0 mm 0.00 in0.0 mm
01:31 AM 65.5°F18.6°C 62.8°F17.1°C 91% 0.9 mph SE1.4 kmh SE 2.0 mph3.2 kmh 30.01 in1016.3 mb 0.00 in0.0 mm 0.00 in0.0 mm 0.00 in0.0 mm
01:32 AM 65.5°F18.6°C 62.8°F17.1°C 91% 0.9 mph SE1.4 kmh SE 2.0 mph3.2 kmh 30.01 in1016.3 mb 0.00 in0.0 mm 0.00 in0.0 mm 0.00 in0.0 mm
01:33 AM 65.5°F18.6°C 62.8°F17.1°C 91% 0.9 mph SE1.4 kmh SE 0.9 mph1.4 kmh 30.01 in1016.3 mb 0.00 in0.0 mm 0.00 in0.0 mm 0.00 in0.0 mm
01:34 AM 65.7°F18.7°C 63.0°F17.2°C 91% 0.9 mph SE1.4 kmh SE 3.0 mph4.8 kmh 30.01 in1016.3 mb 0.00 in0.0 mm 0.00 in0.0 mm 0.00 in0.0 mm
01:35 AM 65.7°F18.7°C 63.0°F17.2°C 91% 0.9 mph SE1.4 kmh SE 3.0 mph4.8 kmh 30.01 in1016.3 mb 0.00 in0.0 mm 0.00 in0.0 mm 0.00 in0.0 mm
01:36 AM 65.7°F18.7°C 63.0°F17.2°C 91% 0.9 mph SE1.4 kmh SE 2.9 mph4.7 kmh 30.01 in1016.3 mb 0.00 in0.0 mm 0.00 in0.0 mm 0.00 in0.0 mm
01:37 AM 65.7°F18.7°C 63.0°F17.2°C 91% 0.9 mph SE1.4 kmh SE 2.0 mph3.2 kmh 30.01 in1016.3 mb 0.00 in0.0 mm 0.00 in0.0 mm 0.00 in0.0 mm
01:38 AM 65.7°F18.7°C 63.0°F17.2°C 91% 0.9 mph SE1.4 kmh SE 2.0 mph3.2 kmh 30.01 in1016.3 mb 0.00 in0.0 mm 0.00 in0.0 mm 0.00 in0.0 mm
01:39 AM 65.7°F18.7°C 63.0°F17.2°C 91% 0.9 mph SE1.4 kmh SE 0.9 mph1.4 kmh 30.01 in1016.3 mb 0.00 in0.0 mm 0.00 in0.0 mm 0.00 in0.0 mm
01:40 AM 65.8°F18.8°C 63.1°F17.3°C 91% 0.9 mph SE1.4 kmh SE 2.0 mph3.2 kmh 30.00 in1015.9 mb 0.00 in0.0 mm 0.00 in0.0 mm 0.00 in0.0 mm
01:41 AM 65.8°F18.8°C 63.1°F17.3°C 91% 0.9 mph SE1.4 kmh SE 2.0 mph3.2 kmh 30.01 in1016.3 mb 0.00 in0.0 mm 0.00 in0.0 mm 0.00 in0.0 mm
01:42 AM 65.8°F18.8°C 63.1°F17.3°C 91% 0.9 mph SE1.4 kmh SE 2.0 mph3.2 kmh 30.00 in1015.9 mb 0.00 in0.0 mm 0.00 in0.0 mm 0.00 in0.0 mm
01:43 AM 65.8°F18.8°C 63.1°F17.3°C 91% 0.9 mph SE1.4 kmh SE 2.0 mph3.2 kmh 30.00 in1015.9 mb 0.00 in0.0 mm 0.00 in0.0 mm 0.00 in0.0 mm
01:44 AM 65.8°F18.8°C 63.1°F17.3°C 91% 0.9 mph SSE1.4 kmh SSE 2.9 mph4.7 kmh 30.00 in1015.9 mb 0.00 in0.0 mm 0.00 in0.0 mm 0.00 in0.0 mm
01:45 AM 65.8°F18.8°C 63.1°F17.3°C 91% 0.9 mph SSE1.4 kmh SSE 2.9 mph4.7 kmh 30.00 in1015.9 mb 0.00 in0.0 mm 0.00 in0.0 mm 0.00 in0.0 mm
01:46 AM 65.8°F18.8°C 63.1°F17.3°C 91% 0.9 mph SE1.4 kmh SE 2.9 mph4.7 kmh 30.00 in1015.9 mb 0.00 in0.0 mm 0.00 in0.0 mm 0.00 in0.0 mm
01:47 AM 65.8°F18.8°C 63.1°F17.3°C 91% 0.9 mph SE1.4 kmh SE 2.0 mph3.2 kmh 30.00 in1015.9 mb 0.00 in0.0 mm 0.00 in0.0 mm 0.00 in0.0 mm
01:48 AM 66.0°F18.9°C 63.3°F17.4°C 91% 0.9 mph SSE1.4 kmh SSE 2.0 mph3.2 kmh 30.00 in1015.9 mb 0.00 in0.0 mm 0.00 in0.0 mm 0.00 in0.0 mm
01:49 AM 66.0°F18.9°C 63.3°F17.4°C 91% 0.9 mph SSE1.4 kmh SSE 4.0 mph6.4 kmh 30.00 in1015.9 mb 0.00 in0.0 mm 0.00 in0.0 mm 0.00 in0.0 mm
01:50 AM 66.0°F18.9°C 63.3°F17.4°C 91% 0.9 mph SSE1.4 kmh SSE 5.0 mph8.0 kmh 30.00 in1015.9 mb 0.00 in0.0 mm 0.00 in0.0 mm 0.00 in0.0 mm
01:51 AM 66.0°F18.9°C 63.3°F17.4°C 91% 0.9 mph SSE1.4 kmh SSE 2.9 mph4.7 kmh 30.00 in1015.9 mb 0.00 in0.0 mm 0.00 in0.0 mm 0.00 in0.0 mm
01:52 AM 66.0°F18.9°C 63.3°F17.4°C 91% 0.9 mph SSE1.4 kmh SSE 2.0 mph3.2 kmh 30.00 in1015.9 mb 0.00 in0.0 mm 0.00 in0.0 mm 0.00 in0.0 mm
01:53 AM 66.2°F19.0°C 63.5°F17.5°C 91% 0.9 mph SSE1.4 kmh SSE 2.0 mph3.2 kmh 30.00 in1015.9 mb 0.00 in0.0 mm 0.00 in0.0 mm 0.00 in0.0 mm
01:54 AM 66.0°F18.9°C 63.3°F17.4°C 91% 0.9 mph SSE1.4 kmh SSE 2.9 mph4.7 kmh 30.00 in1015.9 mb 0.00 in0.0 mm 0.00 in0.0 mm 0.00 in0.0 mm
01:55 AM 66.2°F19.0°C 63.5°F17.5°C 91% 0.9 mph SSE1.4 kmh SSE 2.0 mph3.2 kmh 30.00 in1015.9 mb 0.00 in0.0 mm 0.00 in0.0 mm 0.00 in0.0 mm
01:56 AM 66.4°F19.1°C 63.7°F17.6°C 91% 0.9 mph SSE1.4 kmh SSE 2.0 mph3.2 kmh 30.00 in1015.9 mb 0.00 in0.0 mm 0.00 in0.0 mm 0.00 in0.0 mm
01:57 AM 66.4°F19.1°C 63.7°F17.6°C 91% 0.9 mph SSE1.4 kmh SSE 2.0 mph3.2 kmh 30.00 in1015.9 mb 0.00 in0.0 mm 0.00 in0.0 mm 0.00 in0.0 mm
01:58 AM 66.4°F19.1°C 63.7°F17.6°C 91% 0.9 mph SSE1.4 kmh SSE 4.9 mph7.9 kmh 30.00 in1015.9 mb 0.00 in0.0 mm 0.00 in0.0 mm 0.00 in0.0 mm
01:59 AM 66.4°F19.1°C 63.7°F17.6°C 91% 0.9 mph SSE1.4 kmh SSE 2.0 mph3.2 kmh 30.00 in1015.9 mb 0.00 in0.0 mm 0.00 in0.0 mm 0.00 in0.0 mm
02:00 AM 66.4°F19.1°C 63.7°F17.6°C 91% 0.9 mph SSE1.4 kmh SSE 2.0 mph3.2 kmh 30.00 in1015.9 mb 0.00 in0.0 mm 0.00 in0.0 mm 0.00 in0.0 mm
02:01 AM 66.4°F19.1°C 63.3°F17.4°C 90% 0.9 mph SSE1.4 kmh SSE 2.0 mph3.2 kmh 30.00 in1015.9 mb 0.00 in0.0 mm 0.00 in0.0 mm 0.00 in0.0 mm
02:02 AM 66.6°F19.2°C 63.5°F17.5°C 90% 0.9 mph SSE1.4 kmh SSE 2.0 mph3.2 kmh 30.00 in1015.9 mb 0.00 in0.0 mm 0.00 in0.0 mm 0.00 in0.0 mm
02:04 AM 66.6°F19.2°C 63.5°F17.5°C 90% 0.9 mph S1.4 kmh S 4.9 mph7.9 kmh 30.00 in1015.9 mb 0.00 in0.0 mm 0.00 in0.0 mm 0.00 in0.0 mm
02:05 AM 66.6°F19.2°C 63.5°F17.5°C 90% 0.9 mph S1.4 kmh S 4.0 mph6.4 kmh 30.00 in1015.9 mb 0.00 in0.0 mm 0.00 in0.0 mm 0.00 in0.0 mm
02:06 AM 66.6°F19.2°C 63.5°F17.5°C 90% 2.0 mph S3.2 kmh S 6.0 mph9.7 kmh 30.00 in1015.9 mb 0.00 in0.0 mm 0.00 in0.0 mm 0.00 in0.0 mm
02:07 AM 66.6°F19.2°C 63.5°F17.5°C 90% 2.0 mph SSE3.2 kmh SSE 4.0 mph6.4 kmh 30.00 in1015.9 mb 0.00 in0.0 mm 0.00 in0.0 mm 0.00 in0.0 mm
02:08 AM 66.6°F19.2°C 63.5°F17.5°C 90% 2.0 mph S3.2 kmh S 4.0 mph6.4 kmh 30.00 in1015.9 mb 0.00 in0.0 mm 0.00 in0.0 mm 0.00 in0.0 mm
02:09 AM 66.7°F19.3°C 63.7°F17.6°C 90% 2.0 mph S3.2 kmh S 4.0 mph6.4 kmh 30.00 in1015.9 mb 0.00 in0.0 mm 0.00 in0.0 mm 0.00 in0.0 mm
02:10 AM 66.7°F19.3°C 63.7°F17.6°C 90% 2.0 mph S3.2 kmh S 4.0 mph6.4 kmh 30.00 in1015.9 mb 0.00 in0.0 mm 0.00 in0.0 mm 0.00 in0.0 mm
02:11 AM 66.9°F19.4°C 63.9°F17.7°C 90% 2.0 mph S3.2 kmh S 2.0 mph3.2 kmh 30.00 in1015.9 mb 0.00 in0.0 mm 0.00 in0.0 mm 0.00 in0.0 mm
02:12 AM 66.9°F19.4°C 63.9°F17.7°C 90% 2.0 mph S3.2 kmh S 2.0 mph3.2 kmh 30.00 in1015.9 mb 0.00 in0.0 mm 0.00 in0.0 mm 0.00 in0.0 mm
02:13 AM 66.9°F19.4°C 63.9°F17.7°C 90% 2.0 mph S3.2 kmh S 2.0 mph3.2 kmh 30.00 in1015.9 mb 0.00 in0.0 mm 0.00 in0.0 mm 0.00 in0.0 mm
02:14 AM 67.1°F19.5°C 64.0°F17.8°C 90% 2.0 mph S3.2 kmh S 4.9 mph7.9 kmh 30.00 in1015.9 mb 0.00 in0.0 mm 0.00 in0.0 mm 0.00 in0.0 mm
02:15 AM 67.1°F19.5°C 64.0°F17.8°C 90% 2.0 mph S3.2 kmh S 6.0 mph9.7 kmh 30.00 in1015.9 mb 0.00 in0.0 mm 0.00 in0.0 mm 0.00 in0.0 mm
02:16 AM 67.3°F19.6°C 63.9°F17.7°C 89% 2.0 mph S3.2 kmh S 6.0 mph9.7 kmh 30.00 in1015.9 mb 0.00 in0.0 mm 0.00 in0.0 mm 0.00 in0.0 mm
02:17 AM 67.3°F19.6°C 63.9°F17.7°C 89% 0.9 mph S1.4 kmh S 2.0 mph3.2 kmh 30.00 in1015.9 mb 0.00 in0.0 mm 0.00 in0.0 mm 0.00 in0.0 mm
02:18 AM 67.3°F19.6°C 63.9°F17.7°C 89% 0.9 mph S1.4 kmh S 2.0 mph3.2 kmh 30.00 in1015.9 mb 0.00 in0.0 mm 0.00 in0.0 mm 0.00 in0.0 mm
02:19 AM 67.3°F19.6°C 63.9°F17.7°C 89% 0.9 mph S1.4 kmh S 2.9 mph4.7 kmh 30.00 in1015.9 mb 0.00 in0.0 mm 0.00 in0.0 mm 0.00 in0.0 mm
02:20 AM 67.5°F19.7°C 64.0°F17.8°C 89% 0.9 mph S1.4 kmh S 2.9 mph4.7 kmh 30.00 in1015.9 mb 0.00 in0.0 mm 0.00 in0.0 mm 0.00 in0.0 mm
02:21 AM 67.5°F19.7°C 64.0°F17.8°C 89% 0.9 mph S1.4 kmh S 2.0 mph3.2 kmh 29.99 in1015.6 mb 0.00 in0.0 mm 0.00 in0.0 mm 0.00 in0.0 mm
02:22 AM 67.5°F19.7°C 64.0°F17.8°C 89% 2.0 mph S3.2 kmh S 2.9 mph4.7 kmh 29.99 in1015.6 mb 0.00 in0.0 mm 0.00 in0.0 mm 0.00 in0.0 mm
02:23 AM 67.5°F19.7°C 64.0°F17.8°C 89% 2.0 mph S3.2 kmh S 2.9 mph4.7 kmh 30.00 in1015.9 mb 0.00 in0.0 mm 0.00 in0.0 mm 0.00 in0.0 mm
02:24 AM 67.5°F19.7°C 64.0°F17.8°C 89% 2.0 mph S3.2 kmh S 4.0 mph6.4 kmh 29.99 in1015.6 mb 0.00 in0.0 mm 0.00 in0.0 mm 0.00 in0.0 mm
02:25 AM 67.6°F19.8°C 64.2°F17.9°C 89% 2.0 mph S3.2 kmh S 4.0 mph6.4 kmh 30.00 in1015.9 mb 0.00 in0.0 mm 0.00 in0.0 mm 0.00 in0.0 mm
02:26 AM 67.6°F19.8°C 64.2°F17.9°C 89% 2.0 mph S3.2 kmh S 4.0 mph6.4 kmh 29.99 in1015.6 mb 0.00 in0.0 mm 0.00 in0.0 mm 0.00 in0.0 mm
02:27 AM 67.6°F19.8°C 64.2°F17.9°C 89% 2.0 mph S3.2 kmh S 2.9 mph4.7 kmh 29.99 in1015.6 mb 0.00 in0.0 mm 0.00 in0.0 mm 0.00 in0.0 mm
02:28 AM 67.6°F19.8°C 64.2°F17.9°C 89% 2.0 mph S3.2 kmh S 2.9 mph4.7 kmh 29.99 in1015.6 mb 0.00 in0.0 mm 0.00 in0.0 mm 0.00 in0.0 mm
02:29 AM 67.8°F19.9°C 64.4°F18.0°C 89% 2.0 mph S3.2 kmh S 2.0 mph3.2 kmh 30.00 in1015.9 mb 0.00 in0.0 mm 0.00 in0.0 mm 0.00 in0.0 mm
02:30 AM 67.6°F19.8°C 64.2°F17.9°C 89% 2.0 mph S3.2 kmh S 2.9 mph4.7 kmh 30.00 in1015.9 mb 0.00 in0.0 mm 0.00 in0.0 mm 0.00 in0.0 mm
02:32 AM 67.8°F19.9°C 64.2°F17.9°C 88% 2.0 mph S3.2 kmh S 2.9 mph4.7 kmh 29.99 in1015.6 mb 0.00 in0.0 mm 0.00 in0.0 mm 0.00 in0.0 mm
02:33 AM 67.8°F19.9°C 64.2°F17.9°C 88% 2.0 mph S3.2 kmh S 2.0 mph3.2 kmh 29.99 in1015.6 mb 0.00 in0.0 mm 0.00 in0.0 mm 0.00 in0.0 mm
02:34 AM 67.8°F19.9°C 64.2°F17.9°C 88% 2.0 mph S3.2 kmh S 2.0 mph3.2 kmh 29.99 in1015.6 mb 0.00 in0.0 mm 0.00 in0.0 mm 0.00 in0.0 mm
02:35 AM 67.8°F19.9°C 64.2°F17.9°C 88% 0.9 mph S1.4 kmh S 2.0 mph3.2 kmh 29.99 in1015.6 mb 0.00 in0.0 mm 0.00 in0.0 mm 0.00 in0.0 mm
02:36 AM 67.8°F19.9°C 64.2°F17.9°C 88% 0.9 mph S1.4 kmh S 2.9 mph4.7 kmh 29.99 in1015.6 mb 0.00 in0.0 mm 0.00 in0.0 mm 0.00 in0.0 mm
02:37 AM 67.8°F19.9°C 64.4°F18.0°C 89% 0.9 mph S1.4 kmh S 4.0 mph6.4 kmh 30.00 in1015.9 mb 0.00 in0.0 mm 0.00 in0.0 mm 0.00 in0.0 mm
02:38 AM 67.8°F19.9°C 64.4°F18.0°C 89% 0.9 mph S1.4 kmh S 4.0 mph6.4 kmh 29.99 in1015.6 mb 0.00 in0.0 mm 0.00 in0.0 mm 0.00 in0.0 mm
02:39 AM 67.8°F19.9°C 64.4°F18.0°C 89% 0.9 mph S1.4 kmh S 4.0 mph6.4 kmh 29.99 in1015.6 mb 0.00 in0.0 mm 0.00 in0.0 mm 0.00 in0.0 mm
02:40 AM 67.8°F19.9°C 64.4°F18.0°C 89% 0.9 mph S1.4 kmh S 2.0 mph3.2 kmh 30.00 in1015.9 mb 0.00 in0.0 mm 0.00 in0.0 mm 0.00 in0.0 mm
02:41 AM 68.0°F20.0°C 64.6°F18.1°C 89% 0.9 mph S1.4 kmh S 2.0 mph3.2 kmh 29.99 in1015.6 mb 0.00 in0.0 mm 0.00 in0.0 mm 0.00 in0.0 mm
02:42 AM 68.0°F20.0°C 64.6°F18.1°C 89% 2.0 mph S3.2 kmh S 2.9 mph4.7 kmh 29.99 in1015.6 mb 0.00 in0.0 mm 0.00 in0.0 mm 0.00 in0.0 mm
02:43 AM 68.0°F20.0°C 64.6°F18.1°C 89% 2.0 mph S3.2 kmh S 2.9 mph4.7 kmh 29.99 in1015.6 mb 0.00 in0.0 mm 0.00 in0.0 mm 0.00 in0.0 mm
02:44 AM 68.0°F20.0°C 64.6°F18.1°C 89% 2.0 mph S3.2 kmh S 4.0 mph6.4 kmh 29.99 in1015.6 mb 0.00 in0.0 mm 0.00 in0.0 mm 0.00 in0.0 mm
02:45 AM 68.0°F20.0°C 64.6°F18.1°C 89% 2.0 mph S3.2 kmh S 2.9 mph4.7 kmh 29.99 in1015.6 mb 0.00 in0.0 mm 0.00 in0.0 mm 0.00 in0.0 mm
02:46 AM 68.0°F20.0°C 64.6°F18.1°C 89% 2.0 mph S3.2 kmh S 2.0 mph3.2 kmh 29.99 in1015.6 mb 0.00 in0.0 mm 0.00 in0.0 mm 0.00 in0.0 mm
02:47 AM 68.0°F20.0°C 64.6°F18.1°C 89% 2.0 mph S3.2 kmh S 2.0 mph3.2 kmh 29.99 in1015.6 mb 0.00 in0.0 mm 0.00 in0.0 mm 0.00 in0.0 mm
02:48 AM 67.8°F19.9°C 64.4°F18.0°C 89% 2.0 mph S3.2 kmh S 2.0 mph3.2 kmh 29.99 in1015.6 mb 0.00 in0.0 mm 0.00 in0.0 mm 0.00 in0.0 mm
02:49 AM 67.8°F19.9°C 64.4°F18.0°C 89% 2.0 mph SSE3.2 kmh SSE 4.9 mph7.9 kmh 29.99 in1015.6 mb 0.00 in0.0 mm 0.00 in0.0 mm 0.00 in0.0 mm
02:50 AM 68.0°F20.0°C 64.6°F18.1°C 89% 2.0 mph SSE3.2 kmh SSE 2.0 mph3.2 kmh 29.99 in1015.6 mb 0.00 in0.0 mm 0.00 in0.0 mm 0.00 in0.0 mm
02:51 AM 67.8°F19.9°C 64.4°F18.0°C 89% 2.0 mph SSE3.2 kmh SSE 0.9 mph1.4 kmh 29.99 in1015.6 mb 0.00 in0.0 mm 0.00 in0.0 mm 0.00 in0.0 mm
02:52 AM 68.0°F20.0°C 64.6°F18.1°C 89% 0.9 mph SSE1.4 kmh SSE 2.0 mph3.2 kmh 29.99 in1015.6 mb 0.00 in0.0 mm 0.00 in0.0 mm 0.00 in0.0 mm
02:53 AM 68.0°F20.0°C 64.6°F18.1°C 89% 0.9 mph SSE1.4 kmh SSE 2.0 mph3.2 kmh 29.99 in1015.6 mb 0.00 in0.0 mm 0.00 in0.0 mm 0.00 in0.0 mm
02:54 AM 68.0°F20.0°C 64.6°F18.1°C 89% 0.9 mph SSE1.4 kmh SSE 2.0 mph3.2 kmh 29.99 in1015.6 mb 0.00 in0.0 mm 0.00 in0.0 mm 0.00 in0.0 mm
02:55 AM 67.8°F19.9°C 64.4°F18.0°C 89% 0.9 mph SSE1.4 kmh SSE 2.0 mph3.2 kmh 29.99 in1015.6 mb 0.00 in0.0 mm 0.00 in0.0 mm 0.00 in0.0 mm
02:56 AM 67.8°F19.9°C 64.4°F18.0°C 89% 0.9 mph SSE1.4 kmh SSE 2.0 mph3.2 kmh 29.99 in1015.6 mb 0.00 in0.0 mm 0.00 in0.0 mm 0.00 in0.0 mm
02:57 AM 67.8°F19.9°C 64.4°F18.0°C 89% 0.9 mph SSE1.4 kmh SSE 2.0 mph3.2 kmh 29.99 in1015.6 mb 0.00 in0.0 mm 0.00 in0.0 mm 0.00 in0.0 mm
02:58 AM 67.8°F19.9°C 64.4°F18.0°C 89% 0.9 mph SSE1.4 kmh SSE 2.0 mph3.2 kmh 29.99 in1015.6 mb 0.00 in0.0 mm 0.00 in0.0 mm 0.00 in0.0 mm
02:59 AM 67.8°F19.9°C 64.4°F18.0°C 89% 0.9 mph SSE1.4 kmh SSE 5.0 mph8.0 kmh 29.99 in1015.6 mb 0.00 in0.0 mm 0.00 in0.0 mm 0.00 in0.0 mm
03:00 AM 67.8°F19.9°C 64.4°F18.0°C 89% 0.9 mph SSE1.4 kmh SSE 2.0 mph3.2 kmh 29.99 in1015.6 mb 0.00 in0.0 mm 0.00 in0.0 mm 0.00 in0.0 mm
03:01 AM 67.8°F19.9°C 64.4°F18.0°C 89% 0.9 mph SSE1.4 kmh SSE 0.9 mph1.4 kmh 29.99 in1015.6 mb 0.00 in0.0 mm 0.00 in0.0 mm 0.00 in0.0 mm
03:02 AM 67.8°F19.9°C 64.4°F18.0°C 89% 0.9 mph SSE1.4 kmh SSE 0.9 mph1.4 kmh 29.99 in1015.6 mb 0.00 in0.0 mm 0.00 in0.0 mm 0.00 in0.0 mm
03:03 AM 67.8°F19.9°C 64.4°F18.0°C 89% 0.9 mph SSE1.4 kmh SSE 2.0 mph3.2 kmh 29.99 in1015.6 mb 0.00 in0.0 mm 0.00 in0.0 mm 0.00 in0.0 mm
03:04 AM 67.8°F19.9°C 64.8°F18.2°C 90% 0.9 mph SSE1.4 kmh SSE 0.9 mph1.4 kmh 29.99 in1015.6 mb 0.00 in0.0 mm 0.00 in0.0 mm 0.00 in0.0 mm
03:05 AM 67.8°F19.9°C 64.8°F18.2°C 90% 0.9 mph SSE1.4 kmh SSE 0.9 mph1.4 kmh 29.99 in1015.6 mb 0.00 in0.0 mm 0.00 in0.0 mm 0.00 in0.0 mm
03:06 AM 67.8°F19.9°C 64.8°F18.2°C 90% 0.9 mph SSE1.4 kmh SSE 0.9 mph1.4 kmh 29.99 in1015.6 mb 0.00 in0.0 mm 0.00 in0.0 mm 0.00 in0.0 mm
03:07 AM 67.8°F19.9°C 64.8°F18.2°C 90% 0.9 mph SSE1.4 kmh SSE 2.0 mph3.2 kmh 29.99 in1015.6 mb 0.00 in0.0 mm 0.00 in0.0 mm 0.00 in0.0 mm
03:08 AM 67.8°F19.9°C 64.8°F18.2°C 90% 0.9 mph S1.4 kmh S 2.9 mph4.7 kmh 29.99 in1015.6 mb 0.00 in0.0 mm 0.00 in0.0 mm 0.00 in0.0 mm
03:09 AM 67.8°F19.9°C 64.8°F18.2°C 90% 0.9 mph S1.4 kmh S 2.0 mph3.2 kmh 29.99 in1015.6 mb 0.00 in0.0 mm 0.00 in0.0 mm 0.00 in0.0 mm
03:10 AM 67.8°F19.9°C 64.8°F18.2°C 90% 0.9 mph S1.4 kmh S 0.9 mph1.4 kmh 29.99 in1015.6 mb 0.00 in0.0 mm 0.00 in0.0 mm 0.00 in0.0 mm
03:11 AM 67.8°F19.9°C 64.8°F18.2°C 90% 0.9 mph S1.4 kmh S 2.0 mph3.2 kmh 29.99 in1015.6 mb 0.00 in0.0 mm 0.00 in0.0 mm 0.00 in0.0 mm
03:12 AM 67.8°F19.9°C 64.8°F18.2°C 90% 0.9 mph S1.4 kmh S 2.0 mph3.2 kmh 29.99 in1015.6 mb 0.00 in0.0 mm 0.00 in0.0 mm 0.00 in0.0 mm
03:13 AM 67.8°F19.9°C 64.8°F18.2°C 90% 0.9 mph S1.4 kmh S 2.9 mph4.7 kmh 29.99 in1015.6 mb 0.00 in0.0 mm 0.00 in0.0 mm 0.00 in0.0 mm
03:14 AM 67.8°F19.9°C 65.1°F18.4°C 91% 0.9 mph S1.4 kmh S 2.0 mph3.2 kmh 29.99 in1015.6 mb 0.00 in0.0 mm 0.00 in0.0 mm 0.00 in0.0 mm
03:15 AM 67.8°F19.9°C 64.8°F18.2°C 90% 0.9 mph S1.4 kmh S 2.0 mph3.2 kmh 29.99 in1015.6 mb 0.00 in0.0 mm 0.00 in0.0 mm 0.00 in0.0 mm
03:16 AM 67.8°F19.9°C 65.1°F18.4°C 91% 0.9 mph S1.4 kmh S 2.0 mph3.2 kmh 29.99 in1015.6 mb 0.00 in0.0 mm 0.00 in0.0 mm 0.00 in0.0 mm
03:17 AM 67.8°F19.9°C 64.8°F18.2°C 90% 0.9 mph S1.4 kmh S 0.9 mph1.4 kmh 29.99 in1015.6 mb 0.00 in0.0 mm 0.00 in0.0 mm 0.00 in0.0 mm
03:18 AM 67.8°F19.9°C 65.1°F18.4°C 91% 0.9 mph S1.4 kmh S 2.0 mph3.2 kmh 29.99 in1015.6 mb 0.00 in0.0 mm 0.00 in0.0 mm 0.00 in0.0 mm
03:19 AM 67.8°F19.9°C 65.1°F18.4°C 91% 0.9 mph S1.4 kmh S 2.0 mph3.2 kmh 29.99 in1015.6 mb 0.00 in0.0 mm 0.00 in0.0 mm 0.00 in0.0 mm
03:20 AM 67.8°F19.9°C 65.1°F18.4°C 91% 0.9 mph S1.4 kmh S 2.0 mph3.2 kmh 29.99 in1015.6 mb 0.00 in0.0 mm 0.00 in0.0 mm 0.00 in0.0 mm
03:21 AM 67.8°F19.9°C 65.1°F18.4°C 91% 0.9 mph S1.4 kmh S 2.0 mph3.2 kmh 29.99 in1015.6 mb 0.00 in0.0 mm 0.00 in0.0 mm 0.00 in0.0 mm
03:22 AM 67.8°F19.9°C 64.8°F18.2°C 90% 0.9 mph S1.4 kmh S 2.0 mph3.2 kmh 29.99 in1015.6 mb 0.00 in0.0 mm 0.00 in0.0 mm 0.00 in0.0 mm
03:23 AM 67.8°F19.9°C 64.8°F18.2°C 90% 0.9 mph S1.4 kmh S 3.0 mph4.8 kmh 29.99 in1015.6 mb 0.00 in0.0 mm 0.00 in0.0 mm 0.00 in0.0 mm
03:24 AM 67.8°F19.9°C 64.8°F18.2°C 90% 0.9 mph S1.4 kmh S 2.0 mph3.2 kmh 29.99 in1015.6 mb 0.00 in0.0 mm 0.00 in0.0 mm 0.00 in0.0 mm
03:25 AM 67.8°F19.9°C 64.8°F18.2°C 90% 0.9 mph S1.4 kmh S 2.9 mph4.7 kmh 29.99 in1015.6 mb 0.00 in0.0 mm 0.00 in0.0 mm 0.00 in0.0 mm
03:26 AM 67.8°F19.9°C 64.8°F18.2°C 90% 0.9 mph S1.4 kmh S 2.0 mph3.2 kmh 29.99 in1015.6 mb 0.00 in0.0 mm 0.00 in0.0 mm 0.00 in0.0 mm
03:27 AM 67.8°F19.9°C 64.8°F18.2°C 90% 0.9 mph S1.4 kmh S 0.9 mph1.4 kmh 29.99 in1015.6 mb 0.00 in0.0 mm 0.00 in0.0 mm 0.00 in0.0 mm
03:28 AM 67.8°F19.9°C 64.8°F18.2°C 90% 0.9 mph S1.4 kmh S 2.0 mph3.2 kmh 29.99 in1015.6 mb 0.00 in0.0 mm 0.00 in0.0 mm 0.00 in0.0 mm
03:29 AM 67.8°F19.9°C 64.8°F18.2°C 90% 0.9 mph S1.4 kmh S 2.0 mph3.2 kmh 29.99 in1015.6 mb 0.00 in0.0 mm 0.00 in0.0 mm 0.00 in0.0 mm
03:30 AM 67.8°F19.9°C 64.8°F18.2°C 90% 0.9 mph S1.4 kmh S 2.0 mph3.2 kmh 29.99 in1015.6 mb 0.00 in0.0 mm 0.00 in0.0 mm 0.00 in0.0 mm
03:31 AM 67.8°F19.9°C 64.8°F18.2°C 90% 0.9 mph S1.4 kmh S 2.0 mph3.2 kmh 29.99 in1015.6 mb 0.00 in0.0 mm 0.00 in0.0 mm 0.00 in0.0 mm
03:33 AM 67.8°F19.9°C 64.8°F18.2°C 90% 0.9 mph S1.4 kmh S 2.0 mph3.2 kmh 29.99 in1015.6 mb 0.00 in0.0 mm 0.00 in0.0 mm 0.00 in0.0 mm
03:34 AM 67.8°F19.9°C 64.8°F18.2°C 90% 0.9 mph S1.4 kmh S 0.9 mph1.4 kmh 29.99 in1015.6 mb 0.00 in0.0 mm 0.00 in0.0 mm 0.00 in0.0 mm
03:35 AM 67.8°F19.9°C 64.8°F18.2°C 90% 0.9 mph S1.4 kmh S 2.0 mph3.2 kmh 29.99 in1015.6 mb 0.00 in0.0 mm 0.00 in0.0 mm 0.00 in0.0 mm
03:36 AM 67.8°F19.9°C 64.8°F18.2°C 90% 0.9 mph S1.4 kmh S 3.0 mph4.8 kmh 29.99 in1015.6 mb 0.00 in0.0 mm 0.00 in0.0 mm 0.00 in0.0 mm
03:37 AM 67.8°F19.9°C 64.8°F18.2°C 90% 0.9 mph S1.4 kmh S 2.9 mph4.7 kmh 29.99 in1015.6 mb 0.00 in0.0 mm 0.00 in0.0 mm 0.00 in0.0 mm
03:38 AM 67.8°F19.9°C 64.8°F18.2°C 90% 0.9 mph S1.4 kmh S 2.9 mph4.7 kmh 29.99 in1015.6 mb 0.00 in0.0 mm 0.00 in0.0 mm 0.00 in0.0 mm
03:39 AM 67.8°F19.9°C 64.8°F18.2°C 90% 0.9 mph S1.4 kmh S 2.0 mph3.2 kmh 29.99 in1015.6 mb 0.00 in0.0 mm 0.00 in0.0 mm 0.00 in0.0 mm
03:40 AM 67.8°F19.9°C 64.8°F18.2°C 90% 0.9 mph S1.4 kmh S 0.9 mph1.4 kmh 29.99 in1015.6 mb 0.00 in0.0 mm 0.00 in0.0 mm 0.00 in0.0 mm
03:41 AM 67.6°F19.8°C 64.6°F18.1°C 90% 0.9 mph S1.4 kmh S 0.9 mph1.4 kmh 29.99 in1015.6 mb 0.00 in0.0 mm 0.00 in0.0 mm 0.00 in0.0 mm
03:42 AM 67.8°F19.9°C 64.8°F18.2°C 90% 0.9 mph S1.4 kmh S -- 29.99 in1015.6 mb 0.00 in0.0 mm 0.00 in0.0 mm 0.00 in0.0 mm
03:43 AM 67.6°F19.8°C 64.6°F18.1°C 90% 0.9 mph S1.4 kmh S -- 29.99 in1015.6 mb 0.00 in0.0 mm 0.00 in0.0 mm 0.00 in0.0 mm
03:44 AM 67.6°F19.8°C 64.6°F18.1°C 90% 0.9 mph S1.4 kmh S -- 29.99 in1015.6 mb 0.00 in0.0 mm 0.00 in0.0 mm 0.00 in0.0 mm
03:45 AM 67.6°F19.8°C 64.6°F18.1°C 90% 0.9 mph S1.4 kmh S -- 29.99 in1015.6 mb 0.00 in0.0 mm 0.00 in0.0 mm 0.00 in0.0 mm
03:46 AM 67.6°F19.8°C 64.6°F18.1°C 90% Calm Calm 0.9 mph1.4 kmh 29.99 in1015.6 mb 0.00 in0.0 mm 0.00 in0.0 mm 0.00 in0.0 mm
03:47 AM 67.6°F19.8°C 64.6°F18.1°C 90% Calm Calm 3.0 mph4.8 kmh 29.99 in1015.6 mb 0.00 in0.0 mm 0.00 in0.0 mm 0.00 in0.0 mm
03:48 AM 67.6°F19.8°C 64.6°F18.1°C 90% Calm Calm 0.9 mph1.4 kmh 29.99 in1015.6 mb 0.00 in0.0 mm 0.00 in0.0 mm 0.00 in0.0 mm
03:49 AM 67.6°F19.8°C 64.9°F18.3°C 91% Calm Calm 0.9 mph1.4 kmh 29.99 in1015.6 mb 0.00 in0.0 mm 0.00 in0.0 mm 0.00 in0.0 mm
03:50 AM 67.6°F19.8°C 64.6°F18.1°C 90% Calm Calm 0.9 mph1.4 kmh 29.99 in1015.6 mb 0.00 in0.0 mm 0.00 in0.0 mm 0.00 in0.0 mm
03:51 AM 67.5°F19.7°C 64.4°F18.0°C 90% Calm Calm 0.9 mph1.4 kmh 29.99 in1015.6 mb 0.00 in0.0 mm 0.00 in0.0 mm 0.00 in0.0 mm
03:52 AM 67.5°F19.7°C 64.4°F18.0°C 90% Calm Calm 0.9 mph1.4 kmh 29.99 in1015.6 mb 0.00 in0.0 mm 0.00 in0.0 mm 0.00 in0.0 mm
03:53 AM 67.5°F19.7°C 64.8°F18.2°C 91% Calm Calm 0.9 mph1.4 kmh 29.99 in1015.6 mb 0.00 in0.0 mm 0.00 in0.0 mm 0.00 in0.0 mm
03:54 AM 67.5°F19.7°C 64.8°F18.2°C 91% Calm Calm 0.9 mph1.4 kmh 29.99 in1015.6 mb 0.00 in0.0 mm 0.00 in0.0 mm 0.00 in0.0 mm
03:55 AM 67.5°F19.7°C 64.8°F18.2°C 91% Calm Calm -- 29.99 in1015.6 mb 0.00 in0.0 mm 0.00 in0.0 mm 0.00 in0.0 mm
03:56 AM 67.5°F19.7°C 64.8°F18.2°C 91% Calm Calm -- 29.99 in1015.6 mb 0.00 in0.0 mm 0.00 in0.0 mm 0.00 in0.0 mm
03:57 AM 67.5°F19.7°C 64.8°F18.2°C 91% Calm Calm -- 29.99 in1015.6 mb 0.00 in0.0 mm 0.00 in0.0 mm 0.00 in0.0 mm
03:58 AM 67.3°F19.6°C 64.6°F18.1°C 91% Calm Calm 0.9 mph1.4 kmh 29.99 in1015.6 mb 0.00 in0.0 mm 0.00 in0.0 mm 0.00 in0.0 mm
03:59 AM 67.3°F19.6°C 64.6°F18.1°C 91% Calm Calm 0.9 mph1.4 kmh 29.99 in1015.6 mb 0.00 in0.0 mm 0.00 in0.0 mm 0.00 in0.0 mm
04:00 AM 67.3°F19.6°C 64.6°F18.1°C 91% Calm Calm -- 29.99 in1015.6 mb 0.00 in0.0 mm 0.00 in0.0 mm 0.00 in0.0 mm
04:02 AM 67.3°F19.6°C 64.6°F18.1°C 91% Calm Calm -- 29.99 in1015.6 mb 0.00 in0.0 mm 0.00 in0.0 mm 0.00 in0.0 mm
04:03 AM 67.3°F19.6°C 64.6°F18.1°C 91% Calm Calm -- 29.99 in1015.6 mb 0.00 in0.0 mm 0.00 in0.0 mm 0.00 in0.0 mm
04:04 AM 67.3°F19.6°C 64.6°F18.1°C 91% Calm Calm -- 29.99 in1015.6 mb 0.00 in0.0 mm 0.00 in0.0 mm 0.00 in0.0 mm
04:05 AM 67.1°F19.5°C 64.4°F18.0°C 91% Calm Calm -- 29.99 in1015.6 mb 0.00 in0.0 mm 0.00 in0.0 mm 0.00 in0.0 mm
04:06 AM 67.1°F19.5°C 64.4°F18.0°C 91% Calm Calm -- 29.99 in1015.6 mb 0.00 in0.0 mm 0.00 in0.0 mm 0.00 in0.0 mm
04:07 AM 67.1°F19.5°C 64.4°F18.0°C 91% Calm Calm -- 29.99 in1015.6 mb 0.00 in0.0 mm 0.00 in0.0 mm 0.00 in0.0 mm
04:08 AM 66.9°F19.4°C 64.2°F17.9°C 91% Calm Calm -- 29.99 in1015.6 mb 0.00 in0.0 mm 0.00 in0.0 mm 0.00 in0.0 mm
04:09 AM 66.9°F19.4°C 64.2°F17.9°C 91% Calm Calm -- 29.99 in1015.6 mb 0.00 in0.0 mm 0.00 in0.0 mm 0.00 in0.0 mm
04:10 AM 66.9°F19.4°C 64.2°F17.9°C 91% Calm Calm 1.0 mph1.6 kmh 29.99 in1015.6 mb 0.00 in0.0 mm 0.00 in0.0 mm 0.00 in0.0 mm
04:11 AM 66.9°F19.4°C 64.2°F17.9°C 91% Calm Calm -- 29.99 in1015.6 mb 0.00 in0.0 mm 0.00 in0.0 mm 0.00 in0.0 mm
04:12 AM 66.7°F19.3°C 64.0°F17.8°C 91% Calm Calm -- 29.99 in1015.6 mb 0.00 in0.0 mm 0.00 in0.0 mm 0.00 in0.0 mm
04:13 AM 66.7°F19.3°C 64.0°F17.8°C 91% Calm Calm 0.9 mph1.4 kmh 29.99 in1015.6 mb 0.00 in0.0 mm 0.00 in0.0 mm 0.00 in0.0 mm
04:14 AM 66.7°F19.3°C 64.0°F17.8°C 91% Calm Calm 0.9 mph1.4 kmh 29.99 in1015.6 mb 0.00 in0.0 mm 0.00 in0.0 mm 0.00 in0.0 mm
04:15 AM 66.7°F19.3°C 64.0°F17.8°C 91% Calm Calm 0.9 mph1.4 kmh 29.99 in1015.6 mb 0.00 in0.0 mm 0.00 in0.0 mm 0.00 in0.0 mm
04:16 AM 66.7°F19.3°C 64.0°F17.8°C 91% Calm Calm 0.9 mph1.4 kmh 29.98 in1015.2 mb 0.00 in0.0 mm 0.00 in0.0 mm 0.00 in0.0 mm
04:17 AM 66.6°F19.2°C 63.9°F17.7°C 91% Calm Calm 0.9 mph1.4 kmh 29.99 in1015.6 mb 0.00 in0.0 mm 0.00 in0.0 mm 0.00 in0.0 mm
04:18 AM 66.6°F19.2°C 63.9°F17.7°C 91% Calm Calm 0.9 mph1.4 kmh 29.99 in1015.6 mb 0.00 in0.0 mm 0.00 in0.0 mm 0.00 in0.0 mm
04:19 AM 66.6°F19.2°C 63.9°F17.7°C 91% Calm Calm 0.9 mph1.4 kmh 29.99 in1015.6 mb 0.00 in0.0 mm 0.00 in0.0 mm 0.00 in0.0 mm
04:20 AM 66.4°F19.1°C 63.7°F17.6°C 91% Calm Calm -- 29.99 in1015.6 mb 0.00 in0.0 mm 0.00 in0.0 mm 0.00 in0.0 mm
04:21 AM 66.4°F19.1°C 63.7°F17.6°C 91% Calm Calm -- 29.99 in1015.6 mb 0.00 in0.0 mm 0.00 in0.0 mm 0.00 in0.0 mm
04:22 AM 66.4°F19.1°C 63.7°F17.6°C 91% Calm Calm -- 29.99 in1015.6 mb 0.00 in0.0 mm 0.00 in0.0 mm 0.00 in0.0 mm
04:23 AM 66.4°F19.1°C 63.7°F17.6°C 91% Calm Calm -- 29.99 in1015.6 mb 0.00 in0.0 mm 0.00 in0.0 mm 0.00 in0.0 mm
04:24 AM 66.4°F19.1°C 63.7°F17.6°C 91% Calm Calm -- 29.99 in1015.6 mb 0.00 in0.0 mm 0.00 in0.0 mm 0.00 in0.0 mm
04:25 AM 66.2°F19.0°C 63.5°F17.5°C 91% Calm Calm 0.9 mph1.4 kmh 29.99 in1015.6 mb 0.00 in0.0 mm 0.00 in0.0 mm 0.00 in0.0 mm
04:26 AM 66.2°F19.0°C 63.5°F17.5°C 91% Calm Calm 0.9 mph1.4 kmh 29.99 in1015.6 mb 0.00 in0.0 mm 0.00 in0.0 mm 0.00 in0.0 mm
04:27 AM 66.0°F18.9°C 63.3°F17.4°C 91% Calm Calm 0.9 mph1.4 kmh 29.99 in1015.6 mb 0.00 in0.0 mm 0.00 in0.0 mm 0.00 in0.0 mm
04:28 AM 66.0°F18.9°C 63.3°F17.4°C 91% Calm Calm 0.9 mph1.4 kmh 29.99 in1015.6 mb 0.00 in0.0 mm 0.00 in0.0 mm 0.00 in0.0 mm
04:29 AM 66.0°F18.9°C 63.3°F17.4°C 91% Calm Calm 0.9 mph1.4 kmh 29.99 in1015.6 mb 0.00 in0.0 mm 0.00 in0.0 mm 0.00 in0.0 mm
04:30 AM 66.0°F18.9°C 63.3°F17.4°C 91% Calm Calm 0.9 mph1.4 kmh 29.99 in1015.6 mb 0.00 in0.0 mm 0.00 in0.0 mm 0.00 in0.0 mm
04:31 AM 66.0°F18.9°C 63.3°F17.4°C 91% Calm Calm 0.9 mph1.4 kmh 29.99 in1015.6 mb 0.00 in0.0 mm 0.00 in0.0 mm 0.00 in0.0 mm
04:32 AM 65.8°F18.8°C 63.1°F17.3°C 91% Calm Calm -- 29.99 in1015.6 mb 0.00 in0.0 mm 0.00 in0.0 mm 0.00 in0.0 mm
04:33 AM 65.8°F18.8°C 63.1°F17.3°C 91% Calm Calm -- 29.99 in1015.6 mb 0.00 in0.0 mm 0.00 in0.0 mm 0.00 in0.0 mm
04:34 AM 65.8°F18.8°C 63.1°F17.3°C 91% Calm Calm -- 29.99 in1015.6 mb 0.00 in0.0 mm 0.00 in0.0 mm 0.00 in0.0 mm
04:35 AM 65.8°F18.8°C 63.1°F17.3°C 91% Calm Calm -- 29.99 in1015.6 mb 0.00 in0.0 mm 0.00 in0.0 mm 0.00 in0.0 mm
04:36 AM 65.8°F18.8°C 63.1°F17.3°C 91% Calm Calm -- 29.99 in1015.6 mb 0.00 in0.0 mm 0.00 in0.0 mm 0.00 in0.0 mm
04:37 AM 65.8°F18.8°C 63.1°F17.3°C 91% Calm Calm -- 29.99 in1015.6 mb 0.00 in0.0 mm 0.00 in0.0 mm 0.00 in0.0 mm
04:38 AM 65.8°F18.8°C 63.1°F17.3°C 91% Calm Calm -- 29.99 in1015.6 mb 0.00 in0.0 mm 0.00 in0.0 mm 0.00 in0.0 mm
04:39 AM 65.7°F18.7°C 63.0°F17.2°C 91% Calm Calm -- 29.99 in1015.6 mb 0.00 in0.0 mm 0.00 in0.0 mm 0.00 in0.0 mm
04:40 AM 65.7°F18.7°C 63.0°F17.2°C 91% Calm Calm -- 29.99 in1015.6 mb 0.00 in0.0 mm 0.00 in0.0 mm 0.00 in0.0 mm
04:41 AM 65.7°F18.7°C 63.3°F17.4°C 92% Calm Calm 1.0 mph1.6 kmh 29.99 in1015.6 mb 0.00 in0.0 mm 0.00 in0.0 mm 0.00 in0.0 mm
04:43 AM 65.7°F18.7°C 63.3°F17.4°C 92% Calm Calm -- 29.99 in1015.6 mb 0.00 in0.0 mm 0.00 in0.0 mm 0.00 in0.0 mm
04:44 AM 65.7°F18.7°C 63.3°F17.4°C 92% Calm Calm -- 29.99 in1015.6 mb 0.00 in0.0 mm 0.00 in0.0 mm 0.00 in0.0 mm
04:45 AM 65.7°F18.7°C 63.3°F17.4°C 92% Calm Calm -- 29.99 in1015.6 mb 0.00 in0.0 mm 0.00 in0.0 mm 0.00 in0.0 mm
04:46 AM 65.5°F18.6°C 62.8°F17.1°C 91% Calm Calm 0.9 mph1.4 kmh 29.99 in1015.6 mb 0.00 in0.0 mm 0.00 in0.0 mm 0.00 in0.0 mm
04:47 AM 65.5°F18.6°C 62.8°F17.1°C 91% Calm Calm -- 29.99 in1015.6 mb 0.00 in0.0 mm 0.00 in0.0 mm 0.00 in0.0 mm
04:48 AM 65.5°F18.6°C 63.1°F17.3°C 92% Calm Calm -- 29.99 in1015.6 mb 0.00 in0.0 mm 0.00 in0.0 mm 0.00 in0.0 mm
04:49 AM 65.5°F18.6°C 63.1°F17.3°C 92% Calm Calm -- 29.99 in1015.6 mb 0.00 in0.0 mm 0.00 in0.0 mm 0.00 in0.0 mm
04:50 AM 65.5°F18.6°C 63.1°F17.3°C 92% Calm Calm -- 29.99 in1015.6 mb 0.00 in0.0 mm 0.00 in0.0 mm 0.00 in0.0 mm
04:51 AM 65.5°F18.6°C 63.1°F17.3°C 92% Calm Calm -- 29.99 in1015.6 mb 0.00 in0.0 mm 0.00 in0.0 mm 0.00 in0.0 mm
04:52 AM 65.5°F18.6°C 63.1°F17.3°C 92% Calm Calm -- 29.99 in1015.6 mb 0.00 in0.0 mm 0.00 in0.0 mm 0.00 in0.0 mm
04:53 AM 65.5°F18.6°C 63.1°F17.3°C 92% Calm Calm -- 29.99 in1015.6 mb 0.00 in0.0 mm 0.00 in0.0 mm 0.00 in0.0 mm
04:54 AM 65.5°F18.6°C 63.1°F17.3°C 92% Calm Calm -- 29.99 in1015.6 mb 0.00 in0.0 mm 0.00 in0.0 mm 0.00 in0.0 mm
04:55 AM 65.3°F18.5°C 63.0°F17.2°C 92% Calm Calm -- 29.99 in1015.6 mb 0.00 in0.0 mm 0.00 in0.0 mm 0.00 in0.0 mm
04:56 AM 65.3°F18.5°C 63.0°F17.2°C 92% Calm Calm 1.0 mph1.6 kmh 29.99 in1015.6 mb 0.00 in0.0 mm 0.00 in0.0 mm 0.00 in0.0 mm
04:57 AM 65.3°F18.5°C 63.0°F17.2°C 92% Calm Calm -- 29.99 in1015.6 mb 0.00 in0.0 mm 0.00 in0.0 mm 0.00 in0.0 mm
04:58 AM 65.1°F18.4°C 62.8°F17.1°C 92% Calm Calm -- 29.99 in1015.6 mb 0.00 in0.0 mm 0.00 in0.0 mm 0.00 in0.0 mm
04:59 AM 65.3°F18.5°C 63.0°F17.2°C 92% Calm Calm -- 29.99 in1015.6 mb 0.00 in0.0 mm 0.00 in0.0 mm 0.00 in0.0 mm
05:00 AM 65.1°F18.4°C 62.8°F17.1°C 92% Calm Calm -- 29.99 in1015.6 mb 0.00 in0.0 mm 0.00 in0.0 mm 0.00 in0.0 mm
05:01 AM 65.1°F18.4°C 62.8°F17.1°C 92% Calm Calm -- 29.99 in1015.6 mb 0.00 in0.0 mm 0.00 in0.0 mm 0.00 in0.0 mm
05:02 AM 65.1°F18.4°C 62.8°F17.1°C 92% Calm Calm -- 29.99 in1015.6 mb 0.00 in0.0 mm 0.00 in0.0 mm 0.00 in0.0 mm
05:03 AM 65.1°F18.4°C 62.8°F17.1°C 92% Calm Calm -- 29.99 in1015.6 mb 0.00 in0.0 mm 0.00 in0.0 mm 0.00 in0.0 mm
05:04 AM 65.1°F18.4°C 62.8°F17.1°C 92% Calm Calm -- 29.99 in1015.6 mb 0.00 in0.0 mm 0.00 in0.0 mm 0.00 in0.0 mm
05:05 AM 65.1°F18.4°C 62.8°F17.1°C 92% Calm Calm -- 29.99 in1015.6 mb 0.00 in0.0 mm 0.00 in0.0 mm 0.00 in0.0 mm
05:06 AM 65.1°F18.4°C 62.8°F17.1°C 92% Calm Calm -- 29.99 in1015.6 mb 0.00 in0.0 mm 0.00 in0.0 mm 0.00 in0.0 mm
05:07 AM 65.1°F18.4°C 62.8°F17.1°C 92% Calm Calm -- 29.99 in1015.6 mb 0.00 in0.0 mm 0.00 in0.0 mm 0.00 in0.0 mm
05:08 AM 65.1°F18.4°C 63.0°F17.2°C 93% Calm Calm -- 29.99 in1015.6 mb 0.00 in0.0 mm 0.00 in0.0 mm 0.00 in0.0 mm
05:09 AM 65.1°F18.4°C 63.0°F17.2°C 93% Calm Calm -- 29.99 in1015.6 mb 0.00 in0.0 mm 0.00 in0.0 mm 0.00 in0.0 mm
05:10 AM 65.1°F18.4°C 63.0°F17.2°C 93% Calm Calm -- 29.99 in1015.6 mb 0.00 in0.0 mm 0.00 in0.0 mm 0.00 in0.0 mm
05:11 AM 65.1°F18.4°C 63.0°F17.2°C 93% Calm Calm 0.9 mph1.4 kmh 29.99 in1015.6 mb 0.00 in0.0 mm 0.00 in0.0 mm 0.00 in0.0 mm
05:12 AM 65.1°F18.4°C 63.0°F17.2°C 93% Calm Calm 0.9 mph1.4 kmh 29.99 in1015.6 mb 0.00 in0.0 mm 0.00 in0.0 mm 0.00 in0.0 mm
05:13 AM 65.1°F18.4°C 63.0°F17.2°C 93% Calm Calm 2.0 mph3.2 kmh 29.99 in1015.6 mb 0.00 in0.0 mm 0.00 in0.0 mm 0.00 in0.0 mm
05:14 AM 65.1°F18.4°C 63.0°F17.2°C 93% Calm Calm 2.0 mph3.2 kmh 29.99 in1015.6 mb 0.00 in0.0 mm 0.00 in0.0 mm 0.00 in0.0 mm
05:15 AM 65.1°F18.4°C 63.0°F17.2°C 93% Calm Calm 0.9 mph1.4 kmh 29.99 in1015.6 mb 0.00 in0.0 mm 0.00 in0.0 mm 0.00 in0.0 mm
05:16 AM 65.1°F18.4°C 63.0°F17.2°C 93% Calm Calm -- 29.99 in1015.6 mb 0.00 in0.0 mm 0.00 in0.0 mm 0.00 in0.0 mm
05:17 AM 65.1°F18.4°C 63.0°F17.2°C 93% Calm Calm 0.9 mph1.4 kmh 29.99 in1015.6 mb 0.01 in0.3 mm 0.60 in15.2 mm 0.01 in0.3 mm
05:18 AM 65.1°F18.4°C 63.0°F17.2°C 93% Calm Calm 2.0 mph3.2 kmh 30.00 in1015.9 mb 0.01 in0.3 mm 0.00 in0.0 mm 0.01 in0.3 mm
05:19 AM 65.1°F18.4°C 63.0°F17.2°C 93% 0.9 mph S1.4 kmh S 2.0 mph3.2 kmh 29.99 in1015.6 mb 0.01 in0.3 mm 0.00 in0.0 mm 0.01 in0.3 mm
05:20 AM 65.1°F18.4°C 63.0°F17.2°C 93% 0.9 mph S1.4 kmh S 2.0 mph3.2 kmh 29.99 in1015.6 mb 0.01 in0.3 mm 0.00 in0.0 mm 0.01 in0.3 mm
05:21 AM 65.1°F18.4°C 63.0°F17.2°C 93% 0.9 mph S1.4 kmh S -- 29.99 in1015.6 mb 0.01 in0.3 mm 0.00 in0.0 mm 0.01 in0.3 mm
05:22 AM 65.1°F18.4°C 63.0°F17.2°C 93% 0.9 mph S1.4 kmh S 0.9 mph1.4 kmh 29.99 in1015.6 mb 0.01 in0.3 mm 0.00 in0.0 mm 0.01 in0.3 mm
05:23 AM 65.1°F18.4°C 63.0°F17.2°C 93% 0.9 mph S1.4 kmh S 0.9 mph1.4 kmh 29.99 in1015.6 mb 0.01 in0.3 mm 0.00 in0.0 mm 0.01 in0.3 mm
05:24 AM 65.1°F18.4°C 63.0°F17.2°C 93% 0.9 mph S1.4 kmh S 2.0 mph3.2 kmh 29.99 in1015.6 mb 0.01 in0.3 mm 0.00 in0.0 mm 0.01 in0.3 mm
05:25 AM 65.1°F18.4°C 63.0°F17.2°C 93% 0.9 mph S1.4 kmh S 0.9 mph1.4 kmh 29.99 in1015.6 mb 0.02 in0.5 mm 0.60 in15.2 mm 0.02 in0.5 mm
05:26 AM 65.1°F18.4°C 63.0°F17.2°C 93% 0.9 mph S1.4 kmh S 2.0 mph3.2 kmh 29.99 in1015.6 mb 0.02 in0.5 mm 0.00 in0.0 mm 0.02 in0.5 mm
05:27 AM 65.1°F18.4°C 63.0°F17.2°C 93% 0.9 mph S1.4 kmh S 0.9 mph1.4 kmh 29.99 in1015.6 mb 0.02 in0.5 mm 0.00 in0.0 mm 0.02 in0.5 mm
05:28 AM 64.9°F18.3°C 62.8°F17.1°C 93% 0.9 mph S1.4 kmh S 0.9 mph1.4 kmh 29.99 in1015.6 mb 0.02 in0.5 mm 0.00 in0.0 mm 0.02 in0.5 mm
05:29 AM 65.1°F18.4°C 63.0°F17.2°C 93% 0.9 mph S1.4 kmh S 0.9 mph1.4 kmh 29.99 in1015.6 mb 0.02 in0.5 mm 0.00 in0.0 mm 0.02 in0.5 mm
05:30 AM 64.9°F18.3°C 62.8°F17.1°C 93% 0.9 mph S1.4 kmh S -- 29.99 in1015.6 mb 0.02 in0.5 mm 0.00 in0.0 mm 0.02 in0.5 mm
05:31 AM 64.9°F18.3°C 62.8°F17.1°C 93% 0.9 mph S1.4 kmh S -- 29.99 in1015.6 mb 0.02 in0.5 mm 0.00 in0.0 mm 0.02 in0.5 mm
05:32 AM 64.9°F18.3°C 62.8°F17.1°C 93% 0.9 mph S1.4 kmh S -- 29.99 in1015.6 mb 0.02 in0.5 mm 0.00 in0.0 mm 0.02 in0.5 mm
05:33 AM 64.9°F18.3°C 63.1°F17.3°C 94% Calm Calm -- 30.00 in1015.9 mb 0.02 in0.5 mm 0.00 in0.0 mm 0.02 in0.5 mm
05:34 AM 64.9°F18.3°C 63.1°F17.3°C 94% Calm Calm -- 29.99 in1015.6 mb 0.02 in0.5 mm 0.00 in0.0 mm 0.02 in0.5 mm
05:36 AM 64.9°F18.3°C 63.1°F17.3°C 94% Calm Calm 2.0 mph3.2 kmh 29.99 in1015.6 mb 0.02 in0.5 mm 0.00 in0.0 mm 0.02 in0.5 mm
05:37 AM 64.9°F18.3°C 63.1°F17.3°C 94% Calm Calm 2.0 mph3.2 kmh 30.00 in1015.9 mb 0.02 in0.5 mm 0.00 in0.0 mm 0.02 in0.5 mm
05:38 AM 64.9°F18.3°C 63.1°F17.3°C 94% Calm Calm -- 30.00 in1015.9 mb 0.02 in0.5 mm 0.00 in0.0 mm 0.02 in0.5 mm
05:39 AM 64.9°F18.3°C 63.1°F17.3°C 94% Calm Calm -- 30.00 in1015.9 mb 0.03 in0.8 mm 0.60 in15.2 mm 0.03 in0.8 mm
05:40 AM 65.1°F18.4°C 63.3°F17.4°C 94% Calm Calm -- 30.00 in1015.9 mb 0.03 in0.8 mm 0.00 in0.0 mm 0.03 in0.8 mm
05:41 AM 65.1°F18.4°C 63.3°F17.4°C 94% Calm Calm -- 30.00 in1015.9 mb 0.03 in0.8 mm 0.00 in0.0 mm 0.03 in0.8 mm
05:42 AM 65.1°F18.4°C 63.3°F17.4°C 94% Calm Calm -- 30.00 in1015.9 mb 0.03 in0.8 mm 0.00 in0.0 mm 0.03 in0.8 mm
05:43 AM 65.1°F18.4°C 63.3°F17.4°C 94% Calm Calm -- 30.00 in1015.9 mb 0.03 in0.8 mm 0.00 in0.0 mm 0.03 in0.8 mm
05:44 AM 65.1°F18.4°C 63.3°F17.4°C 94% Calm Calm -- 30.00 in1015.9 mb 0.03 in0.8 mm 0.00 in0.0 mm 0.03 in0.8 mm
05:45 AM 65.1°F18.4°C 63.3°F17.4°C 94% Calm Calm -- 30.00 in1015.9 mb 0.03 in0.8 mm 0.00 in0.0 mm 0.03 in0.8 mm
05:46 AM 65.1°F18.4°C 63.3°F17.4°C 94% Calm Calm 1.0 mph1.6 kmh 30.00 in1015.9 mb 0.03 in0.8 mm 0.00 in0.0 mm 0.03 in0.8 mm
05:47 AM 65.1°F18.4°C 63.3°F17.4°C 94% Calm Calm -- 30.00 in1015.9 mb 0.04 in1.0 mm 0.60 in15.2 mm 0.04 in1.0 mm
05:48 AM 65.1°F18.4°C 63.3°F17.4°C 94% Calm Calm -- 30.00 in1015.9 mb 0.04 in1.0 mm 0.00 in0.0 mm 0.04 in1.0 mm
05:49 AM 65.1°F18.4°C 63.3°F17.4°C 94% Calm Calm -- 30.00 in1015.9 mb 0.04 in1.0 mm 0.00 in0.0 mm 0.04 in1.0 mm
05:50 AM 64.9°F18.3°C 63.5°F17.5°C 95% Calm Calm 0.9 mph1.4 kmh 30.00 in1015.9 mb 0.04 in1.0 mm 0.00 in0.0 mm 0.04 in1.0 mm
05:51 AM 64.9°F18.3°C 63.5°F17.5°C 95% Calm Calm -- 30.00 in1015.9 mb 0.04 in1.0 mm 0.00 in0.0 mm 0.04 in1.0 mm
05:52 AM 64.9°F18.3°C 63.5°F17.5°C 95% Calm Calm 0.9 mph1.4 kmh 30.00 in1015.9 mb 0.04 in1.0 mm 0.00 in0.0 mm 0.04 in1.0 mm
05:53 AM 64.9°F18.3°C 63.5°F17.5°C 95% Calm Calm 0.9 mph1.4 kmh 30.00 in1015.9 mb 0.04 in1.0 mm 0.00 in0.0 mm 0.04 in1.0 mm
05:54 AM 64.9°F18.3°C 63.1°F17.3°C 94% Calm Calm 0.9 mph1.4 kmh 30.00 in1015.9 mb 0.04 in1.0 mm 0.00 in0.0 mm 0.04 in1.0 mm
05:55 AM 64.9°F18.3°C 63.1°F17.3°C 94% Calm Calm 0.9 mph1.4 kmh 30.00 in1015.9 mb 0.04 in1.0 mm 0.00 in0.0 mm 0.04 in1.0 mm
05:56 AM 64.8°F18.2°C 63.0°F17.2°C 94% Calm Calm -- 30.00 in1015.9 mb 0.04 in1.0 mm 0.00 in0.0 mm 0.04 in1.0 mm
05:57 AM 64.8°F18.2°C 63.0°F17.2°C 94% Calm Calm -- 30.00 in1015.9 mb 0.04 in1.0 mm 0.00 in0.0 mm 0.04 in1.0 mm
05:58 AM 64.8°F18.2°C 63.0°F17.2°C 94% Calm Calm -- 30.00 in1015.9 mb 0.04 in1.0 mm 0.00 in0.0 mm 0.04 in1.0 mm
05:59 AM 64.8°F18.2°C 63.0°F17.2°C 94% Calm Calm -- 30.00 in1015.9 mb 0.04 in1.0 mm 0.00 in0.0 mm 0.04 in1.0 mm
06:00 AM 64.8°F18.2°C 63.0°F17.2°C 94% Calm Calm 0.9 mph1.4 kmh 30.00 in1015.9 mb 0.04 in1.0 mm 0.00 in0.0 mm 0.04 in1.0 mm
06:01 AM 64.8°F18.2°C 63.0°F17.2°C 94% Calm Calm -- 30.00 in1015.9 mb 0.04 in1.0 mm 0.00 in0.0 mm 0.04 in1.0 mm
06:02 AM 64.6°F18.1°C 62.8°F17.1°C 94% Calm Calm -- 30.00 in1015.9 mb 0.04 in1.0 mm 0.00 in0.0 mm 0.04 in1.0 mm
06:03 AM 64.8°F18.2°C 63.0°F17.2°C 94% Calm Calm -- 30.00 in1015.9 mb 0.04 in1.0 mm 0.00 in0.0 mm 0.04 in1.0 mm
06:04 AM 64.6°F18.1°C 62.8°F17.1°C 94% Calm Calm -- 30.00 in1015.9 mb 0.04 in1.0 mm 0.00 in0.0 mm 0.04 in1.0 mm
06:05 AM 64.6°F18.1°C 62.8°F17.1°C 94% Calm Calm -- 30.00 in1015.9 mb 0.04 in1.0 mm 0.00 in0.0 mm 0.04 in1.0 mm
06:06 AM 64.6°F18.1°C 62.8°F17.1°C 94% Calm Calm -- 30.00 in1015.9 mb 0.04 in1.0 mm 0.00 in0.0 mm 0.04 in1.0 mm
06:07 AM 64.6°F18.1°C 62.8°F17.1°C 94% Calm Calm -- 30.00 in1015.9 mb 0.04 in1.0 mm 0.00 in0.0 mm 0.04 in1.0 mm
06:08 AM 64.6°F18.1°C 62.8°F17.1°C 94% Calm Calm -- 30.00 in1015.9 mb 0.04 in1.0 mm 0.00 in0.0 mm 0.04 in1.0 mm
06:09 AM 64.6°F18.1°C 62.8°F17.1°C 94% Calm Calm 0.9 mph1.4 kmh 30.00 in1015.9 mb 0.04 in1.0 mm 0.00 in0.0 mm 0.04 in1.0 mm
06:10 AM 64.4°F18.0°C 62.6°F17.0°C 94% Calm Calm 0.9 mph1.4 kmh 30.00 in1015.9 mb 0.04 in1.0 mm 0.00 in0.0 mm 0.04 in1.0 mm
06:11 AM 64.4°F18.0°C 62.6°F17.0°C 94% Calm Calm 0.9 mph1.4 kmh 30.00 in1015.9 mb 0.04 in1.0 mm 0.00 in0.0 mm 0.04 in1.0 mm
06:12 AM 64.4°F18.0°C 62.6°F17.0°C 94% Calm Calm 0.9 mph1.4 kmh 30.00 in1015.9 mb 0.04 in1.0 mm 0.00 in0.0 mm 0.04 in1.0 mm
06:13 AM 64.2°F17.9°C 62.4°F16.9°C 94% Calm Calm 0.9 mph1.4 kmh 30.00 in1015.9 mb 0.04 in1.0 mm 0.00 in0.0 mm 0.04 in1.0 mm
06:14 AM 64.2°F17.9°C 62.4°F16.9°C 94% Calm Calm -- 30.00 in1015.9 mb 0.04 in1.0 mm 0.00 in0.0 mm 0.04 in1.0 mm
06:15 AM 64.2°F17.9°C 62.8°F17.1°C 95% Calm Calm -- 30.00 in1015.9 mb 0.04 in1.0 mm 0.00 in0.0 mm 0.04 in1.0 mm
06:16 AM 64.2°F17.9°C 62.8°F17.1°C 95% Calm Calm -- 30.00 in1015.9 mb 0.04 in1.0 mm 0.00 in0.0 mm 0.04 in1.0 mm
06:17 AM 64.2°F17.9°C 62.8°F17.1°C 95% Calm Calm -- 30.00 in1015.9 mb 0.03 in0.8 mm 0.00 in0.0 mm 0.04 in1.0 mm
06:18 AM 64.2°F17.9°C 62.8°F17.1°C 95% Calm Calm -- 30.01 in1016.3 mb 0.03 in0.8 mm 0.00 in0.0 mm 0.04 in1.0 mm
06:19 AM 64.2°F17.9°C 62.8°F17.1°C 95% Calm Calm -- 30.01 in1016.3 mb 0.03 in0.8 mm 0.00 in0.0 mm 0.04 in1.0 mm
06:20 AM 64.2°F17.9°C 62.8°F17.1°C 95% Calm Calm -- 30.01 in1016.3 mb 0.03 in0.8 mm 0.00 in0.0 mm 0.04 in1.0 mm
06:21 AM 64.2°F17.9°C 62.8°F17.1°C 95% Calm Calm -- 30.01 in1016.3 mb 0.03 in0.8 mm 0.00 in0.0 mm 0.04 in1.0 mm
06:22 AM 64.2°F17.9°C 62.8°F17.1°C 95% Calm Calm -- 30.01 in1016.3 mb 0.03 in0.8 mm 0.00 in0.0 mm 0.04 in1.0 mm
06:23 AM 64.2°F17.9°C 62.8°F17.1°C 95% Calm Calm 1.0 mph1.6 kmh 30.00 in1015.9 mb 0.03 in0.8 mm 0.00 in0.0 mm 0.04 in1.0 mm
06:24 AM 64.2°F17.9°C 62.8°F17.1°C 95% Calm Calm -- 30.01 in1016.3 mb 0.03 in0.8 mm 0.00 in0.0 mm 0.04 in1.0 mm
06:25 AM 64.2°F17.9°C 62.8°F17.1°C 95% Calm Calm -- 30.00 in1015.9 mb 0.03 in0.8 mm 0.00 in0.0 mm 0.04 in1.0 mm
06:26 AM 64.2°F17.9°C 62.8°F17.1°C 95% Calm Calm 0.9 mph1.4 kmh 30.00 in1015.9 mb 0.02 in0.5 mm 0.00 in0.0 mm 0.04 in1.0 mm
06:27 AM 64.0°F17.8°C 62.6°F17.0°C 95% Calm Calm 0.9 mph1.4 kmh 30.01 in1016.3 mb 0.02 in0.5 mm 0.00 in0.0 mm 0.04 in1.0 mm
06:28 AM 64.0°F17.8°C 62.6°F17.0°C 95% Calm Calm 0.9 mph1.4 kmh 30.01 in1016.3 mb 0.02 in0.5 mm 0.00 in0.0 mm 0.04 in1.0 mm
06:29 AM 64.2°F17.9°C 62.8°F17.1°C 95% Calm Calm 0.9 mph1.4 kmh 30.01 in1016.3 mb 0.02 in0.5 mm 0.00 in0.0 mm 0.04 in1.0 mm
06:30 AM 64.0°F17.8°C 62.6°F17.0°C 95% Calm Calm 0.9 mph1.4 kmh 30.00 in1015.9 mb 0.02 in0.5 mm 0.00 in0.0 mm 0.04 in1.0 mm
06:31 AM 64.0°F17.8°C 62.6°F17.0°C 95% Calm Calm 0.9 mph1.4 kmh 30.00 in1015.9 mb 0.02 in0.5 mm 0.00 in0.0 mm 0.04 in1.0 mm
06:32 AM 64.0°F17.8°C 62.6°F17.0°C 95% Calm Calm 0.9 mph1.4 kmh 30.00 in1015.9 mb 0.02 in0.5 mm 0.00 in0.0 mm 0.04 in1.0 mm
06:33 AM 64.0°F17.8°C 62.6°F17.0°C 95% Calm Calm 0.9 mph1.4 kmh 30.00 in1015.9 mb 0.02 in0.5 mm 0.00 in0.0 mm 0.04 in1.0 mm
06:34 AM 64.0°F17.8°C 62.6°F17.0°C 95% Calm Calm -- 30.00 in1015.9 mb 0.02 in0.5 mm 0.00 in0.0 mm 0.04 in1.0 mm
06:35 AM 64.0°F17.8°C 62.6°F17.0°C 95% Calm Calm -- 30.01 in1016.3 mb 0.02 in0.5 mm 0.00 in0.0 mm 0.04 in1.0 mm
06:36 AM 64.0°F17.8°C 62.6°F17.0°C 95% Calm Calm -- 30.01 in1016.3 mb 0.02 in0.5 mm 0.00 in0.0 mm 0.04 in1.0 mm
06:37 AM 64.0°F17.8°C 62.6°F17.0°C 95% Calm Calm -- 30.01 in1016.3 mb 0.02 in0.5 mm 0.00 in0.0 mm 0.04 in1.0 mm
06:38 AM 64.0°F17.8°C 62.6°F17.0°C 95% Calm Calm -- 30.00 in1015.9 mb 0.01 in0.3 mm 0.00 in0.0 mm 0.04 in1.0 mm
06:39 AM 64.0°F17.8°C 62.6°F17.0°C 95% Calm Calm -- 30.01 in1016.3 mb 0.01 in0.3 mm 0.00 in0.0 mm 0.04 in1.0 mm
06:40 AM 64.0°F17.8°C 62.6°F17.0°C 95% Calm Calm -- 30.01 in1016.3 mb 0.01 in0.3 mm 0.00 in0.0 mm 0.04 in1.0 mm
06:41 AM 64.0°F17.8°C 62.6°F17.0°C 95% Calm Calm -- 30.01 in1016.3 mb 0.01 in0.3 mm 0.00 in0.0 mm 0.04 in1.0 mm
06:42 AM 64.0°F17.8°C 62.6°F17.0°C 95% Calm Calm -- 30.01 in1016.3 mb 0.01 in0.3 mm 0.00 in0.0 mm 0.04 in1.0 mm
06:43 AM 64.0°F17.8°C 62.6°F17.0°C 95% Calm Calm 1.0 mph1.6 kmh 30.01 in1016.3 mb 0.01 in0.3 mm 0.00 in0.0 mm 0.04 in1.0 mm
06:44 AM 64.0°F17.8°C 62.6°F17.0°C 95% Calm Calm -- 30.01 in1016.3 mb 0.01 in0.3 mm 0.00 in0.0 mm 0.04 in1.0 mm
06:45 AM 64.0°F17.8°C 62.6°F17.0°C 95% Calm Calm -- 30.01 in1016.3 mb 0.01 in0.3 mm 0.00 in0.0 mm 0.04 in1.0 mm
06:46 AM 64.0°F17.8°C 62.6°F17.0°C 95% Calm Calm -- 30.01 in1016.3 mb 0.00 in0.0 mm 0.00 in0.0 mm 0.04 in1.0 mm
06:47 AM 64.0°F17.8°C 62.6°F17.0°C 95% Calm Calm -- 30.01 in1016.3 mb 0.00 in0.0 mm 0.00 in0.0 mm 0.04 in1.0 mm
06:48 AM 64.0°F17.8°C 62.6°F17.0°C 95% Calm Calm -- 30.01 in1016.3 mb 0.00 in0.0 mm 0.00 in0.0 mm 0.04 in1.0 mm
06:49 AM 64.0°F17.8°C 62.6°F17.0°C 95% Calm Calm -- 30.01 in1016.3 mb 0.00 in0.0 mm 0.00 in0.0 mm 0.04 in1.0 mm
06:50 AM 64.0°F17.8°C 62.6°F17.0°C 95% Calm Calm -- 30.01 in1016.3 mb 0.00 in0.0 mm 0.00 in0.0 mm 0.04 in1.0 mm
06:51 AM 64.0°F17.8°C 62.6°F17.0°C 95% Calm Calm -- 30.01 in1016.3 mb 0.00 in0.0 mm 0.00 in0.0 mm 0.04 in1.0 mm
06:52 AM 64.0°F17.8°C 62.6°F17.0°C 95% Calm Calm 0.9 mph1.4 kmh 30.01 in1016.3 mb 0.00 in0.0 mm 0.00 in0.0 mm 0.04 in1.0 mm
06:53 AM 64.0°F17.8°C 62.6°F17.0°C 95% Calm Calm 0.9 mph1.4 kmh 30.01 in1016.3 mb 0.00 in0.0 mm 0.00 in0.0 mm 0.04 in1.0 mm
06:54 AM 64.0°F17.8°C 62.6°F17.0°C 95% Calm Calm 0.9 mph1.4 kmh 30.01 in1016.3 mb 0.00 in0.0 mm 0.00 in0.0 mm 0.04 in1.0 mm
06:55 AM 64.0°F17.8°C 62.6°F17.0°C 95% Calm Calm 0.9 mph1.4 kmh 30.01 in1016.3 mb 0.00 in0.0 mm 0.00 in0.0 mm 0.04 in1.0 mm
06:56 AM 64.0°F17.8°C 62.6°F17.0°C 95% Calm Calm 0.9 mph1.4 kmh 30.01 in1016.3 mb 0.00 in0.0 mm 0.00 in0.0 mm 0.04 in1.0 mm
06:57 AM 64.0°F17.8°C 62.6°F17.0°C 95% Calm Calm 0.9 mph1.4 kmh 30.01 in1016.3 mb 0.00 in0.0 mm 0.00 in0.0 mm 0.04 in1.0 mm
06:58 AM 64.0°F17.8°C 62.6°F17.0°C 95% Calm Calm 0.9 mph1.4 kmh 30.01 in1016.3 mb 0.00 in0.0 mm 0.00 in0.0 mm 0.04 in1.0 mm
06:59 AM 64.0°F17.8°C 62.6°F17.0°C 95% Calm Calm 0.9 mph1.4 kmh 30.01 in1016.3 mb 0.00 in0.0 mm 0.00 in0.0 mm 0.04 in1.0 mm
07:00 AM 64.0°F17.8°C 62.6°F17.0°C 95% Calm Calm 0.9 mph1.4 kmh 30.01 in1016.3 mb 0.00 in0.0 mm 0.00 in0.0 mm 0.04 in1.0 mm
07:01 AM 64.0°F17.8°C 62.6°F17.0°C 95% Calm Calm 0.9 mph1.4 kmh 30.01 in1016.3 mb 0.00 in0.0 mm 0.00 in0.0 mm 0.04 in1.0 mm
07:02 AM 64.0°F17.8°C 62.6°F17.0°C 95% Calm Calm 0.9 mph1.4 kmh 30.01 in1016.3 mb 0.00 in0.0 mm 0.00 in0.0 mm 0.04 in1.0 mm
07:03 AM 64.0°F17.8°C 62.6°F17.0°C 95% Calm Calm -- 30.01 in1016.3 mb 0.00 in0.0 mm 0.00 in0.0 mm 0.04 in1.0 mm
07:04 AM 64.0°F17.8°C 62.6°F17.0°C 95% Calm Calm -- 30.01 in1016.3 mb 0.00 in0.0 mm 0.00 in0.0 mm 0.04 in1.0 mm
07:05 AM 64.0°F17.8°C 62.6°F17.0°C 95% Calm Calm -- 30.01 in1016.3 mb 0.00 in0.0 mm 0.00 in0.0 mm 0.04 in1.0 mm
07:06 AM 64.0°F17.8°C 62.6°F17.0°C 95% Calm Calm -- 30.01 in1016.3 mb 0.00 in0.0 mm 0.00 in0.0 mm 0.04 in1.0 mm
07:07 AM 64.0°F17.8°C 62.6°F17.0°C 95% Calm Calm -- 30.01 in1016.3 mb 0.00 in0.0 mm 0.00 in0.0 mm 0.04 in1.0 mm
07:08 AM 64.0°F17.8°C 62.6°F17.0°C 95% Calm Calm -- 30.01 in1016.3 mb 0.00 in0.0 mm 0.00 in0.0 mm 0.04 in1.0 mm
07:09 AM 64.0°F17.8°C 62.6°F17.0°C 95% Calm Calm -- 30.01 in1016.3 mb 0.00 in0.0 mm 0.00 in0.0 mm 0.04 in1.0 mm
07:10 AM 64.0°F17.8°C 62.6°F17.0°C 95% Calm Calm -- 30.01 in1016.3 mb 0.00 in0.0 mm 0.00 in0.0 mm 0.04 in1.0 mm
07:11 AM 64.0°F17.8°C 63.0°F17.2°C 96% Calm Calm -- 30.01 in1016.3 mb 0.00 in0.0 mm 0.00 in0.0 mm 0.04 in1.0 mm
07:12 AM 64.0°F17.8°C 62.6°F17.0°C 95% Calm Calm 1.0 mph1.6 kmh 30.01 in1016.3 mb 0.00 in0.0 mm 0.00 in0.0 mm 0.04 in1.0 mm
07:13 AM 64.0°F17.8°C 63.0°F17.2°C 96% Calm Calm 0.9 mph1.4 kmh 30.01 in1016.3 mb 0.00 in0.0 mm 0.00 in0.0 mm 0.04 in1.0 mm
07:15 AM 64.0°F17.8°C 63.0°F17.2°C 96% Calm Calm 0.9 mph1.4 kmh 30.01 in1016.3 mb 0.00 in0.0 mm 0.00 in0.0 mm 0.04 in1.0 mm
07:16 AM 64.2°F17.9°C 63.1°F17.3°C 96% Calm Calm -- 30.01 in1016.3 mb 0.00 in0.0 mm 0.00 in0.0 mm 0.04 in1.0 mm
07:17 AM 64.2°F17.9°C 63.1°F17.3°C 96% Calm Calm -- 30.01 in1016.3 mb 0.00 in0.0 mm 0.00 in0.0 mm 0.04 in1.0 mm
07:18 AM 64.2°F17.9°C 63.1°F17.3°C 96% Calm Calm 0.9 mph1.4 kmh 30.01 in1016.3 mb 0.00 in0.0 mm 0.00 in0.0 mm 0.04 in1.0 mm
07:19 AM 64.2°F17.9°C 63.1°F17.3°C 96% Calm Calm 0.9 mph1.4 kmh 30.01 in1016.3 mb 0.00 in0.0 mm 0.00 in0.0 mm 0.04 in1.0 mm
07:20 AM 64.2°F17.9°C 63.1°F17.3°C 96% Calm Calm 0.9 mph1.4 kmh 30.01 in1016.3 mb 0.00 in0.0 mm 0.00 in0.0 mm 0.04 in1.0 mm
07:21 AM 64.2°F17.9°C 63.1°F17.3°C 96% Calm Calm 0.9 mph1.4 kmh 30.01 in1016.3 mb 0.00 in0.0 mm 0.00 in0.0 mm 0.04 in1.0 mm
07:22 AM 64.2°F17.9°C 63.1°F17.3°C 96% Calm Calm 0.9 mph1.4 kmh 30.01 in1016.3 mb 0.00 in0.0 mm 0.00 in0.0 mm 0.04 in1.0 mm
07:23 AM 64.4°F18.0°C 63.3°F17.4°C 96% Calm Calm 0.9 mph1.4 kmh 30.01 in1016.3 mb 0.00 in0.0 mm 0.00 in0.0 mm 0.04 in1.0 mm
07:24 AM 64.4°F18.0°C 63.3°F17.4°C 96% 0.9 mph NE1.4 kmh NE 0.9 mph1.4 kmh 30.01 in1016.3 mb 0.00 in0.0 mm 0.00 in0.0 mm 0.04 in1.0 mm
07:25 AM 64.4°F18.0°C 63.3°F17.4°C 96% 0.9 mph NE1.4 kmh NE 0.9 mph1.4 kmh 30.01 in1016.3 mb 0.00 in0.0 mm 0.00 in0.0 mm 0.04 in1.0 mm
07:26 AM 64.4°F18.0°C 63.3°F17.4°C 96% 0.9 mph NE1.4 kmh NE 0.9 mph1.4 kmh 30.01 in1016.3 mb 0.00 in0.0 mm 0.00 in0.0 mm 0.04 in1.0 mm
07:27 AM 64.4°F18.0°C 63.3°F17.4°C 96% 0.9 mph NE1.4 kmh NE 0.9 mph1.4 kmh 30.01 in1016.3 mb 0.00 in0.0 mm 0.00 in0.0 mm 0.04 in1.0 mm
07:28 AM 64.6°F18.1°C 63.5°F17.5°C 96% 0.9 mph NE1.4 kmh NE 0.9 mph1.4 kmh 30.01 in1016.3 mb 0.00 in0.0 mm 0.00 in0.0 mm 0.04 in1.0 mm
07:29 AM 64.6°F18.1°C 63.5°F17.5°C 96% 0.9 mph NE1.4 kmh NE 0.9 mph1.4 kmh 30.01 in1016.3 mb 0.00 in0.0 mm 0.00 in0.0 mm 0.04 in1.0 mm
07:30 AM 64.6°F18.1°C 63.5°F17.5°C 96% 0.9 mph NE1.4 kmh NE 0.9 mph1.4 kmh 30.01 in1016.3 mb 0.00 in0.0 mm 0.00 in0.0 mm 0.04 in1.0 mm
07:31 AM 64.6°F18.1°C 63.5°F17.5°C 96% 0.9 mph NE1.4 kmh NE 0.9 mph1.4 kmh 30.01 in1016.3 mb 0.00 in0.0 mm 0.00 in0.0 mm 0.04 in1.0 mm
07:32 AM 64.6°F18.1°C 63.5°F17.5°C 96% 0.9 mph NE1.4 kmh NE 0.9 mph1.4 kmh 30.01 in1016.3 mb 0.00 in0.0 mm 0.00 in0.0 mm 0.04 in1.0 mm
07:33 AM 64.6°F18.1°C 63.5°F17.5°C 96% 0.9 mph ENE1.4 kmh ENE 2.0 mph3.2 kmh 30.01 in1016.3 mb 0.00 in0.0 mm 0.00 in0.0 mm 0.04 in1.0 mm
07:34 AM 64.6°F18.1°C 63.5°F17.5°C 96% 0.9 mph ENE1.4 kmh ENE 2.0 mph3.2 kmh 30.01 in1016.3 mb 0.00 in0.0 mm 0.00 in0.0 mm 0.04 in1.0 mm
07:35 AM 64.8°F18.2°C 63.7°F17.6°C 96% 0.9 mph ENE1.4 kmh ENE 2.0 mph3.2 kmh 30.01 in1016.3 mb 0.00 in0.0 mm 0.00 in0.0 mm 0.04 in1.0 mm
07:36 AM 64.8°F18.2°C 63.7°F17.6°C 96% 0.9 mph ENE1.4 kmh ENE 2.0 mph3.2 kmh 30.01 in1016.3 mb 0.00 in0.0 mm 0.00 in0.0 mm 0.04 in1.0 mm
07:37 AM 64.8°F18.2°C 63.7°F17.6°C 96% 0.9 mph ENE1.4 kmh ENE 2.0 mph3.2 kmh 30.01 in1016.3 mb 0.00 in0.0 mm 0.00 in0.0 mm 0.04 in1.0 mm
07:38 AM 64.8°F18.2°C 63.7°F17.6°C 96% 0.9 mph ENE1.4 kmh ENE 2.0 mph3.2 kmh 30.01 in1016.3 mb 0.00 in0.0 mm 0.00 in0.0 mm 0.04 in1.0 mm
07:39 AM 64.8°F18.2°C 63.7°F17.6°C 96% 0.9 mph ENE1.4 kmh ENE 2.0 mph3.2 kmh 30.01 in1016.3 mb 0.00 in0.0 mm 0.00 in0.0 mm 0.04 in1.0 mm
07:40 AM 64.9°F18.3°C 63.9°F17.7°C 96% 0.9 mph ENE1.4 kmh ENE 2.0 mph3.2 kmh 30.01 in1016.3 mb 0.00 in0.0 mm 0.00 in0.0 mm 0.04 in1.0 mm
07:41 AM 64.9°F18.3°C 63.9°F17.7°C 96% 0.9 mph ENE1.4 kmh ENE 2.0 mph3.2 kmh 30.01 in1016.3 mb 0.00 in0.0 mm 0.00 in0.0 mm 0.04 in1.0 mm
07:42 AM 65.1°F18.4°C 64.2°F17.9°C 97% 0.9 mph SSE1.4 kmh SSE 4.0 mph6.4 kmh 30.01 in1016.3 mb 0.00 in0.0 mm 0.00 in0.0 mm 0.04 in1.0 mm
07:43 AM 65.1°F18.4°C 64.2°F17.9°C 97% 0.9 mph SSE1.4 kmh SSE 5.0 mph8.0 kmh 30.01 in1016.3 mb 0.00 in0.0 mm 0.00 in0.0 mm 0.04 in1.0 mm
07:44 AM 65.5°F18.6°C 64.6°F18.1°C 97% 2.0 mph SSE3.2 kmh SSE 4.9 mph7.9 kmh 30.01 in1016.3 mb 0.00 in0.0 mm 0.00 in0.0 mm 0.04 in1.0 mm
07:45 AM 65.5°F18.6°C 64.6°F18.1°C 97% 2.0 mph SSE3.2 kmh SSE 4.0 mph6.4 kmh 30.01 in1016.3 mb 0.00 in0.0 mm 0.00 in0.0 mm 0.04 in1.0 mm
07:46 AM 65.7°F18.7°C 64.8°F18.2°C 97% 2.0 mph SSE3.2 kmh SSE 2.0 mph3.2 kmh 30.01 in1016.3 mb 0.00 in0.0 mm 0.00 in0.0 mm 0.04 in1.0 mm
07:47 AM 65.7°F18.7°C 64.8°F18.2°C 97% 2.0 mph SSE3.2 kmh SSE 2.0 mph3.2 kmh 30.01 in1016.3 mb 0.00 in0.0 mm 0.00 in0.0 mm 0.04 in1.0 mm
07:48 AM 65.8°F18.8°C 64.9°F18.3°C 97% 2.0 mph SSE3.2 kmh SSE 4.0 mph6.4 kmh 30.01 in1016.3 mb 0.00 in0.0 mm 0.00 in0.0 mm 0.04 in1.0 mm
07:49 AM 65.8°F18.8°C 64.9°F18.3°C 97% 2.0 mph SSE3.2 kmh SSE 2.0 mph3.2 kmh 30.01 in1016.3 mb 0.00 in0.0 mm 0.00 in0.0 mm 0.04 in1.0 mm
07:50 AM 66.0°F18.9°C 65.1°F18.4°C 97% 2.0 mph SSE3.2 kmh SSE 2.0 mph3.2 kmh 30.01 in1016.3 mb 0.00 in0.0 mm 0.00 in0.0 mm 0.04 in1.0 mm
07:51 AM 66.0°F18.9°C 65.1°F18.4°C 97% 2.0 mph SSE3.2 kmh SSE 2.0 mph3.2 kmh 30.01 in1016.3 mb 0.00 in0.0 mm 0.00 in0.0 mm 0.04 in1.0 mm
07:52 AM 66.0°F18.9°C 65.1°F18.4°C 97% 2.0 mph SSE3.2 kmh SSE 4.0 mph6.4 kmh 30.01 in1016.3 mb 0.00 in0.0 mm 0.00 in0.0 mm 0.04 in1.0 mm
07:53 AM 66.2°F19.0°C 65.3°F18.5°C 97% 2.0 mph SSE3.2 kmh SSE 4.0 mph6.4 kmh 30.01 in1016.3 mb 0.00 in0.0 mm 0.00 in0.0 mm 0.04 in1.0 mm
07:54 AM 66.4°F19.1°C 65.5°F18.6°C 97% 2.0 mph S3.2 kmh S 5.0 mph8.0 kmh 30.01 in1016.3 mb 0.00 in0.0 mm 0.00 in0.0 mm 0.04 in1.0 mm
07:55 AM 66.4°F19.1°C 65.5°F18.6°C 97% 2.0 mph S3.2 kmh S 4.0 mph6.4 kmh 30.01 in1016.3 mb 0.00 in0.0 mm 0.00 in0.0 mm 0.04 in1.0 mm
07:56 AM 66.6°F19.2°C 65.7°F18.7°C 97% 2.0 mph S3.2 kmh S 4.0 mph6.4 kmh 30.01 in1016.3 mb 0.00 in0.0 mm 0.00 in0.0 mm 0.04 in1.0 mm
07:57 AM 66.6°F19.2°C 65.7°F18.7°C 97% 2.0 mph S3.2 kmh S 2.0 mph3.2 kmh 30.01 in1016.3 mb 0.00 in0.0 mm 0.00 in0.0 mm 0.04 in1.0 mm
07:58 AM 66.6°F19.2°C 65.7°F18.7°C 97% 2.0 mph S3.2 kmh S 4.0 mph6.4 kmh 30.01 in1016.3 mb 0.00 in0.0 mm 0.00 in0.0 mm 0.04 in1.0 mm
07:59 AM 66.6°F19.2°C 65.7°F18.7°C 97% 2.0 mph S3.2 kmh S 0.9 mph1.4 kmh 30.01 in1016.3 mb 0.00 in0.0 mm 0.00 in0.0 mm 0.04 in1.0 mm
08:00 AM 66.7°F19.3°C 65.8°F18.8°C 97% 2.0 mph S3.2 kmh S 4.0 mph6.4 kmh 30.01 in1016.3 mb 0.00 in0.0 mm 0.00 in0.0 mm 0.04 in1.0 mm
08:01 AM 66.9°F19.4°C 66.0°F18.9°C 97% 2.0 mph S3.2 kmh S 4.0 mph6.4 kmh 30.01 in1016.3 mb 0.00 in0.0 mm 0.00 in0.0 mm 0.04 in1.0 mm
08:02 AM 66.9°F19.4°C 66.0°F18.9°C 97% 2.0 mph S3.2 kmh S 4.0 mph6.4 kmh 30.01 in1016.3 mb 0.00 in0.0 mm 0.00 in0.0 mm 0.04 in1.0 mm
08:04 AM 66.9°F19.4°C 66.0°F18.9°C 97% 2.0 mph S3.2 kmh S 4.9 mph7.9 kmh 30.01 in1016.3 mb 0.00 in0.0 mm 0.00 in0.0 mm 0.04 in1.0 mm
08:05 AM 67.1°F19.5°C 66.2°F19.0°C 97% 2.0 mph S3.2 kmh S 4.0 mph6.4 kmh 30.01 in1016.3 mb 0.00 in0.0 mm 0.00 in0.0 mm 0.04 in1.0 mm
08:06 AM 67.3°F19.6°C 66.4°F19.1°C 97% 2.0 mph S3.2 kmh S 2.9 mph4.7 kmh 30.01 in1016.3 mb 0.00 in0.0 mm 0.00 in0.0 mm 0.04 in1.0 mm
08:07 AM 67.3°F19.6°C 66.4°F19.1°C 97% 2.0 mph SSE3.2 kmh SSE 2.9 mph4.7 kmh 30.01 in1016.3 mb 0.00 in0.0 mm 0.00 in0.0 mm 0.04 in1.0 mm
08:08 AM 67.5°F19.7°C 66.6°F19.2°C 97% 2.0 mph S3.2 kmh S 6.0 mph9.7 kmh 30.01 in1016.3 mb 0.00 in0.0 mm 0.00 in0.0 mm 0.04 in1.0 mm
08:09 AM 67.5°F19.7°C 66.6°F19.2°C 97% 2.0 mph S3.2 kmh S 4.0 mph6.4 kmh 30.01 in1016.3 mb 0.00 in0.0 mm 0.00 in0.0 mm 0.04 in1.0 mm
08:10 AM 67.6°F19.8°C 66.7°F19.3°C 97% 2.0 mph S3.2 kmh S 4.9 mph7.9 kmh 30.01 in1016.3 mb 0.00 in0.0 mm 0.00 in0.0 mm 0.04 in1.0 mm
08:11 AM 67.6°F19.8°C 66.7°F19.3°C 97% 2.0 mph S3.2 kmh S 4.0 mph6.4 kmh 30.01 in1016.3 mb 0.00 in0.0 mm 0.00 in0.0 mm 0.04 in1.0 mm
08:12 AM 67.8°F19.9°C 66.9°F19.4°C 97% 2.0 mph S3.2 kmh S 2.9 mph4.7 kmh 30.02 in1016.6 mb 0.00 in0.0 mm 0.00 in0.0 mm 0.04 in1.0 mm
08:13 AM 68.0°F20.0°C 67.1°F19.5°C 97% 2.0 mph S3.2 kmh S 2.9 mph4.7 kmh 30.02 in1016.6 mb 0.00 in0.0 mm 0.00 in0.0 mm 0.04 in1.0 mm
08:14 AM 68.2°F20.1°C 66.9°F19.4°C 96% 2.9 mph S4.7 kmh S 4.9 mph7.9 kmh 30.02 in1016.6 mb 0.00 in0.0 mm 0.00 in0.0 mm 0.04 in1.0 mm
08:15 AM 68.2°F20.1°C 66.9°F19.4°C 96% 2.0 mph S3.2 kmh S 2.9 mph4.7 kmh 30.02 in1016.6 mb 0.00 in0.0 mm 0.00 in0.0 mm 0.04 in1.0 mm
08:16 AM 68.4°F20.2°C 67.1°F19.5°C 96% 2.0 mph S3.2 kmh S 4.0 mph6.4 kmh 30.02 in1016.6 mb 0.00 in0.0 mm 0.00 in0.0 mm 0.04 in1.0 mm
08:17 AM 68.5°F20.3°C 67.3°F19.6°C 96% 2.0 mph S3.2 kmh S 6.0 mph9.7 kmh 30.02 in1016.6 mb 0.00 in0.0 mm 0.00 in0.0 mm 0.04 in1.0 mm
08:18 AM 68.5°F20.3°C 67.3°F19.6°C 96% 2.9 mph S4.7 kmh S 6.0 mph9.7 kmh 30.02 in1016.6 mb 0.00 in0.0 mm 0.00 in0.0 mm 0.04 in1.0 mm
08:19 AM 68.7°F20.4°C 67.3°F19.6°C 95% 2.9 mph S4.7 kmh S 4.9 mph7.9 kmh 30.02 in1016.6 mb 0.00 in0.0 mm 0.00 in0.0 mm 0.04 in1.0 mm
08:20 AM 68.9°F20.5°C 67.5°F19.7°C 95% 2.9 mph S4.7 kmh S 4.0 mph6.4 kmh 30.02 in1016.6 mb 0.00 in0.0 mm 0.00 in0.0 mm 0.04 in1.0 mm
08:21 AM 69.1°F20.6°C 67.6°F19.8°C 95% 2.9 mph S4.7 kmh S 4.0 mph6.4 kmh 30.02 in1016.6 mb 0.00 in0.0 mm 0.00 in0.0 mm 0.04 in1.0 mm
08:22 AM 69.3°F20.7°C 67.8°F19.9°C 95% 2.9 mph S4.7 kmh S 4.0 mph6.4 kmh 30.02 in1016.6 mb 0.00 in0.0 mm 0.00 in0.0 mm 0.04 in1.0 mm
08:23 AM 69.3°F20.7°C 67.5°F19.7°C 94% 2.9 mph SSW4.7 kmh SSW 4.9 mph7.9 kmh 30.02 in1016.6 mb 0.00 in0.0 mm 0.00 in0.0 mm 0.04 in1.0 mm
08:24 AM 69.4°F20.8°C 67.6°F19.8°C 94% 2.9 mph SSW4.7 kmh SSW 4.9 mph7.9 kmh 30.02 in1016.6 mb 0.00 in0.0 mm 0.00 in0.0 mm 0.04 in1.0 mm
08:25 AM 69.6°F20.9°C 67.8°F19.9°C 94% 2.9 mph S4.7 kmh S 4.9 mph7.9 kmh 30.02 in1016.6 mb 0.00 in0.0 mm 0.00 in0.0 mm 0.04 in1.0 mm
08:26 AM 69.6°F20.9°C 67.8°F19.9°C 94% 2.9 mph S4.7 kmh S 6.0 mph9.7 kmh 30.02 in1016.6 mb 0.00 in0.0 mm 0.00 in0.0 mm 0.04 in1.0 mm
08:27 AM 70.0°F21.1°C 67.8°F19.9°C 93% 2.9 mph S4.7 kmh S 6.0 mph9.7 kmh 30.02 in1016.6 mb 0.00 in0.0 mm 0.00 in0.0 mm 0.04 in1.0 mm
08:28 AM 70.2°F21.2°C 68.0°F20.0°C 93% 2.9 mph SSE4.7 kmh SSE 4.9 mph7.9 kmh 30.02 in1016.6 mb 0.00 in0.0 mm 0.00 in0.0 mm 0.04 in1.0 mm
08:29 AM 70.2°F21.2°C 67.6°F19.8°C 92% 2.9 mph S4.7 kmh S 4.9 mph7.9 kmh 30.02 in1016.6 mb 0.00 in0.0 mm 0.00 in0.0 mm 0.04 in1.0 mm
08:30 AM 70.3°F21.3°C 67.8°F19.9°C 92% 2.9 mph S4.7 kmh S 4.9 mph7.9 kmh 30.02 in1016.6 mb 0.00 in0.0 mm 0.00 in0.0 mm 0.04 in1.0 mm
08:31 AM 70.5°F21.4°C 68.0°F20.0°C 92% 2.9 mph S4.7 kmh S 2.9 mph4.7 kmh 30.02 in1016.6 mb 0.00 in0.0 mm 0.00 in0.0 mm 0.04 in1.0 mm
08:32 AM 70.7°F21.5°C 68.0°F20.0°C 91% 2.9 mph S4.7 kmh S 4.9 mph7.9 kmh 30.02 in1016.6 mb 0.00 in0.0 mm 0.00 in0.0 mm 0.04 in1.0 mm
08:33 AM 70.9°F21.6°C 68.2°F20.1°C 91% 2.9 mph S4.7 kmh S 6.9 mph11.1 kmh 30.02 in1016.6 mb 0.00 in0.0 mm 0.00 in0.0 mm 0.04 in1.0 mm
08:34 AM 71.1°F21.7°C 68.4°F20.2°C 91% 2.9 mph SSW4.7 kmh SSW 4.9 mph7.9 kmh 30.02 in1016.6 mb 0.00 in0.0 mm 0.00 in0.0 mm 0.04 in1.0 mm
08:35 AM 71.2°F21.8°C 68.2°F20.1°C 90% 2.9 mph S4.7 kmh S 4.9 mph7.9 kmh 30.02 in1016.6 mb 0.00 in0.0 mm 0.00 in0.0 mm 0.04 in1.0 mm
08:36 AM 71.2°F21.8°C 68.2°F20.1°C 90% 2.9 mph S4.7 kmh S 6.9 mph11.1 kmh 30.02 in1016.6 mb 0.00 in0.0 mm 0.00 in0.0 mm 0.04 in1.0 mm
08:37 AM 71.4°F21.9°C 68.0°F20.0°C 89% 2.9 mph S4.7 kmh S 4.0 mph6.4 kmh 30.02 in1016.6 mb 0.00 in0.0 mm 0.00 in0.0 mm 0.04 in1.0 mm
08:38 AM 71.8°F22.1°C 68.4°F20.2°C 89% 2.9 mph SE4.7 kmh SE 4.0 mph6.4 kmh 30.02 in1016.6 mb 0.00 in0.0 mm 0.00 in0.0 mm 0.04 in1.0 mm
08:39 AM 71.8°F22.1°C 68.4°F20.2°C 89% 2.9 mph S4.7 kmh S 6.9 mph11.1 kmh 30.02 in1016.6 mb 0.00 in0.0 mm 0.00 in0.0 mm 0.04 in1.0 mm
08:40 AM 72.0°F22.2°C 68.5°F20.3°C 89% 2.9 mph S4.7 kmh S 4.9 mph7.9 kmh 30.02 in1016.6 mb 0.00 in0.0 mm 0.00 in0.0 mm 0.04 in1.0 mm
08:41 AM 72.1°F22.3°C 68.7°F20.4°C 89% 2.9 mph S4.7 kmh S 4.0 mph6.4 kmh 30.02 in1016.6 mb 0.00 in0.0 mm 0.00 in0.0 mm 0.04 in1.0 mm
08:42 AM 72.1°F22.3°C 68.7°F20.4°C 89% 2.9 mph S4.7 kmh S 4.9 mph7.9 kmh 30.02 in1016.6 mb 0.00 in0.0 mm 0.00 in0.0 mm 0.04 in1.0 mm
08:43 AM 72.3°F22.4°C 68.9°F20.5°C 89% 2.9 mph S4.7 kmh S 6.0 mph9.7 kmh 30.02 in1016.6 mb 0.00 in0.0 mm 0.00 in0.0 mm 0.04 in1.0 mm
08:44 AM 72.5°F22.5°C 68.7°F20.4°C 88% 2.9 mph SE4.7 kmh SE 8.9 mph14.3 kmh 30.02 in1016.6 mb 0.00 in0.0 mm 0.00 in0.0 mm 0.04 in1.0 mm
08:45 AM 72.7°F22.6°C 68.9°F20.5°C 88% 2.9 mph S4.7 kmh S 8.1 mph13.0 kmh 30.02 in1016.6 mb 0.00 in0.0 mm 0.00 in0.0 mm 0.04 in1.0 mm
08:46 AM 72.9°F22.7°C 69.1°F20.6°C 88% 2.9 mph S4.7 kmh S 8.1 mph13.0 kmh 30.02 in1016.6 mb 0.00 in0.0 mm 0.00 in0.0 mm 0.04 in1.0 mm
08:47 AM 72.9°F22.7°C 68.7°F20.4°C 87% 2.9 mph S4.7 kmh S 4.0 mph6.4 kmh 30.02 in1016.6 mb 0.00 in0.0 mm 0.00 in0.0 mm 0.04 in1.0 mm
08:48 AM 73.0°F22.8°C 69.3°F20.7°C 88% 2.9 mph S4.7 kmh S 4.9 mph7.9 kmh 30.02 in1016.6 mb 0.00 in0.0 mm 0.00 in0.0 mm 0.04 in1.0 mm
08:49 AM 73.0°F22.8°C 68.9°F20.5°C 87% 2.9 mph S4.7 kmh S 4.9 mph7.9 kmh 30.02 in1016.6 mb 0.00 in0.0 mm 0.00 in0.0 mm 0.04 in1.0 mm
08:50 AM 73.2°F22.9°C 69.1°F20.6°C 87% 2.9 mph SSW4.7 kmh SSW 6.0 mph9.7 kmh 30.02 in1016.6 mb 0.00 in0.0 mm 0.00 in0.0 mm 0.04 in1.0 mm
08:51 AM 73.2°F22.9°C 69.1°F20.6°C 87% 4.0 mph S6.4 kmh S 6.9 mph11.1 kmh 30.02 in1016.6 mb 0.00 in0.0 mm 0.00 in0.0 mm 0.04 in1.0 mm
08:52 AM 73.4°F23.0°C 69.3°F20.7°C 87% 4.0 mph S6.4 kmh S 6.0 mph9.7 kmh 30.02 in1016.6 mb 0.00 in0.0 mm 0.00 in0.0 mm 0.04 in1.0 mm
08:53 AM 73.6°F23.1°C 69.4°F20.8°C 87% 4.0 mph SSW6.4 kmh SSW 6.0 mph9.7 kmh 30.02 in1016.6 mb 0.00 in0.0 mm 0.00 in0.0 mm 0.04 in1.0 mm
08:54 AM 73.8°F23.2°C 69.6°F20.9°C 87% 2.9 mph SSW4.7 kmh SSW 6.0 mph9.7 kmh 30.02 in1016.6 mb 0.00 in0.0 mm 0.00 in0.0 mm 0.04 in1.0 mm
08:55 AM 73.8°F23.2°C 69.3°F20.7°C 86% 2.9 mph S4.7 kmh S 4.9 mph7.9 kmh 30.02 in1016.6 mb 0.00 in0.0 mm 0.00 in0.0 mm 0.04 in1.0 mm
08:56 AM 73.8°F23.2°C 69.3°F20.7°C 86% 2.9 mph SSW4.7 kmh SSW 6.0 mph9.7 kmh 30.02 in1016.6 mb 0.00 in0.0 mm 0.00 in0.0 mm 0.04 in1.0 mm
08:57 AM 73.9°F23.3°C 69.4°F20.8°C 86% 4.0 mph S6.4 kmh S 8.1 mph13.0 kmh 30.02 in1016.6 mb 0.00 in0.0 mm 0.00 in0.0 mm 0.04 in1.0 mm
08:58 AM 73.9°F23.3°C 69.4°F20.8°C 86% 4.0 mph S6.4 kmh S 6.0 mph9.7 kmh 30.02 in1016.6 mb 0.00 in0.0 mm 0.00 in0.0 mm 0.04 in1.0 mm
08:59 AM 74.1°F23.4°C 69.3°F20.7°C 85% 4.0 mph SW6.4 kmh SW 4.9 mph7.9 kmh 30.02 in1016.6 mb 0.00 in0.0 mm 0.00 in0.0 mm 0.04 in1.0 mm
09:00 AM 74.1°F23.4°C 69.3°F20.7°C 85% 4.0 mph S6.4 kmh S 8.9 mph14.3 kmh 30.02 in1016.6 mb 0.00 in0.0 mm 0.00 in0.0 mm 0.04 in1.0 mm
09:01 AM 74.5°F23.6°C 69.6°F20.9°C 85% 4.0 mph S6.4 kmh S 11.0 mph17.7 kmh 30.02 in1016.6 mb 0.00 in0.0 mm 0.00 in0.0 mm 0.04 in1.0 mm
09:02 AM 74.5°F23.6°C 69.6°F20.9°C 85% 4.0 mph S6.4 kmh S 8.9 mph14.3 kmh 30.02 in1016.6 mb 0.00 in0.0 mm 0.00 in0.0 mm 0.04 in1.0 mm
09:03 AM 74.7°F23.7°C 69.8°F21.0°C 85% 4.0 mph SSW6.4 kmh SSW 6.0 mph9.7 kmh 30.02 in1016.6 mb 0.00 in0.0 mm 0.00 in0.0 mm 0.04 in1.0 mm
09:04 AM 74.7°F23.7°C 69.8°F21.0°C 85% 4.0 mph S6.4 kmh S 6.0 mph9.7 kmh 30.02 in1016.6 mb 0.00 in0.0 mm 0.00 in0.0 mm 0.04 in1.0 mm
09:05 AM 74.8°F23.8°C 69.6°F20.9°C 84% 4.0 mph S6.4 kmh S 6.9 mph11.1 kmh 30.02 in1016.6 mb 0.00 in0.0 mm 0.00 in0.0 mm 0.04 in1.0 mm
09:06 AM 75.0°F23.9°C 69.8°F21.0°C 84% 4.0 mph S6.4 kmh S 4.9 mph7.9 kmh 30.02 in1016.6 mb 0.00 in0.0 mm 0.00 in0.0 mm 0.04 in1.0 mm
09:07 AM 75.0°F23.9°C 69.8°F21.0°C 84% 4.0 mph SSE6.4 kmh SSE 8.1 mph13.0 kmh 30.02 in1016.6 mb 0.00 in0.0 mm 0.00 in0.0 mm 0.04 in1.0 mm
09:08 AM 75.0°F23.9°C 69.8°F21.0°C 84% 4.0 mph S6.4 kmh S 8.1 mph13.0 kmh 30.02 in1016.6 mb 0.00 in0.0 mm 0.00 in0.0 mm 0.04 in1.0 mm
09:10 AM 75.0°F23.9°C 70.2°F21.2°C 85% 4.0 mph S6.4 kmh S 4.0 mph6.4 kmh 30.02 in1016.6 mb 0.00 in0.0 mm 0.00 in0.0 mm 0.04 in1.0 mm
09:11 AM 75.2°F24.0°C 70.0°F21.1°C 84% 4.0 mph S6.4 kmh S 6.0 mph9.7 kmh 30.02 in1016.6 mb 0.00 in0.0 mm 0.00 in0.0 mm 0.04 in1.0 mm
09:12 AM 75.4°F24.1°C 70.2°F21.2°C 84% 4.0 mph S6.4 kmh S 10.0 mph16.1 kmh 30.02 in1016.6 mb 0.00 in0.0 mm 0.00 in0.0 mm 0.04 in1.0 mm
09:13 AM 75.4°F24.1°C 69.8°F21.0°C 83% 4.0 mph S6.4 kmh S 8.9 mph14.3 kmh 30.02 in1016.6 mb 0.00 in0.0 mm 0.00 in0.0 mm 0.04 in1.0 mm
09:14 AM 75.4°F24.1°C 69.8°F21.0°C 83% 4.0 mph SSE6.4 kmh SSE 6.0 mph9.7 kmh 30.02 in1016.6 mb 0.00 in0.0 mm 0.00 in0.0 mm 0.04 in1.0 mm
09:15 AM 75.6°F24.2°C 70.3°F21.3°C 84% 4.0 mph SSW6.4 kmh SSW 6.0 mph9.7 kmh 30.02 in1016.6 mb 0.00 in0.0 mm 0.00 in0.0 mm 0.04 in1.0 mm
09:16 AM 75.6°F24.2°C 70.3°F21.3°C 84% 4.0 mph SSW6.4 kmh SSW 6.0 mph9.7 kmh 30.02 in1016.6 mb 0.00 in0.0 mm 0.00 in0.0 mm 0.04 in1.0 mm
09:17 AM 75.7°F24.3°C 70.2°F21.2°C 83% 4.0 mph S6.4 kmh S 10.1 mph16.3 kmh 30.02 in1016.6 mb 0.00 in0.0 mm 0.00 in0.0 mm 0.04 in1.0 mm
09:18 AM 75.7°F24.3°C 69.8°F21.0°C 82% 4.0 mph S6.4 kmh S 6.9 mph11.1 kmh 30.02 in1016.6 mb 0.00 in0.0 mm 0.00 in0.0 mm 0.04 in1.0 mm
09:19 AM 75.7°F24.3°C 70.2°F21.2°C 83% 4.0 mph S6.4 kmh S 6.9 mph11.1 kmh 30.02 in1016.6 mb 0.00 in0.0 mm 0.00 in0.0 mm 0.04 in1.0 mm
09:20 AM 75.9°F24.4°C 70.0°F21.1°C 82% 4.9 mph S7.9 kmh S 8.9 mph14.3 kmh 30.02 in1016.6 mb 0.00 in0.0 mm 0.00 in0.0 mm 0.04 in1.0 mm
09:21 AM 75.9°F24.4°C 70.0°F21.1°C 82% 4.9 mph SW7.9 kmh SW 8.9 mph14.3 kmh 30.02 in1016.6 mb 0.00 in0.0 mm 0.00 in0.0 mm 0.04 in1.0 mm
09:22 AM 75.9°F24.4°C 70.0°F21.1°C 82% 4.9 mph S7.9 kmh S 6.9 mph11.1 kmh 30.02 in1016.6 mb 0.00 in0.0 mm 0.00 in0.0 mm 0.04 in1.0 mm
09:23 AM 75.9°F24.4°C 70.3°F21.3°C 83% 4.9 mph SSW7.9 kmh SSW 6.9 mph11.1 kmh 30.02 in1016.6 mb 0.00 in0.0 mm 0.00 in0.0 mm 0.04 in1.0 mm
09:24 AM 76.3°F24.6°C 70.3°F21.3°C 82% 4.9 mph SSW7.9 kmh SSW 6.9 mph11.1 kmh 30.02 in1016.6 mb 0.00 in0.0 mm 0.00 in0.0 mm 0.04 in1.0 mm
09:25 AM 76.3°F24.6°C 70.7°F21.5°C 83% 4.9 mph S7.9 kmh S 6.0 mph9.7 kmh 30.02 in1016.6 mb 0.00 in0.0 mm 0.00 in0.0 mm 0.04 in1.0 mm
09:26 AM 76.5°F24.7°C 70.5°F21.4°C 82% 4.9 mph S7.9 kmh S 8.1 mph13.0 kmh 30.03 in1016.9 mb 0.00 in0.0 mm 0.00 in0.0 mm 0.04 in1.0 mm
09:27 AM 76.5°F24.7°C 70.5°F21.4°C 82% 4.0 mph SW6.4 kmh SW 10.0 mph16.1 kmh 30.03 in1016.9 mb 0.00 in0.0 mm 0.00 in0.0 mm 0.04 in1.0 mm
09:28 AM 76.6°F24.8°C 70.7°F21.5°C 82% 4.0 mph SSW6.4 kmh SSW 4.9 mph7.9 kmh 30.03 in1016.9 mb 0.00 in0.0 mm 0.00 in0.0 mm 0.04 in1.0 mm
09:29 AM 76.6°F24.8°C 70.7°F21.5°C 82% 4.0 mph SW6.4 kmh SW 6.0 mph9.7 kmh 30.03 in1016.9 mb 0.00 in0.0 mm 0.00 in0.0 mm 0.04 in1.0 mm
09:30 AM 76.6°F24.8°C 70.7°F21.5°C 82% 4.0 mph S6.4 kmh S 6.0 mph9.7 kmh 30.03 in1016.9 mb 0.00 in0.0 mm 0.00 in0.0 mm 0.04 in1.0 mm
09:31 AM 76.8°F24.9°C 70.9°F21.6°C 82% 4.0 mph S6.4 kmh S 4.9 mph7.9 kmh 30.02 in1016.6 mb 0.00 in0.0 mm 0.00 in0.0 mm 0.04 in1.0 mm
09:32 AM 76.8°F24.9°C 70.5°F21.4°C 81% 4.0 mph SW6.4 kmh SW 8.9 mph14.3 kmh 30.03 in1016.9 mb 0.00 in0.0 mm 0.00 in0.0 mm 0.04 in1.0 mm
09:33 AM 77.0°F25.0°C 70.3°F21.3°C 80% 4.0 mph SSW6.4 kmh SSW 8.9 mph14.3 kmh 30.03 in1016.9 mb 0.00 in0.0 mm 0.00 in0.0 mm 0.04 in1.0 mm
09:34 AM 77.2°F25.1°C 70.9°F21.6°C 81% 2.9 mph S4.7 kmh S 4.0 mph6.4 kmh 30.03 in1016.9 mb 0.00 in0.0 mm 0.00 in0.0 mm 0.04 in1.0 mm
09:35 AM 77.2°F25.1°C 70.9°F21.6°C 81% 4.0 mph SW6.4 kmh SW 8.1 mph13.0 kmh 30.03 in1016.9 mb 0.00 in0.0 mm 0.00 in0.0 mm 0.04 in1.0 mm
09:36 AM 77.2°F25.1°C 70.5°F21.4°C 80% 4.0 mph SSE6.4 kmh SSE 11.0 mph17.7 kmh 30.02 in1016.6 mb 0.00 in0.0 mm 0.00 in0.0 mm 0.04 in1.0 mm
09:37 AM 77.2°F25.1°C 70.5°F21.4°C 80% 4.0 mph S6.4 kmh S 8.9 mph14.3 kmh 30.02 in1016.6 mb 0.00 in0.0 mm 0.00 in0.0 mm 0.04 in1.0 mm
09:38 AM 77.4°F25.2°C 70.3°F21.3°C 79% 4.9 mph S7.9 kmh S 10.1 mph16.3 kmh 30.02 in1016.6 mb 0.00 in0.0 mm 0.00 in0.0 mm 0.04 in1.0 mm
09:39 AM 77.4°F25.2°C 70.3°F21.3°C 79% 4.9 mph SW7.9 kmh SW 8.9 mph14.3 kmh 30.02 in1016.6 mb 0.00 in0.0 mm 0.00 in0.0 mm 0.04 in1.0 mm
09:40 AM 77.4°F25.2°C 70.3°F21.3°C 79% 4.9 mph SW7.9 kmh SW 10.1 mph16.3 kmh 30.03 in1016.9 mb 0.00 in0.0 mm 0.00 in0.0 mm 0.04 in1.0 mm
09:41 AM 77.4°F25.2°C 70.3°F21.3°C 79% 4.9 mph S7.9 kmh S 10.1 mph16.3 kmh 30.03 in1016.9 mb 0.00 in0.0 mm 0.00 in0.0 mm 0.04 in1.0 mm
09:42 AM 77.5°F25.3°C 70.2°F21.2°C 78% 4.9 mph SSW7.9 kmh SSW 10.1 mph16.3 kmh 30.03 in1016.9 mb 0.00 in0.0 mm 0.00 in0.0 mm 0.04 in1.0 mm
09:43 AM 77.5°F25.3°C 70.2°F21.2°C 78% 4.9 mph SSW7.9 kmh SSW 10.1 mph16.3 kmh 30.03 in1016.9 mb 0.00 in0.0 mm 0.00 in0.0 mm 0.04 in1.0 mm
09:45 AM 77.5°F25.3°C 70.2°F21.2°C 78% 6.0 mph S9.7 kmh S 10.1 mph16.3 kmh 30.03 in1016.9 mb 0.00 in0.0 mm 0.00 in0.0 mm 0.04 in1.0 mm
09:46 AM 77.5°F25.3°C 70.5°F21.4°C 79% 6.0 mph SSW9.7 kmh SSW 8.9 mph14.3 kmh 30.03 in1016.9 mb 0.00 in0.0 mm 0.00 in0.0 mm 0.04 in1.0 mm
09:47 AM 77.5°F25.3°C 70.2°F21.2°C 78% 6.0 mph SSW9.7 kmh SSW 8.9 mph14.3 kmh 30.03 in1016.9 mb 0.00 in0.0 mm 0.00 in0.0 mm 0.04 in1.0 mm
09:48 AM 77.7°F25.4°C 70.7°F21.5°C 79% 6.0 mph ESE9.7 kmh ESE 8.1 mph13.0 kmh 30.03 in1016.9 mb 0.00 in0.0 mm 0.00 in0.0 mm 0.04 in1.0 mm
09:49 AM 77.7°F25.4°C 70.7°F21.5°C 79% 4.9 mph S7.9 kmh S 8.9 mph14.3 kmh 30.03 in1016.9 mb 0.00 in0.0 mm 0.00 in0.0 mm 0.04 in1.0 mm
09:50 AM 77.7°F25.4°C 70.3°F21.3°C 78% 4.9 mph S7.9 kmh S 12.1 mph19.5 kmh 30.03 in1016.9 mb 0.00 in0.0 mm 0.00 in0.0 mm 0.04 in1.0 mm
09:51 AM 77.9°F25.5°C 70.2°F21.2°C 77% 6.0 mph S9.7 kmh S 10.1 mph16.3 kmh 30.03 in1016.9 mb 0.00 in0.0 mm 0.00 in0.0 mm 0.04 in1.0 mm
09:52 AM 77.9°F25.5°C 70.9°F21.6°C 79% 4.9 mph S7.9 kmh S 8.1 mph13.0 kmh 30.03 in1016.9 mb 0.00 in0.0 mm 0.00 in0.0 mm 0.04 in1.0 mm
09:53 AM 78.1°F25.6°C 70.7°F21.5°C 78% 4.9 mph S7.9 kmh S 11.0 mph17.7 kmh 30.03 in1016.9 mb 0.00 in0.0 mm 0.00 in0.0 mm 0.04 in1.0 mm
09:54 AM 78.1°F25.6°C 70.3°F21.3°C 77% 4.9 mph S7.9 kmh S 8.9 mph14.3 kmh 30.03 in1016.9 mb 0.00 in0.0 mm 0.00 in0.0 mm 0.04 in1.0 mm
09:55 AM 78.1°F25.6°C 70.3°F21.3°C 77% 4.9 mph SSW7.9 kmh SSW 11.0 mph17.7 kmh 30.03 in1016.9 mb 0.00 in0.0 mm 0.00 in0.0 mm 0.04 in1.0 mm
09:56 AM 78.1°F25.6°C 70.3°F21.3°C 77% 4.9 mph SW7.9 kmh SW 11.0 mph17.7 kmh 30.03 in1016.9 mb 0.00 in0.0 mm 0.00 in0.0 mm 0.04 in1.0 mm
09:57 AM 78.3°F25.7°C 70.9°F21.6°C 78% 4.9 mph S7.9 kmh S 12.1 mph19.5 kmh 30.03 in1016.9 mb 0.00 in0.0 mm 0.00 in0.0 mm 0.04 in1.0 mm
09:58 AM 78.3°F25.7°C 70.9°F21.6°C 78% 4.9 mph S7.9 kmh S 12.1 mph19.5 kmh 30.03 in1016.9 mb 0.00 in0.0 mm 0.00 in0.0 mm 0.04 in1.0 mm
09:59 AM 78.4°F25.8°C 71.1°F21.7°C 78% 4.9 mph SSW7.9 kmh SSW 12.1 mph19.5 kmh 30.03 in1016.9 mb 0.00 in0.0 mm 0.00 in0.0 mm 0.04 in1.0 mm
10:00 AM 78.4°F25.8°C 70.7°F21.5°C 77% 4.9 mph S7.9 kmh S 8.1 mph13.0 kmh 30.03 in1016.9 mb 0.00 in0.0 mm 0.00 in0.0 mm 0.04 in1.0 mm
10:01 AM 78.4°F25.8°C 70.2°F21.2°C 76% 4.9 mph S7.9 kmh S 10.1 mph16.3 kmh 30.03 in1016.9 mb 0.00 in0.0 mm 0.00 in0.0 mm 0.04 in1.0 mm
10:02 AM 78.4°F25.8°C 70.2°F21.2°C 76% 4.9 mph S7.9 kmh S 6.9 mph11.1 kmh 30.03 in1016.9 mb 0.00 in0.0 mm 0.00 in0.0 mm 0.04 in1.0 mm
10:03 AM 78.6°F25.9°C 70.9°F21.6°C 77% 4.9 mph S7.9 kmh S 8.9 mph14.3 kmh 30.03 in1016.9 mb 0.00 in0.0 mm 0.00 in0.0 mm 0.04 in1.0 mm
10:04 AM 78.6°F25.9°C 70.9°F21.6°C 77% 4.9 mph S7.9 kmh S 6.9 mph11.1 kmh 30.03 in1016.9 mb 0.00 in0.0 mm 0.00 in0.0 mm 0.04 in1.0 mm
10:05 AM 78.6°F25.9°C 70.9°F21.6°C 77% 4.9 mph S7.9 kmh S 8.1 mph13.0 kmh 30.03 in1016.9 mb 0.00 in0.0 mm 0.00 in0.0 mm 0.04 in1.0 mm
10:06 AM 78.6°F25.9°C 70.3°F21.3°C 76% 4.9 mph S7.9 kmh S 4.9 mph7.9 kmh 30.03 in1016.9 mb 0.00 in0.0 mm 0.00 in0.0 mm 0.04 in1.0 mm
10:07 AM 79.0°F26.1°C 70.7°F21.5°C 76% 4.9 mph S7.9 kmh S 6.9 mph11.1 kmh 30.03 in1016.9 mb 0.00 in0.0 mm 0.00 in0.0 mm 0.04 in1.0 mm
10:08 AM 79.0°F26.1°C 71.1°F21.7°C 77% 4.9 mph SSW7.9 kmh SSW 12.0 mph19.3 kmh 30.03 in1016.9 mb 0.00 in0.0 mm 0.00 in0.0 mm 0.04 in1.0 mm
10:09 AM 78.8°F26.0°C 70.2°F21.2°C 75% 4.9 mph SSW7.9 kmh SSW 10.1 mph16.3 kmh 30.03 in1016.9 mb 0.00 in0.0 mm 0.00 in0.0 mm 0.04 in1.0 mm
10:10 AM 79.0°F26.1°C 70.7°F21.5°C 76% 4.9 mph S7.9 kmh S 10.1 mph16.3 kmh 30.03 in1016.9 mb 0.00 in0.0 mm 0.00 in0.0 mm 0.04 in1.0 mm
10:11 AM 79.0°F26.1°C 70.7°F21.5°C 76% 4.9 mph S7.9 kmh S 10.1 mph16.3 kmh 30.03 in1016.9 mb 0.00 in0.0 mm 0.00 in0.0 mm 0.04 in1.0 mm
10:12 AM 79.0°F26.1°C 70.3°F21.3°C 75% 4.9 mph S7.9 kmh S 6.9 mph11.1 kmh 30.03 in1016.9 mb 0.00 in0.0 mm 0.00 in0.0 mm 0.04 in1.0 mm
10:13 AM 79.2°F26.2°C 70.9°F21.6°C 76% 4.9 mph S7.9 kmh S 6.9 mph11.1 kmh 30.03 in1016.9 mb 0.00 in0.0 mm 0.00 in0.0 mm 0.04 in1.0 mm
10:14 AM 79.2°F26.2°C 70.5°F21.4°C 75% 4.9 mph SSE7.9 kmh SSE 8.1 mph13.0 kmh 30.03 in1016.9 mb 0.00 in0.0 mm 0.00 in0.0 mm 0.04 in1.0 mm
10:15 AM 79.3°F26.3°C 71.1°F21.7°C 76% 4.9 mph SE7.9 kmh SE 14.1 mph22.7 kmh 30.03 in1016.9 mb 0.00 in0.0 mm 0.00 in0.0 mm 0.04 in1.0 mm
10:16 AM 79.3°F26.3°C 71.1°F21.7°C 76% 4.9 mph SSW7.9 kmh SSW 8.1 mph13.0 kmh 30.03 in1016.9 mb 0.00 in0.0 mm 0.00 in0.0 mm 0.04 in1.0 mm
10:17 AM 79.3°F26.3°C 70.7°F21.5°C 75% 4.9 mph SSW7.9 kmh SSW 10.1 mph16.3 kmh 30.03 in1016.9 mb 0.00 in0.0 mm 0.00 in0.0 mm 0.04 in1.0 mm
10:18 AM 79.5°F26.4°C 70.9°F21.6°C 75% 4.9 mph S7.9 kmh S 10.1 mph16.3 kmh 30.03 in1016.9 mb 0.00 in0.0 mm 0.00 in0.0 mm 0.04 in1.0 mm
10:19 AM 79.5°F26.4°C 70.5°F21.4°C 74% 4.9 mph S7.9 kmh S 10.1 mph16.3 kmh 30.03 in1016.9 mb 0.00 in0.0 mm 0.00 in0.0 mm 0.04 in1.0 mm
10:20 AM 79.5°F26.4°C 70.2°F21.2°C 73% 4.9 mph SSW7.9 kmh SSW 12.1 mph19.5 kmh 30.03 in1016.9 mb 0.00 in0.0 mm 0.00 in0.0 mm 0.04 in1.0 mm
10:21 AM 79.7°F26.5°C 69.8°F21.0°C 72% 6.0 mph S9.7 kmh S 11.0 mph17.7 kmh 30.03 in1016.9 mb 0.00 in0.0 mm 0.00 in0.0 mm 0.04 in1.0 mm
10:22 AM 79.7°F26.5°C 70.3°F21.3°C 73% 6.0 mph S9.7 kmh S 6.0 mph9.7 kmh 30.03 in1016.9 mb 0.00 in0.0 mm 0.00 in0.0 mm 0.04 in1.0 mm
10:23 AM 79.7°F26.5°C 70.3°F21.3°C 73% 6.0 mph S9.7 kmh S 6.9 mph11.1 kmh 30.03 in1016.9 mb 0.00 in0.0 mm 0.00 in0.0 mm 0.04 in1.0 mm
10:24 AM 79.7°F26.5°C 70.3°F21.3°C 73% 6.0 mph SSW9.7 kmh SSW 6.9 mph11.1 kmh 30.03 in1016.9 mb 0.00 in0.0 mm 0.00 in0.0 mm 0.04 in1.0 mm
10:25 AM 79.7°F26.5°C 70.3°F21.3°C 73% 4.9 mph SW7.9 kmh SW 11.0 mph17.7 kmh 30.03 in1016.9 mb 0.00 in0.0 mm 0.00 in0.0 mm 0.04 in1.0 mm
10:27 AM 79.7°F26.5°C 70.3°F21.3°C 73% 4.9 mph S7.9 kmh S 12.1 mph19.5 kmh 30.03 in1016.9 mb 0.00 in0.0 mm 0.00 in0.0 mm 0.04 in1.0 mm
10:28 AM 79.7°F26.5°C 69.8°F21.0°C 72% 4.9 mph S7.9 kmh S 8.9 mph14.3 kmh 30.03 in1016.9 mb 0.00 in0.0 mm 0.00 in0.0 mm 0.04 in1.0 mm
10:29 AM 79.7°F26.5°C 69.8°F21.0°C 72% 4.9 mph SSW7.9 kmh SSW 6.9 mph11.1 kmh 30.03 in1016.9 mb 0.00 in0.0 mm 0.00 in0.0 mm 0.04 in1.0 mm
10:30 AM 79.7°F26.5°C 70.3°F21.3°C 73% 4.9 mph S7.9 kmh S 6.9 mph11.1 kmh 30.03 in1016.9 mb 0.00 in0.0 mm 0.00 in0.0 mm 0.04 in1.0 mm
10:31 AM 79.9°F26.6°C 70.9°F21.6°C 74% 4.9 mph S7.9 kmh S 6.9 mph11.1 kmh 30.03 in1016.9 mb 0.00 in0.0 mm 0.00 in0.0 mm 0.04 in1.0 mm
10:32 AM 79.9°F26.6°C 70.9°F21.6°C 74% 4.9 mph SSE7.9 kmh SSE 8.1 mph13.0 kmh 30.03 in1016.9 mb 0.00 in0.0 mm 0.00 in0.0 mm 0.04 in1.0 mm
10:33 AM 80.1°F26.7°C 71.4°F21.9°C 75% 4.9 mph SSE7.9 kmh SSE 8.9 mph14.3 kmh 30.03 in1016.9 mb 0.00 in0.0 mm 0.00 in0.0 mm 0.04 in1.0 mm
10:34 AM 80.1°F26.7°C 71.1°F21.7°C 74% 4.9 mph S7.9 kmh S 8.9 mph14.3 kmh 30.03 in1016.9 mb 0.00 in0.0 mm 0.00 in0.0 mm 0.04 in1.0 mm
10:35 AM 80.2°F26.8°C 70.9°F21.6°C 73% 4.9 mph SSE7.9 kmh SSE 11.0 mph17.7 kmh 30.03 in1016.9 mb 0.00 in0.0 mm 0.00 in0.0 mm 0.04 in1.0 mm
10:36 AM 80.2°F26.8°C 70.9°F21.6°C 73% 4.9 mph SSW7.9 kmh SSW 8.9 mph14.3 kmh 30.03 in1016.9 mb 0.00 in0.0 mm 0.00 in0.0 mm 0.04 in1.0 mm
10:37 AM 80.2°F26.8°C 70.3°F21.3°C 72% 4.9 mph SSE7.9 kmh SSE 12.0 mph19.3 kmh 30.03 in1016.9 mb 0.00 in0.0 mm 0.00 in0.0 mm 0.04 in1.0 mm
10:38 AM 80.2°F26.8°C 70.9°F21.6°C 73% 4.9 mph S7.9 kmh S 6.9 mph11.1 kmh 30.03 in1016.9 mb 0.00 in0.0 mm 0.00 in0.0 mm 0.04 in1.0 mm
10:39 AM 80.2°F26.8°C 71.2°F21.8°C 74% 4.9 mph S7.9 kmh S 6.9 mph11.1 kmh 30.03 in1016.9 mb 0.00 in0.0 mm 0.00 in0.0 mm 0.04 in1.0 mm
10:40 AM 80.2°F26.8°C 71.2°F21.8°C 74% 4.9 mph S7.9 kmh S 6.9 mph11.1 kmh 30.03 in1016.9 mb 0.00 in0.0 mm 0.00 in0.0 mm 0.04 in1.0 mm
10:41 AM 80.4°F26.9°C 70.9°F21.6°C 73% 4.9 mph S7.9 kmh S 10.1 mph16.3 kmh 30.03 in1016.9 mb 0.00 in0.0 mm 0.00 in0.0 mm 0.04 in1.0 mm
10:42 AM 80.4°F26.9°C 71.4°F21.9°C 74% 4.9 mph SSE7.9 kmh SSE 10.1 mph16.3 kmh 30.03 in1016.9 mb 0.00 in0.0 mm 0.00 in0.0 mm 0.04 in1.0 mm
10:43 AM 80.6°F27.0°C 71.1°F21.7°C 73% 4.9 mph SE7.9 kmh SE 10.1 mph16.3 kmh 30.03 in1016.9 mb 0.00 in0.0 mm 0.00 in0.0 mm 0.04 in1.0 mm
10:44 AM 80.8°F27.1°C 71.8°F22.1°C 74% 4.9 mph S7.9 kmh S 8.9 mph14.3 kmh 30.03 in1016.9 mb 0.00 in0.0 mm 0.00 in0.0 mm 0.04 in1.0 mm
10:45 AM 80.8°F27.1°C 71.8°F22.1°C 74% 4.9 mph S7.9 kmh S 11.0 mph17.7 kmh 30.03 in1016.9 mb 0.00 in0.0 mm 0.00 in0.0 mm 0.04 in1.0 mm
10:46 AM 80.8°F27.1°C 71.8°F22.1°C 74% 4.9 mph SE7.9 kmh SE 10.1 mph16.3 kmh 30.03 in1016.9 mb 0.00 in0.0 mm 0.00 in0.0 mm 0.04 in1.0 mm
10:47 AM 81.0°F27.2°C 71.4°F21.9°C 73% 4.9 mph S7.9 kmh S 8.9 mph14.3 kmh 30.03 in1016.9 mb 0.00 in0.0 mm 0.00 in0.0 mm 0.04 in1.0 mm
10:48 AM 81.0°F27.2°C 71.4°F21.9°C 73% 4.9 mph S7.9 kmh S 8.1 mph13.0 kmh 30.03 in1016.9 mb 0.00 in0.0 mm 0.00 in0.0 mm 0.04 in1.0 mm
10:49 AM 81.0°F27.2°C 71.4°F21.9°C 73% 4.9 mph S7.9 kmh S 8.9 mph14.3 kmh 30.03 in1016.9 mb 0.00 in0.0 mm 0.00 in0.0 mm 0.04 in1.0 mm
10:50 AM 81.0°F27.2°C 71.4°F21.9°C 73% 4.9 mph S7.9 kmh S 6.0 mph9.7 kmh 30.03 in1016.9 mb 0.00 in0.0 mm 0.00 in0.0 mm 0.04 in1.0 mm
10:51 AM 81.0°F27.2°C 70.7°F21.5°C 71% 4.9 mph S7.9 kmh S 10.1 mph16.3 kmh 30.03 in1016.9 mb 0.00 in0.0 mm 0.00 in0.0 mm 0.04 in1.0 mm
10:52 AM 81.0°F27.2°C 71.1°F21.7°C 72% 4.9 mph S7.9 kmh S 6.9 mph11.1 kmh 30.03 in1016.9 mb 0.00 in0.0 mm 0.00 in0.0 mm 0.04 in1.0 mm
10:53 AM 81.0°F27.2°C 71.4°F21.9°C 73% 4.9 mph SE7.9 kmh SE 6.9 mph11.1 kmh 30.03 in1016.9 mb 0.00 in0.0 mm 0.00 in0.0 mm 0.04 in1.0 mm
10:54 AM 81.0°F27.2°C 71.4°F21.9°C 73% 4.9 mph SSW7.9 kmh SSW 8.9 mph14.3 kmh 30.03 in1016.9 mb 0.00 in0.0 mm 0.00 in0.0 mm 0.04 in1.0 mm
10:55 AM 81.0°F27.2°C 71.4°F21.9°C 73% 4.9 mph SE7.9 kmh SE 6.0 mph9.7 kmh 30.03 in1016.9 mb 0.00 in0.0 mm 0.00 in0.0 mm 0.04 in1.0 mm
10:56 AM 81.0°F27.2°C 72.0°F22.2°C 74% 4.0 mph S6.4 kmh S 6.0 mph9.7 kmh 30.03 in1016.9 mb 0.00 in0.0 mm 0.00 in0.0 mm 0.04 in1.0 mm
10:57 AM 81.0°F27.2°C 71.4°F21.9°C 73% 4.0 mph S6.4 kmh S 10.1 mph16.3 kmh 30.03 in1016.9 mb 0.00 in0.0 mm 0.00 in0.0 mm 0.04 in1.0 mm
10:58 AM 81.1°F27.3°C 71.6°F22.0°C 73% 4.0 mph S6.4 kmh S 12.1 mph19.5 kmh 30.03 in1016.9 mb 0.00 in0.0 mm 0.00 in0.0 mm 0.04 in1.0 mm
10:59 AM 81.1°F27.3°C 70.9°F21.6°C 71% 4.0 mph S6.4 kmh S 12.1 mph19.5 kmh 30.03 in1016.9 mb 0.00 in0.0 mm 0.00 in0.0 mm 0.04 in1.0 mm
11:00 AM 81.1°F27.3°C 70.9°F21.6°C 71% 4.0 mph S6.4 kmh S 8.9 mph14.3 kmh 30.03 in1016.9 mb 0.00 in0.0 mm 0.00 in0.0 mm 0.04 in1.0 mm
11:01 AM 81.1°F27.3°C 71.2°F21.8°C 72% 4.0 mph WSW6.4 kmh WSW 8.9 mph14.3 kmh 30.03 in1016.9 mb 0.00 in0.0 mm 0.00 in0.0 mm 0.04 in1.0 mm
11:02 AM 81.1°F27.3°C 70.9°F21.6°C 71% 4.0 mph S6.4 kmh S 8.9 mph14.3 kmh 30.03 in1016.9 mb 0.00 in0.0 mm 0.00 in0.0 mm 0.04 in1.0 mm
11:03 AM 81.1°F27.3°C 70.3°F21.3°C 70% 4.0 mph S6.4 kmh S 8.1 mph13.0 kmh 30.03 in1016.9 mb 0.00 in0.0 mm 0.00 in0.0 mm 0.04 in1.0 mm
11:04 AM 81.1°F27.3°C 70.9°F21.6°C 71% 4.0 mph S6.4 kmh S 8.9 mph14.3 kmh 30.03 in1016.9 mb 0.00 in0.0 mm 0.00 in0.0 mm 0.04 in1.0 mm
11:05 AM 81.3°F27.4°C 71.1°F21.7°C 71% 4.9 mph S7.9 kmh S 8.9 mph14.3 kmh 30.03 in1016.9 mb 0.00 in0.0 mm 0.00 in0.0 mm 0.04 in1.0 mm
11:06 AM 81.3°F27.4°C 71.1°F21.7°C 71% 4.9 mph S7.9 kmh S 10.1 mph16.3 kmh 30.03 in1016.9 mb 0.00 in0.0 mm 0.00 in0.0 mm 0.04 in1.0 mm
11:07 AM 81.3°F27.4°C 70.5°F21.4°C 70% 4.9 mph SSW7.9 kmh SSW 10.1 mph16.3 kmh 30.03 in1016.9 mb 0.00 in0.0 mm 0.00 in0.0 mm 0.04 in1.0 mm
11:08 AM 81.5°F27.5°C 70.0°F21.1°C 68% 4.9 mph SSW7.9 kmh SSW 8.1 mph13.0 kmh 30.03 in1016.9 mb 0.00 in0.0 mm 0.00 in0.0 mm 0.04 in1.0 mm
11:09 AM 81.5°F27.5°C 70.3°F21.3°C 69% 4.9 mph SSW7.9 kmh SSW 4.0 mph6.4 kmh 30.03 in1016.9 mb 0.00 in0.0 mm 0.00 in0.0 mm 0.04 in1.0 mm
11:10 AM 81.7°F27.6°C 70.5°F21.4°C 69% 4.9 mph SSW7.9 kmh SSW 6.0 mph9.7 kmh 30.03 in1016.9 mb 0.00 in0.0 mm 0.00 in0.0 mm 0.04 in1.0 mm
11:11 AM 81.7°F27.6°C 70.9°F21.6°C 70% 4.9 mph SSW7.9 kmh SSW 6.0 mph9.7 kmh 30.03 in1016.9 mb 0.00 in0.0 mm 0.00 in0.0 mm 0.04 in1.0 mm
11:12 AM 81.9°F27.7°C 71.1°F21.7°C 70% 4.0 mph SSW6.4 kmh SSW 6.0 mph9.7 kmh 30.03 in1016.9 mb 0.00 in0.0 mm 0.00 in0.0 mm 0.04 in1.0 mm
11:13 AM 81.9°F27.7°C 71.1°F21.7°C 70% 4.0 mph S6.4 kmh S 6.9 mph11.1 kmh 30.03 in1016.9 mb 0.00 in0.0 mm 0.00 in0.0 mm 0.04 in1.0 mm
11:14 AM 81.9°F27.7°C 71.6°F22.0°C 71% 4.0 mph S6.4 kmh S 10.1 mph16.3 kmh 30.03 in1016.9 mb 0.00 in0.0 mm 0.00 in0.0 mm 0.04 in1.0 mm
11:15 AM 81.9°F27.7°C 72.0°F22.2°C 72% 4.0 mph S6.4 kmh S 6.9 mph11.1 kmh 30.03 in1016.9 mb 0.00 in0.0 mm 0.00 in0.0 mm 0.04 in1.0 mm
11:17 AM 81.9°F27.7°C 71.6°F22.0°C 71% 4.0 mph S6.4 kmh S 8.1 mph13.0 kmh 30.03 in1016.9 mb 0.00 in0.0 mm 0.00 in0.0 mm 0.04 in1.0 mm
11:18 AM 82.0°F27.8°C 71.8°F22.1°C 71% 4.0 mph SSW6.4 kmh SSW 8.1 mph13.0 kmh 30.03 in1016.9 mb 0.00 in0.0 mm 0.00 in0.0 mm 0.04 in1.0 mm
11:19 AM 82.0°F27.8°C 71.8°F22.1°C 71% 4.0 mph S6.4 kmh S 8.9 mph14.3 kmh 30.03 in1016.9 mb 0.00 in0.0 mm 0.00 in0.0 mm 0.04 in1.0 mm
11:20 AM 82.0°F27.8°C 71.2°F21.8°C 70% 4.0 mph SSE6.4 kmh SSE 11.0 mph17.7 kmh 30.03 in1016.9 mb 0.00 in0.0 mm 0.00 in0.0 mm 0.04 in1.0 mm
11:21 AM 82.0°F27.8°C 71.2°F21.8°C 70% 4.9 mph SSE7.9 kmh SSE 10.1 mph16.3 kmh 30.03 in1016.9 mb 0.00 in0.0 mm 0.00 in0.0 mm 0.04 in1.0 mm
11:22 AM 82.2°F27.9°C 72.0°F22.2°C 71% 4.9 mph SSW7.9 kmh SSW 10.1 mph16.3 kmh 30.03 in1016.9 mb 0.00 in0.0 mm 0.00 in0.0 mm 0.04 in1.0 mm
11:23 AM 82.2°F27.9°C 71.4°F21.9°C 70% 4.9 mph SE7.9 kmh SE 10.1 mph16.3 kmh 30.03 in1016.9 mb 0.00 in0.0 mm 0.00 in0.0 mm 0.04 in1.0 mm
11:24 AM 82.2°F27.9°C 71.4°F21.9°C 70% 4.9 mph S7.9 kmh S 8.9 mph14.3 kmh 30.03 in1016.9 mb 0.00 in0.0 mm 0.00 in0.0 mm 0.04 in1.0 mm
11:25 AM 82.6°F28.1°C 71.8°F22.1°C 70% 4.9 mph S7.9 kmh S 4.9 mph7.9 kmh 30.03 in1016.9 mb 0.00 in0.0 mm 0.00 in0.0 mm 0.04 in1.0 mm
11:26 AM 82.6°F28.1°C 71.8°F22.1°C 70% 4.9 mph SW7.9 kmh SW 6.0 mph9.7 kmh 30.03 in1016.9 mb 0.00 in0.0 mm 0.00 in0.0 mm 0.04 in1.0 mm
11:27 AM 82.6°F28.1°C 71.4°F21.9°C 69% 4.9 mph S7.9 kmh S 6.0 mph9.7 kmh 30.03 in1016.9 mb 0.00 in0.0 mm 0.00 in0.0 mm 0.04 in1.0 mm
11:28 AM 82.8°F28.2°C 71.6°F22.0°C 69% 4.9 mph S7.9 kmh S 6.9 mph11.1 kmh 30.03 in1016.9 mb 0.00 in0.0 mm 0.00 in0.0 mm 0.04 in1.0 mm
11:29 AM 82.8°F28.2°C 71.6°F22.0°C 69% 4.9 mph S7.9 kmh S 6.0 mph9.7 kmh 30.03 in1016.9 mb 0.00 in0.0 mm 0.00 in0.0 mm 0.04 in1.0 mm
11:30 AM 82.6°F28.1°C 70.9°F21.6°C 68% 4.0 mph S6.4 kmh S 11.0 mph17.7 kmh 30.03 in1016.9 mb 0.00 in0.0 mm 0.00 in0.0 mm 0.04 in1.0 mm
11:31 AM 82.6°F28.1°C 71.4°F21.9°C 69% 4.0 mph S6.4 kmh S 8.9 mph14.3 kmh 30.03 in1016.9 mb 0.00 in0.0 mm 0.00 in0.0 mm 0.04 in1.0 mm
11:32 AM 82.6°F28.1°C 71.4°F21.9°C 69% 4.0 mph S6.4 kmh S 8.9 mph14.3 kmh 30.03 in1016.9 mb 0.00 in0.0 mm 0.00 in0.0 mm 0.04 in1.0 mm
11:33 AM 82.4°F28.0°C 71.2°F21.8°C 69% 4.0 mph S6.4 kmh S 8.9 mph14.3 kmh 30.03 in1016.9 mb 0.00 in0.0 mm 0.00 in0.0 mm 0.04 in1.0 mm
11:34 AM 82.4°F28.0°C 71.2°F21.8°C 69% 4.0 mph S6.4 kmh S 6.9 mph11.1 kmh 30.03 in1016.9 mb 0.00 in0.0 mm 0.00 in0.0 mm 0.04 in1.0 mm
11:35 AM 82.2°F27.9°C 71.4°F21.9°C 70% 4.0 mph SSW6.4 kmh SSW 6.9 mph11.1 kmh 30.03 in1016.9 mb 0.00 in0.0 mm 0.00 in0.0 mm 0.04 in1.0 mm
11:36 AM 82.2°F27.9°C 71.4°F21.9°C 70% 4.0 mph S6.4 kmh S 6.9 mph11.1 kmh 30.03 in1016.9 mb 0.00 in0.0 mm 0.00 in0.0 mm 0.04 in1.0 mm
11:37 AM 82.0°F27.8°C 71.8°F22.1°C 71% 4.0 mph S6.4 kmh S 10.1 mph16.3 kmh 30.03 in1016.9 mb 0.00 in0.0 mm 0.00 in0.0 mm 0.04 in1.0 mm
11:38 AM 82.0°F27.8°C 71.8°F22.1°C 71% 4.0 mph S6.4 kmh S 6.9 mph11.1 kmh 30.03 in1016.9 mb 0.00 in0.0 mm 0.00 in0.0 mm 0.04 in1.0 mm
11:39 AM 82.0°F27.8°C 71.8°F22.1°C 71% 4.0 mph S6.4 kmh S 8.1 mph13.0 kmh 30.03 in1016.9 mb 0.00 in0.0 mm 0.00 in0.0 mm 0.04 in1.0 mm
11:40 AM 82.0°F27.8°C 71.8°F22.1°C 71% 4.0 mph S6.4 kmh S 8.9 mph14.3 kmh 30.03 in1016.9 mb 0.00 in0.0 mm 0.00 in0.0 mm 0.04 in1.0 mm
11:41 AM 82.0°F27.8°C 71.8°F22.1°C 71% 4.9 mph S7.9 kmh S 13.0 mph20.9 kmh 30.03 in1016.9 mb 0.00 in0.0 mm 0.00 in0.0 mm 0.04 in1.0 mm
11:42 AM 81.9°F27.7°C 71.1°F21.7°C 70% 4.9 mph S7.9 kmh S 8.1 mph13.0 kmh 30.03 in1016.9 mb 0.00 in0.0 mm 0.00 in0.0 mm 0.04 in1.0 mm
11:43 AM 81.9°F27.7°C 71.6°F22.0°C 71% 4.9 mph S7.9 kmh S 8.9 mph14.3 kmh 30.02 in1016.6 mb 0.00 in0.0 mm 0.00 in0.0 mm 0.04 in1.0 mm
11:44 AM 81.9°F27.7°C 72.0°F22.2°C 72% 4.9 mph S7.9 kmh S 6.0 mph9.7 kmh 30.02 in1016.6 mb 0.00 in0.0 mm 0.00 in0.0 mm 0.04 in1.0 mm
11:45 AM 81.9°F27.7°C 71.6°F22.0°C 71% 4.9 mph SSW7.9 kmh SSW 11.0 mph17.7 kmh 30.02 in1016.6 mb 0.00 in0.0 mm 0.00 in0.0 mm 0.04 in1.0 mm
11:46 AM 81.9°F27.7°C 71.6°F22.0°C 71% 4.9 mph S7.9 kmh S 8.1 mph13.0 kmh 30.02 in1016.6 mb 0.00 in0.0 mm 0.00 in0.0 mm 0.04 in1.0 mm
11:47 AM 81.7°F27.6°C 71.4°F21.9°C 71% 4.9 mph S7.9 kmh S 8.1 mph13.0 kmh 30.02 in1016.6 mb 0.00 in0.0 mm 0.00 in0.0 mm 0.04 in1.0 mm
11:48 AM 81.7°F27.6°C 71.8°F22.1°C 72% 4.9 mph S7.9 kmh S 6.9 mph11.1 kmh 30.02 in1016.6 mb 0.00 in0.0 mm 0.00 in0.0 mm 0.04 in1.0 mm
11:49 AM 81.7°F27.6°C 71.4°F21.9°C 71% 4.9 mph S7.9 kmh S 8.9 mph14.3 kmh 30.02 in1016.6 mb 0.00 in0.0 mm 0.00 in0.0 mm 0.04 in1.0 mm
11:50 AM 81.7°F27.6°C 71.4°F21.9°C 71% 4.9 mph S7.9 kmh S 13.0 mph20.9 kmh 30.02 in1016.6 mb 0.00 in0.0 mm 0.00 in0.0 mm 0.04 in1.0 mm
11:51 AM 81.9°F27.7°C 72.0°F22.2°C 72% 4.9 mph S7.9 kmh S 13.0 mph20.9 kmh 30.02 in1016.6 mb 0.00 in0.0 mm 0.00 in0.0 mm 0.04 in1.0 mm
11:52 AM 81.9°F27.7°C 72.7°F22.6°C 74% 4.9 mph S7.9 kmh S 6.9 mph11.1 kmh 30.02 in1016.6 mb 0.00 in0.0 mm 0.00 in0.0 mm 0.04 in1.0 mm
11:53 AM 82.0°F27.8°C 72.9°F22.7°C 74% 4.0 mph SSW6.4 kmh SSW 4.9 mph7.9 kmh 30.02 in1016.6 mb 0.00 in0.0 mm 0.00 in0.0 mm 0.04 in1.0 mm
11:54 AM 82.0°F27.8°C 72.9°F22.7°C 74% 4.0 mph S6.4 kmh S 4.9 mph7.9 kmh 30.02 in1016.6 mb 0.00 in0.0 mm 0.00 in0.0 mm 0.04 in1.0 mm
11:55 AM 82.2°F27.9°C 73.0°F22.8°C 74% 4.0 mph S6.4 kmh S 4.0 mph6.4 kmh 30.02 in1016.6 mb 0.00 in0.0 mm 0.00 in0.0 mm 0.04 in1.0 mm
11:57 AM 82.4°F28.0°C 73.2°F22.9°C 74% 4.0 mph SSE6.4 kmh SSE 4.0 mph6.4 kmh 30.02 in1016.6 mb 0.00 in0.0 mm 0.00 in0.0 mm 0.04 in1.0 mm
11:58 AM 82.8°F28.2°C 73.2°F22.9°C 73% 4.0 mph S6.4 kmh S 6.0 mph9.7 kmh 30.02 in1016.6 mb 0.00 in0.0 mm 0.00 in0.0 mm 0.04 in1.0 mm
11:59 AM 82.8°F28.2°C 72.9°F22.7°C 72% 4.0 mph SSW6.4 kmh SSW 11.0 mph17.7 kmh 30.02 in1016.6 mb 0.00 in0.0 mm 0.00 in0.0 mm 0.04 in1.0 mm
12:00 PM 82.9°F28.3°C 71.8°F22.1°C 69% 4.0 mph S6.4 kmh S 11.0 mph17.7 kmh 30.02 in1016.6 mb 0.00 in0.0 mm 0.00 in0.0 mm 0.04 in1.0 mm
12:01 PM 82.9°F28.3°C 72.1°F22.3°C 70% 4.0 mph S6.4 kmh S 11.0 mph17.7 kmh 30.02 in1016.6 mb 0.00 in0.0 mm 0.00 in0.0 mm 0.04 in1.0 mm
12:02 PM 82.9°F28.3°C 71.8°F22.1°C 69% 4.0 mph SSE6.4 kmh SSE 10.1 mph16.3 kmh 30.02 in1016.6 mb 0.00 in0.0 mm 0.00 in0.0 mm 0.04 in1.0 mm
12:03 PM 83.1°F28.4°C 72.7°F22.6°C 71% 4.0 mph SSE6.4 kmh SSE 11.0 mph17.7 kmh 30.02 in1016.6 mb 0.00 in0.0 mm 0.00 in0.0 mm 0.04 in1.0 mm
12:04 PM 83.1°F28.4°C 73.2°F22.9°C 72% 4.9 mph S7.9 kmh S 11.0 mph17.7 kmh 30.01 in1016.3 mb 0.00 in0.0 mm 0.00 in0.0 mm 0.04 in1.0 mm
12:05 PM 83.3°F28.5°C 72.1°F22.3°C 69% 4.9 mph S7.9 kmh S 6.9 mph11.1 kmh 30.01 in1016.3 mb 0.00 in0.0 mm 0.00 in0.0 mm 0.04 in1.0 mm
12:06 PM 83.5°F28.6°C 72.3°F22.4°C 69% 4.9 mph SSW7.9 kmh SSW 6.0 mph9.7 kmh 30.01 in1016.3 mb 0.00 in0.0 mm 0.00 in0.0 mm 0.04 in1.0 mm
12:07 PM 83.7°F28.7°C 72.9°F22.7°C 70% 4.9 mph SSW7.9 kmh SSW 6.0 mph9.7 kmh 30.01 in1016.3 mb 0.00 in0.0 mm 0.00 in0.0 mm 0.04 in1.0 mm
12:08 PM 83.7°F28.7°C 72.9°F22.7°C 70% 4.9 mph SSW7.9 kmh SSW 8.1 mph13.0 kmh 30.01 in1016.3 mb 0.00 in0.0 mm 0.00 in0.0 mm 0.04 in1.0 mm
12:09 PM 83.8°F28.8°C 73.0°F22.8°C 70% 4.9 mph S7.9 kmh S 8.9 mph14.3 kmh 30.01 in1016.3 mb 0.00 in0.0 mm 0.00 in0.0 mm 0.04 in1.0 mm
12:10 PM 83.8°F28.8°C 73.4°F23.0°C 71% 4.9 mph SSE7.9 kmh SSE 10.1 mph16.3 kmh 30.01 in1016.3 mb 0.00 in0.0 mm 0.00 in0.0 mm 0.04 in1.0 mm
12:11 PM 83.8°F28.8°C 72.5°F22.5°C 69% 4.9 mph S7.9 kmh S 11.0 mph17.7 kmh 30.01 in1016.3 mb 0.00 in0.0 mm 0.00 in0.0 mm 0.04 in1.0 mm
12:12 PM 84.0°F28.9°C 72.3°F22.4°C 68% 4.9 mph S7.9 kmh S 11.0 mph17.7 kmh 30.01 in1016.3 mb 0.00 in0.0 mm 0.00 in0.0 mm 0.04 in1.0 mm
12:13 PM 84.0°F28.9°C 73.2°F22.9°C 70% 4.9 mph S7.9 kmh S 8.9 mph14.3 kmh 30.01 in1016.3 mb 0.00 in0.0 mm 0.00 in0.0 mm 0.04 in1.0 mm
12:14 PM 84.0°F28.9°C 73.6°F23.1°C 71% 4.9 mph SE7.9 kmh SE 8.9 mph14.3 kmh 30.01 in1016.3 mb 0.00 in0.0 mm 0.00 in0.0 mm 0.04 in1.0 mm
12:15 PM 84.2°F29.0°C 73.8°F23.2°C 71% 4.9 mph S7.9 kmh S 8.9 mph14.3 kmh 30.01 in1016.3 mb 0.00 in0.0 mm 0.00 in0.0 mm 0.04 in1.0 mm
12:16 PM 84.4°F29.1°C 73.6°F23.1°C 70% 4.9 mph S7.9 kmh S 8.9 mph14.3 kmh 30.01 in1016.3 mb 0.00 in0.0 mm 0.00 in0.0 mm 0.04 in1.0 mm
12:17 PM 84.4°F29.1°C 73.6°F23.1°C 70% 6.0 mph S9.7 kmh S 12.1 mph19.5 kmh 30.01 in1016.3 mb 0.00 in0.0 mm 0.00 in0.0 mm 0.04 in1.0 mm
12:18 PM 84.4°F29.1°C 73.9°F23.3°C 71% 6.0 mph S9.7 kmh S 10.1 mph16.3 kmh 30.01 in1016.3 mb 0.00 in0.0 mm 0.00 in0.0 mm 0.04 in1.0 mm
12:19 PM 84.6°F29.2°C 73.8°F23.2°C 70% 6.0 mph S9.7 kmh S 10.1 mph16.3 kmh 30.01 in1016.3 mb 0.00 in0.0 mm 0.00 in0.0 mm 0.04 in1.0 mm
12:20 PM 84.6°F29.2°C 74.5°F23.6°C 72% 6.0 mph SSE9.7 kmh SSE 6.9 mph11.1 kmh 30.01 in1016.3 mb 0.00 in0.0 mm 0.00 in0.0 mm 0.04 in1.0 mm
12:21 PM 84.6°F29.2°C 73.8°F23.2°C 70% 4.9 mph S7.9 kmh S 4.9 mph7.9 kmh 30.01 in1016.3 mb 0.00 in0.0 mm 0.00 in0.0 mm 0.04 in1.0 mm
12:22 PM 84.4°F29.1°C 73.6°F23.1°C 70% 4.9 mph SSW7.9 kmh SSW 6.9 mph11.1 kmh 30.01 in1016.3 mb 0.00 in0.0 mm 0.00 in0.0 mm 0.04 in1.0 mm
12:23 PM 84.2°F29.0°C 72.5°F22.5°C 68% 4.9 mph SE7.9 kmh SE 8.9 mph14.3 kmh 30.01 in1016.3 mb 0.00 in0.0 mm 0.00 in0.0 mm 0.04 in1.0 mm
12:24 PM 84.0°F28.9°C 72.7°F22.6°C 69% 4.9 mph SSW7.9 kmh SSW 11.0 mph17.7 kmh 30.01 in1016.3 mb 0.00 in0.0 mm 0.00 in0.0 mm 0.04 in1.0 mm
12:25 PM 83.8°F28.8°C 73.0°F22.8°C 70% 4.9 mph S7.9 kmh S 11.0 mph17.7 kmh 30.01 in1016.3 mb 0.00 in0.0 mm 0.00 in0.0 mm 0.04 in1.0 mm
12:26 PM 83.7°F28.7°C 72.9°F22.7°C 70% 4.9 mph S7.9 kmh S 4.0 mph6.4 kmh 30.01 in1016.3 mb 0.00 in0.0 mm 0.00 in0.0 mm 0.04 in1.0 mm
12:27 PM 83.7°F28.7°C 73.2°F22.9°C 71% 4.0 mph S6.4 kmh S 4.0 mph6.4 kmh 30.01 in1016.3 mb 0.00 in0.0 mm 0.00 in0.0 mm 0.04 in1.0 mm
12:28 PM 83.7°F28.7°C 73.6°F23.1°C 72% 4.0 mph S6.4 kmh S 4.0 mph6.4 kmh 30.01 in1016.3 mb 0.00 in0.0 mm 0.00 in0.0 mm 0.04 in1.0 mm
12:29 PM 83.7°F28.7°C 73.6°F23.1°C 72% 4.0 mph S6.4 kmh S 10.1 mph16.3 kmh 30.00 in1015.9 mb 0.00 in0.0 mm 0.00 in0.0 mm 0.04 in1.0 mm
12:30 PM 83.8°F28.8°C 73.8°F23.2°C 72% 4.0 mph SSE6.4 kmh SSE 8.9 mph14.3 kmh 30.00 in1015.9 mb 0.00 in0.0 mm 0.00 in0.0 mm 0.04 in1.0 mm
12:31 PM 83.8°F28.8°C 74.3°F23.5°C 73% 4.0 mph S6.4 kmh S 6.9 mph11.1 kmh 30.00 in1015.9 mb 0.00 in0.0 mm 0.00 in0.0 mm 0.04 in1.0 mm
12:32 PM 84.0°F28.9°C 73.9°F23.3°C 72% 4.0 mph S6.4 kmh S 8.1 mph13.0 kmh 30.00 in1015.9 mb 0.00 in0.0 mm 0.00 in0.0 mm 0.04 in1.0 mm
12:33 PM 84.0°F28.9°C 73.6°F23.1°C 71% 4.0 mph S6.4 kmh S 8.1 mph13.0 kmh 30.00 in1015.9 mb 0.00 in0.0 mm 0.00 in0.0 mm 0.04 in1.0 mm
12:34 PM 84.2°F29.0°C 73.8°F23.2°C 71% 4.0 mph SE6.4 kmh SE 11.0 mph17.7 kmh 30.00 in1015.9 mb 0.00 in0.0 mm 0.00 in0.0 mm 0.04 in1.0 mm
12:35 PM 84.0°F28.9°C 73.6°F23.1°C 71% 4.0 mph S6.4 kmh S 10.1 mph16.3 kmh 30.00 in1015.9 mb 0.00 in0.0 mm 0.00 in0.0 mm 0.04 in1.0 mm
12:37 PM 84.0°F28.9°C 73.6°F23.1°C 71% 4.0 mph SSW6.4 kmh SSW 8.1 mph13.0 kmh 30.00 in1015.9 mb 0.00 in0.0 mm 0.00 in0.0 mm 0.04 in1.0 mm
12:38 PM 84.0°F28.9°C 73.6°F23.1°C 71% 4.0 mph S6.4 kmh S 8.9 mph14.3 kmh 30.00 in1015.9 mb 0.00 in0.0 mm 0.00 in0.0 mm 0.04 in1.0 mm
12:39 PM 83.8°F28.8°C 73.0°F22.8°C 70% 4.0 mph S6.4 kmh S 8.9 mph14.3 kmh 30.00 in1015.9 mb 0.00 in0.0 mm 0.00 in0.0 mm 0.04 in1.0 mm
12:40 PM 83.8°F28.8°C 73.0°F22.8°C 70% 4.0 mph S6.4 kmh S 8.1 mph13.0 kmh 30.00 in1015.9 mb 0.00 in0.0 mm 0.00 in0.0 mm 0.04 in1.0 mm
12:41 PM 83.7°F28.7°C 73.2°F22.9°C 71% 4.0 mph S6.4 kmh S 6.9 mph11.1 kmh 30.00 in1015.9 mb 0.00 in0.0 mm 0.00 in0.0 mm 0.04 in1.0 mm
12:42 PM 83.7°F28.7°C 73.6°F23.1°C 72% 4.0 mph SSE6.4 kmh SSE 8.9 mph14.3 kmh 30.00 in1015.9 mb 0.00 in0.0 mm 0.00 in0.0 mm 0.04 in1.0 mm
12:43 PM 83.8°F28.8°C 73.8°F23.2°C 72% 4.9 mph S7.9 kmh S 8.1 mph13.0 kmh 30.00 in1015.9 mb 0.00 in0.0 mm 0.00 in0.0 mm 0.04 in1.0 mm
12:44 PM 83.8°F28.8°C 74.3°F23.5°C 73% 4.0 mph S6.4 kmh S 4.9 mph7.9 kmh 30.00 in1015.9 mb 0.00 in0.0 mm 0.00 in0.0 mm 0.04 in1.0 mm
12:45 PM 83.8°F28.8°C 73.4°F23.0°C 71% 4.0 mph SE6.4 kmh SE 4.0 mph6.4 kmh 30.00 in1015.9 mb 0.00 in0.0 mm 0.00 in0.0 mm 0.04 in1.0 mm
12:46 PM 83.8°F28.8°C 73.4°F23.0°C 71% 4.0 mph S6.4 kmh S 10.0 mph16.1 kmh 29.99 in1015.6 mb 0.00 in0.0 mm 0.00 in0.0 mm 0.04 in1.0 mm
12:47 PM 83.8°F28.8°C 73.8°F23.2°C 72% 4.0 mph SW6.4 kmh SW 4.9 mph7.9 kmh 29.99 in1015.6 mb 0.00 in0.0 mm 0.00 in0.0 mm 0.04 in1.0 mm
12:48 PM 83.8°F28.8°C 73.8°F23.2°C 72% 4.0 mph SE6.4 kmh SE 8.9 mph14.3 kmh 29.99 in1015.6 mb 0.00 in0.0 mm 0.00 in0.0 mm 0.04 in1.0 mm
12:49 PM 83.8°F28.8°C 73.4°F23.0°C 71% 4.0 mph S6.4 kmh S 8.9 mph14.3 kmh 29.99 in1015.6 mb 0.00 in0.0 mm 0.00 in0.0 mm 0.04 in1.0 mm
12:50 PM 83.8°F28.8°C 73.4°F23.0°C 71% 4.0 mph S6.4 kmh S 8.9 mph14.3 kmh 29.99 in1015.6 mb 0.00 in0.0 mm 0.00 in0.0 mm 0.04 in1.0 mm
12:51 PM 83.7°F28.7°C 73.2°F22.9°C 71% 4.0 mph SSE6.4 kmh SSE 8.9 mph14.3 kmh 29.99 in1015.6 mb 0.00 in0.0 mm 0.00 in0.0 mm 0.04 in1.0 mm
12:52 PM 83.8°F28.8°C 73.8°F23.2°C 72% 4.0 mph SSE6.4 kmh SSE 8.9 mph14.3 kmh 29.99 in1015.6 mb 0.00 in0.0 mm 0.00 in0.0 mm 0.04 in1.0 mm
12:53 PM 83.7°F28.7°C 73.6°F23.1°C 72% 4.0 mph SSE6.4 kmh SSE 8.1 mph13.0 kmh 29.99 in1015.6 mb 0.00 in0.0 mm 0.00 in0.0 mm 0.04 in1.0 mm
12:54 PM 83.7°F28.7°C 74.1°F23.4°C 73% 4.0 mph S6.4 kmh S 8.9 mph14.3 kmh 29.98 in1015.2 mb 0.00 in0.0 mm 0.00 in0.0 mm 0.04 in1.0 mm
12:55 PM 83.7°F28.7°C 74.1°F23.4°C 73% 4.0 mph S6.4 kmh S 8.9 mph14.3 kmh 29.98 in1015.2 mb 0.00 in0.0 mm 0.00 in0.0 mm 0.04 in1.0 mm
12:56 PM 83.7°F28.7°C 74.5°F23.6°C 74% 4.9 mph S7.9 kmh S 10.1 mph16.3 kmh 29.98 in1015.2 mb 0.00 in0.0 mm 0.00 in0.0 mm 0.04 in1.0 mm
12:57 PM 83.7°F28.7°C 74.1°F23.4°C 73% 4.9 mph S7.9 kmh S 10.1 mph16.3 kmh 29.98 in1015.2 mb 0.00 in0.0 mm 0.00 in0.0 mm 0.04 in1.0 mm
12:58 PM 83.7°F28.7°C 74.5°F23.6°C 74% 4.9 mph SW7.9 kmh SW 8.1 mph13.0 kmh 29.98 in1015.2 mb 0.00 in0.0 mm 0.00 in0.0 mm 0.04 in1.0 mm
12:59 PM 83.7°F28.7°C 73.6°F23.1°C 72% 4.9 mph S7.9 kmh S 8.9 mph14.3 kmh 29.98 in1015.2 mb 0.00 in0.0 mm 0.00 in0.0 mm 0.04 in1.0 mm
01:00 PM 83.7°F28.7°C 73.6°F23.1°C 72% 4.9 mph S7.9 kmh S 10.1 mph16.3 kmh 29.98 in1015.2 mb 0.00 in0.0 mm 0.00 in0.0 mm 0.04 in1.0 mm
01:01 PM 83.7°F28.7°C 74.1°F23.4°C 73% 4.9 mph SSE7.9 kmh SSE 6.9 mph11.1 kmh 29.98 in1015.2 mb 0.00 in0.0 mm 0.00 in0.0 mm 0.04 in1.0 mm
01:02 PM 83.8°F28.8°C 74.7°F23.7°C 74% 4.9 mph S7.9 kmh S 6.0 mph9.7 kmh 29.98 in1015.2 mb 0.00 in0.0 mm 0.00 in0.0 mm 0.04 in1.0 mm
01:03 PM 83.8°F28.8°C 74.3°F23.5°C 73% 4.9 mph S7.9 kmh S 10.1 mph16.3 kmh 29.98 in1015.2 mb 0.00 in0.0 mm 0.00 in0.0 mm 0.04 in1.0 mm
01:04 PM 83.8°F28.8°C 73.8°F23.2°C 72% 4.9 mph S7.9 kmh S 10.1 mph16.3 kmh 29.98 in1015.2 mb 0.00 in0.0 mm 0.00 in0.0 mm 0.04 in1.0 mm
01:05 PM 84.0°F28.9°C 73.6°F23.1°C 71% 4.9 mph S7.9 kmh S 8.9 mph14.3 kmh 29.98 in1015.2 mb 0.00 in0.0 mm 0.00 in0.0 mm 0.04 in1.0 mm
01:06 PM 84.0°F28.9°C 73.2°F22.9°C 70% 4.9 mph S7.9 kmh S 8.9 mph14.3 kmh 29.98 in1015.2 mb 0.00 in0.0 mm 0.00 in0.0 mm 0.04 in1.0 mm
01:07 PM 84.0°F28.9°C 74.5°F23.6°C 73% 4.0 mph S6.4 kmh S 6.0 mph9.7 kmh 29.98 in1015.2 mb 0.00 in0.0 mm 0.00 in0.0 mm 0.04 in1.0 mm
01:08 PM 84.2°F29.0°C 75.0°F23.9°C 74% 4.0 mph S6.4 kmh S 6.9 mph11.1 kmh 29.98 in1015.2 mb 0.00 in0.0 mm 0.00 in0.0 mm 0.04 in1.0 mm
01:09 PM 84.4°F29.1°C 74.8°F23.8°C 73% 4.0 mph SW6.4 kmh SW 8.9 mph14.3 kmh 29.98 in1015.2 mb 0.00 in0.0 mm 0.00 in0.0 mm 0.04 in1.0 mm
01:10 PM 84.6°F29.2°C 73.8°F23.2°C 70% 4.9 mph S7.9 kmh S 12.1 mph19.5 kmh 29.98 in1015.2 mb 0.00 in0.0 mm 0.00 in0.0 mm 0.04 in1.0 mm
01:11 PM 84.6°F29.2°C 74.1°F23.4°C 71% 4.9 mph SE7.9 kmh SE 8.9 mph14.3 kmh 29.98 in1015.2 mb 0.00 in0.0 mm 0.00 in0.0 mm 0.04 in1.0 mm
01:12 PM 84.4°F29.1°C 74.3°F23.5°C 72% 4.9 mph S7.9 kmh S 4.0 mph6.4 kmh 29.98 in1015.2 mb 0.00 in0.0 mm 0.00 in0.0 mm 0.04 in1.0 mm
01:13 PM 84.6°F29.2°C 75.0°F23.9°C 73% 4.0 mph S6.4 kmh S 6.9 mph11.1 kmh 29.98 in1015.2 mb 0.00 in0.0 mm 0.00 in0.0 mm 0.04 in1.0 mm
01:14 PM 84.4°F29.1°C 74.3°F23.5°C 72% 4.0 mph S6.4 kmh S 10.1 mph16.3 kmh 29.98 in1015.2 mb 0.00 in0.0 mm 0.00 in0.0 mm 0.04 in1.0 mm
01:15 PM 84.4°F29.1°C 73.6°F23.1°C 70% 4.0 mph S6.4 kmh S 8.9 mph14.3 kmh 29.98 in1015.2 mb 0.00 in0.0 mm 0.00 in0.0 mm 0.04 in1.0 mm
01:16 PM 84.4°F29.1°C 73.9°F23.3°C 71% 4.9 mph SSE7.9 kmh SSE 8.1 mph13.0 kmh 29.98 in1015.2 mb 0.00 in0.0 mm 0.00 in0.0 mm 0.04 in1.0 mm
01:17 PM 84.0°F28.9°C 73.6°F23.1°C 71% 4.9 mph S7.9 kmh S 8.1 mph13.0 kmh 29.98 in1015.2 mb 0.00 in0.0 mm 0.00 in0.0 mm 0.04 in1.0 mm
01:18 PM 83.8°F28.8°C 73.4°F23.0°C 71% 4.9 mph SSE7.9 kmh SSE 6.0 mph9.7 kmh 29.98 in1015.2 mb 0.00 in0.0 mm 0.00 in0.0 mm 0.04 in1.0 mm
01:19 PM 83.8°F28.8°C 73.8°F23.2°C 72% 4.9 mph S7.9 kmh S 6.0 mph9.7 kmh 29.98 in1015.2 mb 0.00 in0.0 mm 0.00 in0.0 mm 0.04 in1.0 mm
01:20 PM 83.7°F28.7°C 73.6°F23.1°C 72% 4.0 mph S6.4 kmh S 8.1 mph13.0 kmh 29.98 in1015.2 mb 0.00 in0.0 mm 0.00 in0.0 mm 0.04 in1.0 mm
01:22 PM 83.7°F28.7°C 73.6°F23.1°C 72% 4.0 mph S6.4 kmh S 4.9 mph7.9 kmh 29.98 in1015.2 mb 0.00 in0.0 mm 0.00 in0.0 mm 0.04 in1.0 mm
01:23 PM 83.7°F28.7°C 73.6°F23.1°C 72% 4.0 mph S6.4 kmh S 6.9 mph11.1 kmh 29.98 in1015.2 mb 0.00 in0.0 mm 0.00 in0.0 mm 0.04 in1.0 mm
01:24 PM 83.7°F28.7°C 73.2°F22.9°C 71% 4.0 mph S6.4 kmh S 8.9 mph14.3 kmh 29.97 in1014.9 mb 0.00 in0.0 mm 0.00 in0.0 mm 0.04 in1.0 mm
01:25 PM 83.7°F28.7°C 72.9°F22.7°C 70% 4.0 mph S6.4 kmh S 6.9 mph11.1 kmh 29.97 in1014.9 mb 0.00 in0.0 mm 0.00 in0.0 mm 0.04 in1.0 mm
01:26 PM 83.7°F28.7°C 72.3°F22.4°C 69% 4.0 mph SSW6.4 kmh SSW 8.1 mph13.0 kmh 29.97 in1014.9 mb 0.00 in0.0 mm 0.00 in0.0 mm 0.04 in1.0 mm
01:27 PM 83.5°F28.6°C 72.7°F22.6°C 70% 4.0 mph S6.4 kmh S 8.1 mph13.0 kmh 29.98 in1015.2 mb 0.00 in0.0 mm 0.00 in0.0 mm 0.04 in1.0 mm
01:28 PM 83.5°F28.6°C 72.7°F22.6°C 70% 4.0 mph SSW6.4 kmh SSW 8.9 mph14.3 kmh 29.97 in1014.9 mb 0.00 in0.0 mm 0.00 in0.0 mm 0.04 in1.0 mm
01:29 PM 83.5°F28.6°C 73.9°F23.3°C 73% 4.0 mph S6.4 kmh S 4.9 mph7.9 kmh 29.97 in1014.9 mb 0.00 in0.0 mm 0.00 in0.0 mm 0.04 in1.0 mm
01:30 PM 83.5°F28.6°C 73.6°F23.1°C 72% 4.0 mph SSE6.4 kmh SSE 12.1 mph19.5 kmh 29.97 in1014.9 mb 0.00 in0.0 mm 0.00 in0.0 mm 0.04 in1.0 mm
01:31 PM 83.5°F28.6°C 73.6°F23.1°C 72% 4.0 mph S6.4 kmh S 6.9 mph11.1 kmh 29.97 in1014.9 mb 0.00 in0.0 mm 0.00 in0.0 mm 0.04 in1.0 mm
01:32 PM 83.3°F28.5°C 73.4°F23.0°C 72% 4.0 mph S6.4 kmh S 2.9 mph4.7 kmh 29.97 in1014.9 mb 0.00 in0.0 mm 0.00 in0.0 mm 0.04 in1.0 mm
01:33 PM 83.3°F28.5°C 73.8°F23.2°C 73% 4.0 mph S6.4 kmh S 4.0 mph6.4 kmh 29.97 in1014.9 mb 0.00 in0.0 mm 0.00 in0.0 mm 0.04 in1.0 mm
01:34 PM 83.3°F28.5°C 73.4°F23.0°C 72% 4.0 mph S6.4 kmh S 6.0 mph9.7 kmh 29.97 in1014.9 mb 0.00 in0.0 mm 0.00 in0.0 mm 0.04 in1.0 mm
01:35 PM 83.1°F28.4°C 73.2°F22.9°C 72% 2.9 mph S4.7 kmh S 2.9 mph4.7 kmh 29.97 in1014.9 mb 0.00 in0.0 mm 0.00 in0.0 mm 0.04 in1.0 mm
01:36 PM 83.1°F28.4°C 73.2°F22.9°C 72% 2.9 mph S4.7 kmh S 2.9 mph4.7 kmh 29.97 in1014.9 mb 0.00 in0.0 mm 0.00 in0.0 mm 0.04 in1.0 mm
01:37 PM 83.1°F28.4°C 73.2°F22.9°C 72% 2.9 mph S4.7 kmh S 4.9 mph7.9 kmh 29.97 in1014.9 mb 0.00 in0.0 mm 0.00 in0.0 mm 0.04 in1.0 mm
01:38 PM 82.9°F28.3°C 73.0°F22.8°C 72% 2.9 mph SSW4.7 kmh SSW 11.0 mph17.7 kmh 29.97 in1014.9 mb 0.00 in0.0 mm 0.00 in0.0 mm 0.04 in1.0 mm
01:39 PM 82.9°F28.3°C 72.5°F22.5°C 71% 4.0 mph S6.4 kmh S 8.1 mph13.0 kmh 29.97 in1014.9 mb 0.00 in0.0 mm 0.00 in0.0 mm 0.04 in1.0 mm
01:40 PM 82.8°F28.2°C 72.9°F22.7°C 72% 4.0 mph S6.4 kmh S 8.1 mph13.0 kmh 29.97 in1014.9 mb 0.00 in0.0 mm 0.00 in0.0 mm 0.04 in1.0 mm
01:41 PM 82.6°F28.1°C 72.1°F22.3°C 71% 4.0 mph S6.4 kmh S 8.9 mph14.3 kmh 29.97 in1014.9 mb 0.00 in0.0 mm 0.00 in0.0 mm 0.04 in1.0 mm
01:42 PM 82.6°F28.1°C 72.1°F22.3°C 71% 4.0 mph S6.4 kmh S 8.9 mph14.3 kmh 29.97 in1014.9 mb 0.00 in0.0 mm 0.00 in0.0 mm 0.04 in1.0 mm
01:43 PM 82.2°F27.9°C 72.7°F22.6°C 73% 4.9 mph S7.9 kmh S 11.0 mph17.7 kmh 29.97 in1014.9 mb 0.00 in0.0 mm 0.00 in0.0 mm 0.04 in1.0 mm
01:44 PM 82.2°F27.9°C 72.7°F22.6°C 73% 4.9 mph S7.9 kmh S 11.0 mph17.7 kmh 29.97 in1014.9 mb 0.00 in0.0 mm 0.00 in0.0 mm 0.04 in1.0 mm
01:45 PM 82.2°F27.9°C 73.0°F22.8°C 74% 4.9 mph S7.9 kmh S 8.1 mph13.0 kmh 29.97 in1014.9 mb 0.00 in0.0 mm 0.00 in0.0 mm 0.04 in1.0 mm
01:46 PM 82.0°F27.8°C 72.9°F22.7°C 74% 6.0 mph S9.7 kmh S 13.0 mph20.9 kmh 29.97 in1014.9 mb 0.00 in0.0 mm 0.00 in0.0 mm 0.04 in1.0 mm
01:47 PM 82.0°F27.8°C 72.5°F22.5°C 73% 6.0 mph S9.7 kmh S 6.9 mph11.1 kmh 29.97 in1014.9 mb 0.00 in0.0 mm 0.00 in0.0 mm 0.04 in1.0 mm
01:48 PM 82.0°F27.8°C 73.4°F23.0°C 75% 6.0 mph S9.7 kmh S 6.0 mph9.7 kmh 29.97 in1014.9 mb 0.00 in0.0 mm 0.00 in0.0 mm 0.04 in1.0 mm
01:50 PM 82.0°F27.8°C 73.4°F23.0°C 75% 6.0 mph S9.7 kmh S 6.0 mph9.7 kmh 29.97 in1014.9 mb 0.00 in0.0 mm 0.00 in0.0 mm 0.04 in1.0 mm
01:51 PM 82.0°F27.8°C 73.4°F23.0°C 75% 4.9 mph S7.9 kmh S 4.9 mph7.9 kmh 29.96 in1014.6 mb 0.00 in0.0 mm 0.00 in0.0 mm 0.04 in1.0 mm
01:52 PM 82.2°F27.9°C 74.3°F23.5°C 77% 4.9 mph S7.9 kmh S 4.9 mph7.9 kmh 29.96 in1014.6 mb 0.00 in0.0 mm 0.00 in0.0 mm 0.04 in1.0 mm
01:53 PM 82.4°F28.0°C 74.5°F23.6°C 77% 4.9 mph S7.9 kmh S 8.9 mph14.3 kmh 29.96 in1014.6 mb 0.00 in0.0 mm 0.00 in0.0 mm 0.04 in1.0 mm
01:54 PM 82.6°F28.1°C 74.3°F23.5°C 76% 4.9 mph SW7.9 kmh SW 10.1 mph16.3 kmh 29.96 in1014.6 mb 0.00 in0.0 mm 0.00 in0.0 mm 0.04 in1.0 mm
01:55 PM 82.8°F28.2°C 72.9°F22.7°C 72% 4.9 mph S7.9 kmh S 8.9 mph14.3 kmh 29.96 in1014.6 mb 0.00 in0.0 mm 0.00 in0.0 mm 0.04 in1.0 mm
01:56 PM 82.8°F28.2°C 72.9°F22.7°C 72% 4.9 mph S7.9 kmh S 8.9 mph14.3 kmh 29.96 in1014.6 mb 0.00 in0.0 mm 0.00 in0.0 mm 0.04 in1.0 mm
01:57 PM 82.8°F28.2°C 73.2°F22.9°C 73% 4.9 mph S7.9 kmh S 12.0 mph19.3 kmh 29.96 in1014.6 mb 0.00 in0.0 mm 0.00 in0.0 mm 0.04 in1.0 mm
01:58 PM 82.8°F28.2°C 73.2°F22.9°C 73% 4.9 mph S7.9 kmh S 12.1 mph19.5 kmh 29.96 in1014.6 mb 0.00 in0.0 mm 0.00 in0.0 mm 0.04 in1.0 mm
01:59 PM 82.9°F28.3°C 73.8°F23.2°C 74% 4.9 mph S7.9 kmh S 10.1 mph16.3 kmh 29.96 in1014.6 mb 0.00 in0.0 mm 0.00 in0.0 mm 0.04 in1.0 mm
02:00 PM 83.1°F28.4°C 73.9°F23.3°C 74% 4.9 mph SSW7.9 kmh SSW 16.1 mph25.9 kmh 29.96 in1014.6 mb 0.00 in0.0 mm 0.00 in0.0 mm 0.04 in1.0 mm
02:01 PM 83.1°F28.4°C 73.2°F22.9°C 72% 4.9 mph S7.9 kmh S 11.0 mph17.7 kmh 29.96 in1014.6 mb 0.00 in0.0 mm 0.00 in0.0 mm 0.04 in1.0 mm
02:02 PM 83.1°F28.4°C 73.6°F23.1°C 73% 6.0 mph SSW9.7 kmh SSW 10.1 mph16.3 kmh 29.96 in1014.6 mb 0.00 in0.0 mm 0.00 in0.0 mm 0.04 in1.0 mm
02:03 PM 83.1°F28.4°C 73.6°F23.1°C 73% 6.0 mph S9.7 kmh S 14.1 mph22.7 kmh 29.96 in1014.6 mb 0.00 in0.0 mm 0.00 in0.0 mm 0.04 in1.0 mm
02:04 PM 83.1°F28.4°C 73.2°F22.9°C 72% 6.0 mph S9.7 kmh S 11.0 mph17.7 kmh 29.96 in1014.6 mb 0.00 in0.0 mm 0.00 in0.0 mm 0.04 in1.0 mm
02:05 PM 82.9°F28.3°C 73.4°F23.0°C 73% 6.0 mph SW9.7 kmh SW 6.0 mph9.7 kmh 29.96 in1014.6 mb 0.00 in0.0 mm 0.00 in0.0 mm 0.04 in1.0 mm
02:06 PM 82.9°F28.3°C 73.4°F23.0°C 73% 6.0 mph S9.7 kmh S 8.1 mph13.0 kmh 29.96 in1014.6 mb 0.00 in0.0 mm 0.00 in0.0 mm 0.04 in1.0 mm
02:07 PM 82.8°F28.2°C 72.9°F22.7°C 72% 6.0 mph S9.7 kmh S 8.1 mph13.0 kmh 29.96 in1014.6 mb 0.00 in0.0 mm 0.00 in0.0 mm 0.04 in1.0 mm
02:08 PM 82.8°F28.2°C 73.2°F22.9°C 73% 6.0 mph S9.7 kmh S 4.0 mph6.4 kmh 29.96 in1014.6 mb 0.00 in0.0 mm 0.00 in0.0 mm 0.04 in1.0 mm
02:09 PM 82.8°F28.2°C 73.6°F23.1°C 74% 4.9 mph S7.9 kmh S 8.9 mph14.3 kmh 29.96 in1014.6 mb 0.00 in0.0 mm 0.00 in0.0 mm 0.04 in1.0 mm
02:10 PM 82.6°F28.1°C 73.4°F23.0°C 74% 4.9 mph S7.9 kmh S 12.1 mph19.5 kmh 29.96 in1014.6 mb 0.00 in0.0 mm 0.00 in0.0 mm 0.04 in1.0 mm
02:11 PM 82.6°F28.1°C 73.4°F23.0°C 74% 4.9 mph S7.9 kmh S 12.1 mph19.5 kmh 29.96 in1014.6 mb 0.00 in0.0 mm 0.00 in0.0 mm 0.04 in1.0 mm
02:12 PM 82.6°F28.1°C 73.8°F23.2°C 75% 4.9 mph S7.9 kmh S 4.9 mph7.9 kmh 29.96 in1014.6 mb 0.00 in0.0 mm 0.00 in0.0 mm 0.04 in1.0 mm
02:13 PM 82.8°F28.2°C 74.5°F23.6°C 76% 4.0 mph SSE6.4 kmh SSE 4.0 mph6.4 kmh 29.96 in1014.6 mb 0.00 in0.0 mm 0.00 in0.0 mm 0.04 in1.0 mm
02:14 PM 82.9°F28.3°C 75.0°F23.9°C 77% 4.0 mph S6.4 kmh S 4.0 mph6.4 kmh 29.96 in1014.6 mb 0.00 in0.0 mm 0.00 in0.0 mm 0.04 in1.0 mm
02:15 PM 83.1°F28.4°C 74.8°F23.8°C 76% 4.0 mph SW6.4 kmh SW 8.9 mph14.3 kmh 29.96 in1014.6 mb 0.00 in0.0 mm 0.00 in0.0 mm 0.04 in1.0 mm
02:16 PM 83.3°F28.5°C 73.8°F23.2°C 73% 4.0 mph S6.4 kmh S 8.9 mph14.3 kmh 29.96 in1014.6 mb 0.00 in0.0 mm 0.00 in0.0 mm 0.04 in1.0 mm
02:17 PM 83.5°F28.6°C 73.9°F23.3°C 73% 4.0 mph SSE6.4 kmh SSE 12.1 mph19.5 kmh 29.96 in1014.6 mb 0.00 in0.0 mm 0.00 in0.0 mm 0.04 in1.0 mm
02:18 PM 83.5°F28.6°C 73.9°F23.3°C 73% 4.0 mph SSE6.4 kmh SSE 11.0 mph17.7 kmh 29.96 in1014.6 mb 0.00 in0.0 mm 0.00 in0.0 mm 0.04 in1.0 mm
02:19 PM 83.5°F28.6°C 73.9°F23.3°C 73% 4.0 mph S6.4 kmh S 11.0 mph17.7 kmh 29.96 in1014.6 mb 0.00 in0.0 mm 0.00 in0.0 mm 0.04 in1.0 mm
02:21 PM 83.5°F28.6°C 73.9°F23.3°C 73% 4.0 mph SSW6.4 kmh SSW 8.9 mph14.3 kmh 29.96 in1014.6 mb 0.00 in0.0 mm 0.00 in0.0 mm 0.04 in1.0 mm
02:22 PM 83.5°F28.6°C 73.9°F23.3°C 73% 4.0 mph S6.4 kmh S 4.0 mph6.4 kmh 29.96 in1014.6 mb 0.00 in0.0 mm 0.00 in0.0 mm 0.04 in1.0 mm
02:23 PM 83.7°F28.7°C 74.5°F23.6°C 74% 4.0 mph S6.4 kmh S 8.9 mph14.3 kmh 29.96 in1014.6 mb 0.00 in0.0 mm 0.00 in0.0 mm 0.04 in1.0 mm
02:24 PM 83.5°F28.6°C 73.6°F23.1°C 72% 4.9 mph S7.9 kmh S 6.9 mph11.1 kmh 29.96 in1014.6 mb 0.00 in0.0 mm 0.00 in0.0 mm 0.04 in1.0 mm
02:25 PM 83.5°F28.6°C 73.6°F23.1°C 72% 4.9 mph S7.9 kmh S 10.1 mph16.3 kmh 29.96 in1014.6 mb 0.00 in0.0 mm 0.00 in0.0 mm 0.04 in1.0 mm
02:26 PM 83.3°F28.5°C 73.4°F23.0°C 72% 4.9 mph S7.9 kmh S 11.0 mph17.7 kmh 29.96 in1014.6 mb 0.00 in0.0 mm 0.00 in0.0 mm 0.04 in1.0 mm
02:27 PM 83.1°F28.4°C 73.6°F23.1°C 73% 4.9 mph S7.9 kmh S 8.9 mph14.3 kmh 29.96 in1014.6 mb 0.00 in0.0 mm 0.00 in0.0 mm 0.04 in1.0 mm
02:28 PM 83.1°F28.4°C 73.2°F22.9°C 72% 4.9 mph SE7.9 kmh SE 12.0 mph19.3 kmh 29.96 in1014.6 mb 0.00 in0.0 mm 0.00 in0.0 mm 0.04 in1.0 mm
02:29 PM 82.9°F28.3°C 73.4°F23.0°C 73% 4.9 mph S7.9 kmh S 8.9 mph14.3 kmh 29.96 in1014.6 mb 0.00 in0.0 mm 0.00 in0.0 mm 0.04 in1.0 mm
02:30 PM 82.9°F28.3°C 73.4°F23.0°C 73% 4.9 mph S7.9 kmh S 8.1 mph13.0 kmh 29.96 in1014.6 mb 0.00 in0.0 mm 0.00 in0.0 mm 0.04 in1.0 mm
02:31 PM 82.8°F28.2°C 73.6°F23.1°C 74% 4.0 mph SSE6.4 kmh SSE 4.9 mph7.9 kmh 29.96 in1014.6 mb 0.00 in0.0 mm 0.00 in0.0 mm 0.04 in1.0 mm
02:32 PM 82.8°F28.2°C 73.2°F22.9°C 73% 4.0 mph S6.4 kmh S 8.1 mph13.0 kmh 29.96 in1014.6 mb 0.00 in0.0 mm 0.00 in0.0 mm 0.04 in1.0 mm
02:33 PM 82.8°F28.2°C 73.6°F23.1°C 74% 4.0 mph S6.4 kmh S 10.1 mph16.3 kmh 29.96 in1014.6 mb 0.00 in0.0 mm 0.00 in0.0 mm 0.04 in1.0 mm
02:34 PM 82.6°F28.1°C 73.4°F23.0°C 74% 4.0 mph S6.4 kmh S 8.1 mph13.0 kmh 29.96 in1014.6 mb 0.00 in0.0 mm 0.00 in0.0 mm 0.04 in1.0 mm
02:35 PM 82.4°F28.0°C 73.2°F22.9°C 74% 4.0 mph S6.4 kmh S 6.9 mph11.1 kmh 29.96 in1014.6 mb 0.00 in0.0 mm 0.00 in0.0 mm 0.04 in1.0 mm
02:36 PM 82.2°F27.9°C 73.6°F23.1°C 75% 4.0 mph SSE6.4 kmh SSE 6.0 mph9.7 kmh 29.96 in1014.6 mb 0.00 in0.0 mm 0.00 in0.0 mm 0.04 in1.0 mm
02:37 PM 82.2°F27.9°C 73.0°F22.8°C 74% 4.0 mph SSE6.4 kmh SSE 6.0 mph9.7 kmh 29.96 in1014.6 mb 0.00 in0.0 mm 0.00 in0.0 mm 0.04 in1.0 mm
02:38 PM 82.0°F27.8°C 73.4°F23.0°C 75% 4.0 mph SSE6.4 kmh SSE 8.9 mph14.3 kmh 29.96 in1014.6 mb 0.00 in0.0 mm 0.00 in0.0 mm 0.04 in1.0 mm
02:39 PM 82.0°F27.8°C 72.9°F22.7°C 74% 4.0 mph S6.4 kmh S 8.9 mph14.3 kmh 29.96 in1014.6 mb 0.00 in0.0 mm 0.00 in0.0 mm 0.04 in1.0 mm
02:40 PM 81.9°F27.7°C 72.7°F22.6°C 74% 4.0 mph SSE6.4 kmh SSE 8.1 mph13.0 kmh 29.95 in1014.2 mb 0.00 in0.0 mm 0.00 in0.0 mm 0.04 in1.0 mm
02:41 PM 81.9°F27.7°C 73.2°F22.9°C 75% 4.0 mph SSW6.4 kmh SSW 10.1 mph16.3 kmh 29.95 in1014.2 mb 0.00 in0.0 mm 0.00 in0.0 mm 0.04 in1.0 mm
02:42 PM 81.7°F27.6°C 73.0°F22.8°C 75% 4.9 mph SSE7.9 kmh SSE 8.9 mph14.3 kmh 29.95 in1014.2 mb 0.00 in0.0 mm 0.00 in0.0 mm 0.04 in1.0 mm
02:43 PM 81.7°F27.6°C 73.0°F22.8°C 75% 4.9 mph SSE7.9 kmh SSE 8.1 mph13.0 kmh 29.95 in1014.2 mb 0.00 in0.0 mm 0.00 in0.0 mm 0.04 in1.0 mm
02:44 PM 81.5°F27.5°C 73.2°F22.9°C 76% 4.0 mph SSE6.4 kmh SSE 6.0 mph9.7 kmh 29.95 in1014.2 mb 0.00 in0.0 mm 0.00 in0.0 mm 0.04 in1.0 mm
02:45 PM 81.3°F27.4°C 73.0°F22.8°C 76% 4.0 mph S6.4 kmh S 6.0 mph9.7 kmh 29.95 in1014.2 mb 0.00 in0.0 mm 0.00 in0.0 mm 0.04 in1.0 mm
02:46 PM 81.3°F27.4°C 73.0°F22.8°C 76% 4.0 mph SE6.4 kmh SE 8.1 mph13.0 kmh 29.95 in1014.2 mb 0.00 in0.0 mm 0.00 in0.0 mm 0.04 in1.0 mm
02:47 PM 81.3°F27.4°C 72.7°F22.6°C 75% 4.9 mph SE7.9 kmh SE 11.0 mph17.7 kmh 29.95 in1014.2 mb 0.00 in0.0 mm 0.00 in0.0 mm 0.04 in1.0 mm
02:48 PM 81.1°F27.3°C 72.9°F22.7°C 76% 4.0 mph SSE6.4 kmh SSE 4.9 mph7.9 kmh 29.95 in1014.2 mb 0.00 in0.0 mm 0.00 in0.0 mm 0.04 in1.0 mm
02:49 PM 81.1°F27.3°C 73.2°F22.9°C 77% 4.0 mph S6.4 kmh S 10.1 mph16.3 kmh 29.95 in1014.2 mb 0.00 in0.0 mm 0.00 in0.0 mm 0.04 in1.0 mm
02:50 PM 81.1°F27.3°C 73.2°F22.9°C 77% 4.0 mph S6.4 kmh S 10.1 mph16.3 kmh 29.95 in1014.2 mb 0.00 in0.0 mm 0.00 in0.0 mm 0.04 in1.0 mm
02:51 PM 81.3°F27.4°C 73.4°F23.0°C 77% 4.0 mph SSW6.4 kmh SSW 6.9 mph11.1 kmh 29.95 in1014.2 mb 0.00 in0.0 mm 0.00 in0.0 mm 0.04 in1.0 mm
02:52 PM 81.3°F27.4°C 74.1°F23.4°C 79% 4.0 mph SSE6.4 kmh SSE 13.0 mph20.9 kmh 29.95 in1014.2 mb 0.00 in0.0 mm 0.00 in0.0 mm 0.04 in1.0 mm
02:53 PM 81.5°F27.5°C 73.6°F23.1°C 77% 4.9 mph WSW7.9 kmh WSW 13.0 mph20.9 kmh 29.95 in1014.2 mb 0.00 in0.0 mm 0.00 in0.0 mm 0.04 in1.0 mm
02:54 PM 81.9°F27.7°C 73.6°F23.1°C 76% 4.9 mph S7.9 kmh S 8.9 mph14.3 kmh 29.95 in1014.2 mb 0.00 in0.0 mm 0.00 in0.0 mm 0.04 in1.0 mm
02:55 PM 82.0°F27.8°C 73.8°F23.2°C 76% 4.9 mph SSE7.9 kmh SSE 10.1 mph16.3 kmh 29.95 in1014.2 mb 0.00 in0.0 mm 0.00 in0.0 mm 0.04 in1.0 mm
02:56 PM 82.2°F27.9°C 74.3°F23.5°C 77% 4.9 mph S7.9 kmh S 11.0 mph17.7 kmh 29.95 in1014.2 mb 0.00 in0.0 mm 0.00 in0.0 mm 0.04 in1.0 mm
02:57 PM 82.6°F28.1°C 73.4°F23.0°C 74% 4.9 mph S7.9 kmh S 11.0 mph17.7 kmh 29.95 in1014.2 mb 0.00 in0.0 mm 0.00 in0.0 mm 0.04 in1.0 mm
02:58 PM 82.8°F28.2°C 73.6°F23.1°C 74% 6.0 mph S9.7 kmh S 14.0 mph22.5 kmh 29.95 in1014.2 mb 0.00 in0.0 mm 0.00 in0.0 mm 0.04 in1.0 mm
02:59 PM 82.9°F28.3°C 74.1°F23.4°C 75% 6.0 mph SSE9.7 kmh SSE 8.9 mph14.3 kmh 29.95 in1014.2 mb 0.00 in0.0 mm 0.00 in0.0 mm 0.04 in1.0 mm
03:00 PM 83.1°F28.4°C 73.9°F23.3°C 74% 6.0 mph SW9.7 kmh SW 13.0 mph20.9 kmh 29.95 in1014.2 mb 0.00 in0.0 mm 0.00 in0.0 mm 0.04 in1.0 mm
03:01 PM 83.3°F28.5°C 73.8°F23.2°C 73% 6.0 mph S9.7 kmh S 6.0 mph9.7 kmh 29.95 in1014.2 mb 0.00 in0.0 mm 0.00 in0.0 mm 0.04 in1.0 mm
03:02 PM 83.5°F28.6°C 74.3°F23.5°C 74% 6.0 mph SSE9.7 kmh SSE 11.0 mph17.7 kmh 29.95 in1014.2 mb 0.00 in0.0 mm 0.00 in0.0 mm 0.04 in1.0 mm
03:03 PM 83.7°F28.7°C 74.1°F23.4°C 73% 6.0 mph S9.7 kmh S 11.0 mph17.7 kmh 29.95 in1014.2 mb 0.00 in0.0 mm 0.00 in0.0 mm 0.04 in1.0 mm
03:04 PM 83.8°F28.8°C 74.3°F23.5°C 73% 6.0 mph S9.7 kmh S 4.9 mph7.9 kmh 29.95 in1014.2 mb 0.00 in0.0 mm 0.00 in0.0 mm 0.04 in1.0 mm
03:05 PM 84.0°F28.9°C 75.2°F24.0°C 75% 4.9 mph S7.9 kmh S 6.0 mph9.7 kmh 29.95 in1014.2 mb 0.00 in0.0 mm 0.00 in0.0 mm 0.04 in1.0 mm
03:06 PM 84.4°F29.1°C 75.2°F24.0°C 74% 4.9 mph S7.9 kmh S 13.0 mph20.9 kmh 29.95 in1014.2 mb 0.00 in0.0 mm 0.00 in0.0 mm 0.04 in1.0 mm
03:07 PM 84.6°F29.2°C 74.5°F23.6°C 72% 6.0 mph S9.7 kmh S 12.1 mph19.5 kmh 29.95 in1014.2 mb 0.00 in0.0 mm 0.00 in0.0 mm 0.04 in1.0 mm
03:08 PM 84.6°F29.2°C 74.1°F23.4°C 71% 4.9 mph SSW7.9 kmh SSW 10.1 mph16.3 kmh 29.95 in1014.2 mb 0.00 in0.0 mm 0.00 in0.0 mm 0.04 in1.0 mm
03:09 PM 84.6°F29.2°C 74.5°F23.6°C 72% 4.9 mph S7.9 kmh S 8.9 mph14.3 kmh 29.95 in1014.2 mb 0.00 in0.0 mm 0.00 in0.0 mm 0.04 in1.0 mm
03:10 PM 84.7°F29.3°C 74.7°F23.7°C 72% 4.9 mph SE7.9 kmh SE 6.0 mph9.7 kmh 29.95 in1014.2 mb 0.00 in0.0 mm 0.00 in0.0 mm 0.04 in1.0 mm
03:11 PM 84.9°F29.4°C 74.5°F23.6°C 71% 4.9 mph S7.9 kmh S 10.1 mph16.3 kmh 29.95 in1014.2 mb 0.00 in0.0 mm 0.00 in0.0 mm 0.04 in1.0 mm
03:12 PM 84.9°F29.4°C 74.5°F23.6°C 71% 4.9 mph SSE7.9 kmh SSE 11.0 mph17.7 kmh 29.95 in1014.2 mb 0.00 in0.0 mm 0.00 in0.0 mm 0.04 in1.0 mm
03:13 PM 85.3°F29.6°C 74.8°F23.8°C 71% 6.0 mph S9.7 kmh S 12.1 mph19.5 kmh 29.95 in1014.2 mb 0.00 in0.0 mm 0.00 in0.0 mm 0.04 in1.0 mm
03:14 PM 85.3°F29.6°C 74.8°F23.8°C 71% 6.0 mph S9.7 kmh S 11.0 mph17.7 kmh 29.95 in1014.2 mb 0.00 in0.0 mm 0.00 in0.0 mm 0.04 in1.0 mm
03:15 PM 85.5°F29.7°C 75.0°F23.9°C 71% 6.0 mph S9.7 kmh S 8.1 mph13.0 kmh 29.95 in1014.2 mb 0.00 in0.0 mm 0.00 in0.0 mm 0.04 in1.0 mm
03:16 PM 85.5°F29.7°C 75.0°F23.9°C 71% 6.0 mph S9.7 kmh S 11.0 mph17.7 kmh 29.95 in1014.2 mb 0.00 in0.0 mm 0.00 in0.0 mm 0.04 in1.0 mm
03:17 PM 85.6°F29.8°C 75.2°F24.0°C 71% 6.0 mph S9.7 kmh S 8.1 mph13.0 kmh 29.95 in1014.2 mb 0.00 in0.0 mm 0.00 in0.0 mm 0.04 in1.0 mm
03:18 PM 85.6°F29.8°C 74.7°F23.7°C 70% 6.0 mph S9.7 kmh S 12.1 mph19.5 kmh 29.95 in1014.2 mb 0.00 in0.0 mm 0.00 in0.0 mm 0.04 in1.0 mm
03:19 PM 85.6°F29.8°C 74.7°F23.7°C 70% 6.0 mph S9.7 kmh S 12.1 mph19.5 kmh 29.95 in1014.2 mb 0.00 in0.0 mm 0.00 in0.0 mm 0.04 in1.0 mm
03:20 PM 85.6°F29.8°C 74.7°F23.7°C 70% 6.0 mph S9.7 kmh S 8.1 mph13.0 kmh 29.95 in1014.2 mb 0.00 in0.0 mm 0.00 in0.0 mm 0.04 in1.0 mm
03:21 PM 85.6°F29.8°C 74.3°F23.5°C 69% 6.0 mph S9.7 kmh S 8.9 mph14.3 kmh 29.95 in1014.2 mb 0.00 in0.0 mm 0.00 in0.0 mm 0.04 in1.0 mm
03:22 PM 85.6°F29.8°C 74.7°F23.7°C 70% 6.0 mph S9.7 kmh S 6.0 mph9.7 kmh 29.95 in1014.2 mb 0.00 in0.0 mm 0.00 in0.0 mm 0.04 in1.0 mm
03:24 PM 85.8°F29.9°C 75.4°F24.1°C 71% 6.0 mph S9.7 kmh S 6.0 mph9.7 kmh 29.95 in1014.2 mb 0.00 in0.0 mm 0.00 in0.0 mm 0.04 in1.0 mm
03:25 PM 85.8°F29.9°C 75.4°F24.1°C 71% 4.9 mph SE7.9 kmh SE 6.9 mph11.1 kmh 29.95 in1014.2 mb 0.00 in0.0 mm 0.00 in0.0 mm 0.04 in1.0 mm
03:26 PM 85.8°F29.9°C 75.7°F24.3°C 72% 4.9 mph S7.9 kmh S 6.9 mph11.1 kmh 29.95 in1014.2 mb 0.00 in0.0 mm 0.00 in0.0 mm 0.04 in1.0 mm
03:27 PM 85.8°F29.9°C 75.4°F24.1°C 71% 4.9 mph S7.9 kmh S 8.9 mph14.3 kmh 29.95 in1014.2 mb 0.00 in0.0 mm 0.00 in0.0 mm 0.04 in1.0 mm
03:28 PM 86.0°F30.0°C 75.0°F23.9°C 70% 4.9 mph S7.9 kmh S 8.9 mph14.3 kmh 29.95 in1014.2 mb 0.00 in0.0 mm 0.00 in0.0 mm 0.04 in1.0 mm
03:29 PM 86.2°F30.1°C 75.2°F24.0°C 70% 4.9 mph S7.9 kmh S 10.0 mph16.1 kmh 29.95 in1014.2 mb 0.00 in0.0 mm 0.00 in0.0 mm 0.04 in1.0 mm
03:30 PM 86.2°F30.1°C 75.2°F24.0°C 70% 4.9 mph S7.9 kmh S 10.0 mph16.1 kmh 29.95 in1014.2 mb 0.00 in0.0 mm 0.00 in0.0 mm 0.04 in1.0 mm
03:31 PM 86.4°F30.2°C 75.9°F24.4°C 71% 4.9 mph S7.9 kmh S 13.0 mph20.9 kmh 29.94 in1013.9 mb 0.00 in0.0 mm 0.00 in0.0 mm 0.04 in1.0 mm
03:32 PM 86.4°F30.2°C 75.0°F23.9°C 69% 4.0 mph S6.4 kmh S 17.0 mph27.4 kmh 29.95 in1014.2 mb 0.00 in0.0 mm 0.00 in0.0 mm 0.04 in1.0 mm
03:33 PM 86.2°F30.1°C 74.3°F23.5°C 68% 4.9 mph S7.9 kmh S 11.0 mph17.7 kmh 29.95 in1014.2 mb 0.00 in0.0 mm 0.00 in0.0 mm 0.04 in1.0 mm
03:34 PM 86.2°F30.1°C 74.8°F23.8°C 69% 4.9 mph S7.9 kmh S 12.1 mph19.5 kmh 29.95 in1014.2 mb 0.00 in0.0 mm 0.00 in0.0 mm 0.04 in1.0 mm
03:35 PM 86.2°F30.1°C 75.2°F24.0°C 70% 4.9 mph SSE7.9 kmh SSE 12.1 mph19.5 kmh 29.95 in1014.2 mb 0.00 in0.0 mm 0.00 in0.0 mm 0.04 in1.0 mm
03:36 PM 86.0°F30.0°C 75.0°F23.9°C 70% 6.0 mph SE9.7 kmh SE 8.1 mph13.0 kmh 29.95 in1014.2 mb 0.00 in0.0 mm 0.00 in0.0 mm 0.04 in1.0 mm
03:37 PM 85.8°F29.9°C 74.5°F23.6°C 69% 6.0 mph S9.7 kmh S 8.1 mph13.0 kmh 29.95 in1014.2 mb 0.00 in0.0 mm 0.00 in0.0 mm 0.04 in1.0 mm
03:38 PM 85.8°F29.9°C 74.8°F23.8°C 70% 4.9 mph S7.9 kmh S 6.0 mph9.7 kmh 29.95 in1014.2 mb 0.00 in0.0 mm 0.00 in0.0 mm 0.04 in1.0 mm
03:39 PM 85.8°F29.9°C 75.4°F24.1°C 71% 4.9 mph S7.9 kmh S 10.1 mph16.3 kmh 29.95 in1014.2 mb 0.00 in0.0 mm 0.00 in0.0 mm 0.04 in1.0 mm
03:40 PM 85.8°F29.9°C 74.5°F23.6°C 69% 4.9 mph S7.9 kmh S 10.1 mph16.3 kmh 29.94 in1013.9 mb 0.00 in0.0 mm 0.00 in0.0 mm 0.04 in1.0 mm
03:41 PM 85.8°F29.9°C 74.8°F23.8°C 70% 6.0 mph S9.7 kmh S 8.1 mph13.0 kmh 29.94 in1013.9 mb 0.00 in0.0 mm 0.00 in0.0 mm 0.04 in1.0 mm
03:42 PM 85.6°F29.8°C 75.2°F24.0°C 71% 4.9 mph S7.9 kmh S 17.0 mph27.4 kmh 29.94 in1013.9 mb 0.00 in0.0 mm 0.00 in0.0 mm 0.04 in1.0 mm
03:43 PM 85.8°F29.9°C 75.4°F24.1°C 71% 4.9 mph S7.9 kmh S 8.9 mph14.3 kmh 29.94 in1013.9 mb 0.00 in0.0 mm 0.00 in0.0 mm 0.04 in1.0 mm
03:44 PM 85.6°F29.8°C 75.2°F24.0°C 71% 4.9 mph S7.9 kmh S 6.9 mph11.1 kmh 29.94 in1013.9 mb 0.00 in0.0 mm 0.00 in0.0 mm 0.04 in1.0 mm
03:45 PM 85.6°F29.8°C 75.2°F24.0°C 71% 4.9 mph SSE7.9 kmh SSE 12.1 mph19.5 kmh 29.94 in1013.9 mb 0.00 in0.0 mm 0.00 in0.0 mm 0.04 in1.0 mm
03:46 PM 85.6°F29.8°C 75.2°F24.0°C 71% 4.9 mph SSE7.9 kmh SSE 6.0 mph9.7 kmh 29.94 in1013.9 mb 0.00 in0.0 mm 0.00 in0.0 mm 0.04 in1.0 mm
03:47 PM 85.8°F29.9°C 74.8°F23.8°C 70% 4.9 mph S7.9 kmh S 8.1 mph13.0 kmh 29.94 in1013.9 mb 0.00 in0.0 mm 0.00 in0.0 mm 0.04 in1.0 mm
03:48 PM 85.6°F29.8°C 74.7°F23.7°C 70% 4.9 mph S7.9 kmh S 11.0 mph17.7 kmh 29.94 in1013.9 mb 0.00 in0.0 mm 0.00 in0.0 mm 0.04 in1.0 mm
03:49 PM 85.6°F29.8°C 75.2°F24.0°C 71% 4.9 mph S7.9 kmh S 8.1 mph13.0 kmh 29.94 in1013.9 mb 0.00 in0.0 mm 0.00 in0.0 mm 0.04 in1.0 mm
03:50 PM 85.6°F29.8°C 75.2°F24.0°C 71% 4.9 mph S7.9 kmh S 10.1 mph16.3 kmh 29.94 in1013.9 mb 0.00 in0.0 mm 0.00 in0.0 mm 0.04 in1.0 mm
03:51 PM 85.5°F29.7°C 75.0°F23.9°C 71% 4.9 mph S7.9 kmh S 11.0 mph17.7 kmh 29.94 in1013.9 mb 0.00 in0.0 mm 0.00 in0.0 mm 0.04 in1.0 mm
03:52 PM 85.5°F29.7°C 75.0°F23.9°C 71% 4.9 mph SE7.9 kmh SE 11.0 mph17.7 kmh 29.94 in1013.9 mb 0.00 in0.0 mm 0.00 in0.0 mm 0.04 in1.0 mm
03:53 PM 85.3°F29.6°C 74.8°F23.8°C 71% 4.9 mph SSE7.9 kmh SSE 8.9 mph14.3 kmh 29.94 in1013.9 mb 0.00 in0.0 mm 0.00 in0.0 mm 0.04 in1.0 mm
03:54 PM 84.9°F29.4°C 74.5°F23.6°C 71% 4.9 mph S7.9 kmh S 8.9 mph14.3 kmh 29.94 in1013.9 mb 0.00 in0.0 mm 0.00 in0.0 mm 0.04 in1.0 mm
03:55 PM 84.9°F29.4°C 74.8°F23.8°C 72% 4.9 mph S7.9 kmh S 4.9 mph7.9 kmh 29.94 in1013.9 mb 0.00 in0.0 mm 0.00 in0.0 mm 0.04 in1.0 mm
03:56 PM 84.7°F29.3°C 74.7°F23.7°C 72% 4.9 mph S7.9 kmh S 12.1 mph19.5 kmh 29.93 in1013.5 mb 0.00 in0.0 mm 0.00 in0.0 mm 0.04 in1.0 mm
03:57 PM 84.6°F29.2°C 74.5°F23.6°C 72% 4.9 mph S7.9 kmh S 16.1 mph25.9 kmh 29.94 in1013.9 mb 0.00 in0.0 mm 0.00 in0.0 mm 0.04 in1.0 mm
03:58 PM 84.4°F29.1°C 74.8°F23.8°C 73% 4.9 mph SSE7.9 kmh SSE 8.9 mph14.3 kmh 29.94 in1013.9 mb 0.00 in0.0 mm 0.00 in0.0 mm 0.04 in1.0 mm
03:59 PM 84.0°F28.9°C 74.5°F23.6°C 73% 4.9 mph S7.9 kmh S 6.0 mph9.7 kmh 29.94 in1013.9 mb 0.00 in0.0 mm 0.00 in0.0 mm 0.04 in1.0 mm
04:00 PM 83.8°F28.8°C 74.7°F23.7°C 74% 4.9 mph SE7.9 kmh SE 6.0 mph9.7 kmh 29.94 in1013.9 mb 0.00 in0.0 mm 0.00 in0.0 mm 0.04 in1.0 mm
04:01 PM 83.8°F28.8°C 74.3°F23.5°C 73% 4.9 mph S7.9 kmh S 11.0 mph17.7 kmh 29.93 in1013.5 mb 0.00 in0.0 mm 0.00 in0.0 mm 0.04 in1.0 mm
04:02 PM 83.7°F28.7°C 74.5°F23.6°C 74% 4.9 mph SSE7.9 kmh SSE 13.0 mph20.9 kmh 29.93 in1013.5 mb 0.00 in0.0 mm 0.00 in0.0 mm 0.04 in1.0 mm
04:03 PM 83.5°F28.6°C 74.3°F23.5°C 74% 4.9 mph S7.9 kmh S 12.1 mph19.5 kmh 29.93 in1013.5 mb 0.00 in0.0 mm 0.00 in0.0 mm 0.04 in1.0 mm
04:04 PM 83.5°F28.6°C 74.7°F23.7°C 75% 4.9 mph SSE7.9 kmh SSE 6.9 mph11.1 kmh 29.93 in1013.5 mb 0.00 in0.0 mm 0.00 in0.0 mm 0.04 in1.0 mm
04:05 PM 83.5°F28.6°C 75.0°F23.9°C 76% 4.9 mph SSE7.9 kmh SSE 8.1 mph13.0 kmh 29.93 in1013.5 mb 0.00 in0.0 mm 0.00 in0.0 mm 0.04 in1.0 mm
04:06 PM 83.5°F28.6°C 75.0°F23.9°C 76% 4.9 mph ESE7.9 kmh ESE 4.9 mph7.9 kmh 29.93 in1013.5 mb 0.00 in0.0 mm 0.00 in0.0 mm 0.04 in1.0 mm
04:07 PM 83.3°F28.5°C 74.5°F23.6°C 75% 4.0 mph S6.4 kmh S 14.0 mph22.5 kmh 29.94 in1013.9 mb 0.00 in0.0 mm 0.00 in0.0 mm 0.04 in1.0 mm
04:08 PM 83.1°F28.4°C 73.9°F23.3°C 74% 4.0 mph ESE6.4 kmh ESE 14.0 mph22.5 kmh 29.93 in1013.5 mb 0.00 in0.0 mm 0.00 in0.0 mm 0.04 in1.0 mm
04:09 PM 82.9°F28.3°C 74.1°F23.4°C 75% 4.0 mph S6.4 kmh S 6.9 mph11.1 kmh 29.94 in1013.9 mb 0.00 in0.0 mm 0.00 in0.0 mm 0.04 in1.0 mm
04:10 PM 82.9°F28.3°C 74.1°F23.4°C 75% 4.0 mph S6.4 kmh S 6.0 mph9.7 kmh 29.93 in1013.5 mb 0.00 in0.0 mm 0.00 in0.0 mm 0.04 in1.0 mm
04:11 PM 82.9°F28.3°C 74.1°F23.4°C 75% 4.0 mph S6.4 kmh S 10.1 mph16.3 kmh 29.93 in1013.5 mb 0.00 in0.0 mm 0.00 in0.0 mm 0.04 in1.0 mm
04:12 PM 82.8°F28.2°C 73.9°F23.3°C 75% 4.0 mph S6.4 kmh S 10.1 mph16.3 kmh 29.94 in1013.9 mb 0.00 in0.0 mm 0.00 in0.0 mm 0.04 in1.0 mm
04:13 PM 82.6°F28.1°C 73.8°F23.2°C 75% 4.0 mph S6.4 kmh S 8.9 mph14.3 kmh 29.93 in1013.5 mb 0.00 in0.0 mm 0.00 in0.0 mm 0.04 in1.0 mm
04:14 PM 82.6°F28.1°C 73.8°F23.2°C 75% 4.0 mph S6.4 kmh S 4.9 mph7.9 kmh 29.93 in1013.5 mb 0.00 in0.0 mm 0.00 in0.0 mm 0.04 in1.0 mm
04:15 PM 82.4°F28.0°C 74.1°F23.4°C 76% 4.0 mph S6.4 kmh S 6.9 mph11.1 kmh 29.94 in1013.9 mb 0.00 in0.0 mm 0.00 in0.0 mm 0.04 in1.0 mm
04:16 PM 82.2°F27.9°C 73.6°F23.1°C 75% 4.0 mph SE6.4 kmh SE 8.9 mph14.3 kmh 29.93 in1013.5 mb 0.00 in0.0 mm 0.00 in0.0 mm 0.04 in1.0 mm
04:17 PM 82.2°F27.9°C 73.6°F23.1°C 75% 4.0 mph SE6.4 kmh SE 8.9 mph14.3 kmh 29.93 in1013.5 mb 0.00 in0.0 mm 0.00 in0.0 mm 0.04 in1.0 mm
04:18 PM 82.2°F27.9°C 73.9°F23.3°C 76% 4.0 mph SE6.4 kmh SE 8.1 mph13.0 kmh 29.93 in1013.5 mb 0.00 in0.0 mm 0.00 in0.0 mm 0.04 in1.0 mm
04:19 PM 82.0°F27.8°C 73.8°F23.2°C 76% 4.0 mph S6.4 kmh S 8.1 mph13.0 kmh 29.93 in1013.5 mb 0.00 in0.0 mm 0.00 in0.0 mm 0.04 in1.0 mm
04:20 PM 82.0°F27.8°C 73.8°F23.2°C 76% 4.0 mph S6.4 kmh S 12.1 mph19.5 kmh 29.93 in1013.5 mb 0.00 in0.0 mm 0.00 in0.0 mm 0.04 in1.0 mm
04:21 PM 82.0°F27.8°C 73.4°F23.0°C 75% 4.9 mph S7.9 kmh S 12.1 mph19.5 kmh 29.93 in1013.5 mb 0.00 in0.0 mm 0.00 in0.0 mm 0.04 in1.0 mm
04:22 PM 82.0°F27.8°C 73.8°F23.2°C 76% 4.9 mph SSE7.9 kmh SSE 8.1 mph13.0 kmh 29.93 in1013.5 mb 0.00 in0.0 mm 0.00 in0.0 mm 0.04 in1.0 mm
04:23 PM 81.9°F27.7°C 73.6°F23.1°C 76% 4.9 mph SSE7.9 kmh SSE 8.9 mph14.3 kmh 29.94 in1013.9 mb 0.00 in0.0 mm 0.00 in0.0 mm 0.04 in1.0 mm
04:24 PM 81.9°F27.7°C 73.6°F23.1°C 76% 4.9 mph SSE7.9 kmh SSE 8.1 mph13.0 kmh 29.94 in1013.9 mb 0.00 in0.0 mm 0.00 in0.0 mm 0.04 in1.0 mm
04:25 PM 81.9°F27.7°C 73.6°F23.1°C 76% 4.9 mph S7.9 kmh S 8.1 mph13.0 kmh 29.94 in1013.9 mb 0.00 in0.0 mm 0.00 in0.0 mm 0.04 in1.0 mm
04:26 PM 81.7°F27.6°C 73.4°F23.0°C 76% 4.9 mph SE7.9 kmh SE 8.9 mph14.3 kmh 29.94 in1013.9 mb 0.00 in0.0 mm 0.00 in0.0 mm 0.04 in1.0 mm
04:27 PM 81.7°F27.6°C 73.8°F23.2°C 77% 4.0 mph S6.4 kmh S 8.9 mph14.3 kmh 29.94 in1013.9 mb 0.00 in0.0 mm 0.00 in0.0 mm 0.04 in1.0 mm
04:28 PM 81.7°F27.6°C 73.8°F23.2°C 77% 4.0 mph S6.4 kmh S 4.0 mph6.4 kmh 29.94 in1013.9 mb 0.00 in0.0 mm 0.00 in0.0 mm 0.04 in1.0 mm
04:29 PM 81.7°F27.6°C 73.8°F23.2°C 77% 4.0 mph S6.4 kmh S 8.9 mph14.3 kmh 29.94 in1013.9 mb 0.00 in0.0 mm 0.00 in0.0 mm 0.04 in1.0 mm
04:30 PM 81.7°F27.6°C 73.8°F23.2°C 77% 4.0 mph SSE6.4 kmh SSE 12.0 mph19.3 kmh 29.94 in1013.9 mb 0.00 in0.0 mm 0.00 in0.0 mm 0.04 in1.0 mm
04:31 PM 81.9°F27.7°C 74.3°F23.5°C 78% 4.0 mph ESE6.4 kmh ESE 12.0 mph19.3 kmh 29.94 in1013.9 mb 0.00 in0.0 mm 0.00 in0.0 mm 0.04 in1.0 mm
04:32 PM 81.9°F27.7°C 74.3°F23.5°C 78% 4.0 mph S6.4 kmh S 6.9 mph11.1 kmh 29.94 in1013.9 mb 0.00 in0.0 mm 0.00 in0.0 mm 0.04 in1.0 mm
04:33 PM 81.7°F27.6°C 73.8°F23.2°C 77% 2.9 mph SSE4.7 kmh SSE 8.1 mph13.0 kmh 29.94 in1013.9 mb 0.00 in0.0 mm 0.00 in0.0 mm 0.04 in1.0 mm
04:34 PM 81.9°F27.7°C 73.9°F23.3°C 77% 2.9 mph SSE4.7 kmh SSE 6.9 mph11.1 kmh 29.94 in1013.9 mb 0.00 in0.0 mm 0.00 in0.0 mm 0.04 in1.0 mm
04:35 PM 81.9°F27.7°C 73.9°F23.3°C 77% 4.0 mph S6.4 kmh S 8.9 mph14.3 kmh 29.94 in1013.9 mb 0.00 in0.0 mm 0.00 in0.0 mm 0.04 in1.0 mm
04:36 PM 81.9°F27.7°C 73.9°F23.3°C 77% 4.0 mph S6.4 kmh S 8.9 mph14.3 kmh 29.94 in1013.9 mb 0.00 in0.0 mm 0.00 in0.0 mm 0.04 in1.0 mm
04:37 PM 81.9°F27.7°C 73.9°F23.3°C 77% 4.0 mph E6.4 kmh E 8.9 mph14.3 kmh 29.94 in1013.9 mb 0.00 in0.0 mm 0.00 in0.0 mm 0.04 in1.0 mm
04:38 PM 81.9°F27.7°C 73.9°F23.3°C 77% 4.0 mph SSE6.4 kmh SSE 8.9 mph14.3 kmh 29.94 in1013.9 mb 0.00 in0.0 mm 0.00 in0.0 mm 0.04 in1.0 mm
04:39 PM 81.9°F27.7°C 73.9°F23.3°C 77% 4.0 mph S6.4 kmh S 4.9 mph7.9 kmh 29.94 in1013.9 mb 0.00 in0.0 mm 0.00 in0.0 mm 0.04 in1.0 mm
04:40 PM 82.0°F27.8°C 74.5°F23.6°C 78% 4.0 mph S6.4 kmh S 13.0 mph20.9 kmh 29.94 in1013.9 mb 0.00 in0.0 mm 0.00 in0.0 mm 0.04 in1.0 mm
04:41 PM 82.0°F27.8°C 74.1°F23.4°C 77% 4.9 mph SE7.9 kmh SE 13.0 mph20.9 kmh 29.94 in1013.9 mb 0.00 in0.0 mm 0.00 in0.0 mm 0.04 in1.0 mm
04:42 PM 82.0°F27.8°C 73.8°F23.2°C 76% 4.9 mph S7.9 kmh S 14.1 mph22.7 kmh 29.94 in1013.9 mb 0.00 in0.0 mm 0.00 in0.0 mm 0.04 in1.0 mm
04:43 PM 82.2°F27.9°C 73.9°F23.3°C 76% 4.9 mph SSW7.9 kmh SSW 11.0 mph17.7 kmh 29.94 in1013.9 mb 0.00 in0.0 mm 0.00 in0.0 mm 0.04 in1.0 mm
04:44 PM 82.2°F27.9°C 73.9°F23.3°C 76% 4.9 mph SSE7.9 kmh SSE 8.9 mph14.3 kmh 29.94 in1013.9 mb 0.00 in0.0 mm 0.00 in0.0 mm 0.04 in1.0 mm
04:45 PM 82.2°F27.9°C 73.9°F23.3°C 76% 4.9 mph SSE7.9 kmh SSE 8.9 mph14.3 kmh 29.94 in1013.9 mb 0.00 in0.0 mm 0.00 in0.0 mm 0.04 in1.0 mm
04:46 PM 82.4°F28.0°C 74.1°F23.4°C 76% 4.9 mph SSW7.9 kmh SSW 8.9 mph14.3 kmh 29.93 in1013.5 mb 0.00 in0.0 mm 0.00 in0.0 mm 0.04 in1.0 mm
04:47 PM 82.6°F28.1°C 74.3°F23.5°C 76% 4.9 mph S7.9 kmh S 11.0 mph17.7 kmh 29.93 in1013.5 mb 0.00 in0.0 mm 0.00 in0.0 mm 0.04 in1.0 mm
04:48 PM 82.6°F28.1°C 73.8°F23.2°C 75% 4.9 mph SSE7.9 kmh SSE 11.0 mph17.7 kmh 29.93 in1013.5 mb 0.00 in0.0 mm 0.00 in0.0 mm 0.04 in1.0 mm
04:49 PM 82.8°F28.2°C 74.5°F23.6°C 76% 4.9 mph S7.9 kmh S 4.9 mph7.9 kmh 29.93 in1013.5 mb 0.00 in0.0 mm 0.00 in0.0 mm 0.04 in1.0 mm
04:50 PM 82.8°F28.2°C 74.5°F23.6°C 76% 4.9 mph SSW7.9 kmh SSW 4.0 mph6.4 kmh 29.93 in1013.5 mb 0.00 in0.0 mm 0.00 in0.0 mm 0.04 in1.0 mm
04:51 PM 82.9°F28.3°C 74.7°F23.7°C 76% 4.9 mph S7.9 kmh S 6.9 mph11.1 kmh 29.93 in1013.5 mb 0.00 in0.0 mm 0.00 in0.0 mm 0.04 in1.0 mm
04:52 PM 82.9°F28.3°C 74.7°F23.7°C 76% 4.9 mph S7.9 kmh S 8.9 mph14.3 kmh 29.93 in1013.5 mb 0.00 in0.0 mm 0.00 in0.0 mm 0.04 in1.0 mm
04:53 PM 83.1°F28.4°C 74.8°F23.8°C 76% 4.0 mph S6.4 kmh S 4.0 mph6.4 kmh 29.93 in1013.5 mb 0.00 in0.0 mm 0.00 in0.0 mm 0.04 in1.0 mm
04:54 PM 83.1°F28.4°C 74.3°F23.5°C 75% 4.0 mph S6.4 kmh S 11.0 mph17.7 kmh 29.93 in1013.5 mb 0.00 in0.0 mm 0.00 in0.0 mm 0.04 in1.0 mm
04:55 PM 83.3°F28.5°C 74.5°F23.6°C 75% 4.0 mph S6.4 kmh S 4.9 mph7.9 kmh 29.93 in1013.5 mb 0.00 in0.0 mm 0.00 in0.0 mm 0.04 in1.0 mm
04:56 PM 83.3°F28.5°C 74.5°F23.6°C 75% 4.0 mph S6.4 kmh S 6.9 mph11.1 kmh 29.93 in1013.5 mb 0.00 in0.0 mm 0.00 in0.0 mm 0.04 in1.0 mm
04:57 PM 83.5°F28.6°C 74.7°F23.7°C 75% 4.0 mph SSE6.4 kmh SSE 4.9 mph7.9 kmh 29.93 in1013.5 mb 0.00 in0.0 mm 0.00 in0.0 mm 0.04 in1.0 mm
04:58 PM 83.5°F28.6°C 74.3°F23.5°C 74% 4.0 mph S6.4 kmh S 8.1 mph13.0 kmh 29.94 in1013.9 mb 0.00 in0.0 mm 0.00 in0.0 mm 0.04 in1.0 mm
04:59 PM 83.5°F28.6°C 74.3°F23.5°C 74% 4.0 mph S6.4 kmh S 12.1 mph19.5 kmh 29.93 in1013.5 mb 0.00 in0.0 mm 0.00 in0.0 mm 0.04 in1.0 mm
05:00 PM 83.5°F28.6°C 74.7°F23.7°C 75% 4.0 mph S6.4 kmh S 6.0 mph9.7 kmh 29.94 in1013.9 mb 0.00 in0.0 mm 0.00 in0.0 mm 0.04 in1.0 mm
05:01 PM 83.3°F28.5°C 74.1°F23.4°C 74% 4.0 mph S6.4 kmh S 10.1 mph16.3 kmh 29.93 in1013.5 mb 0.00 in0.0 mm 0.00 in0.0 mm 0.04 in1.0 mm
05:02 PM 83.1°F28.4°C 74.3°F23.5°C 75% 4.0 mph SSW6.4 kmh SSW 12.1 mph19.5 kmh 29.93 in1013.5 mb 0.00 in0.0 mm 0.00 in0.0 mm 0.04 in1.0 mm
05:03 PM 83.1°F28.4°C 74.3°F23.5°C 75% 4.0 mph S6.4 kmh S 12.1 mph19.5 kmh 29.93 in1013.5 mb 0.00 in0.0 mm 0.00 in0.0 mm 0.04 in1.0 mm
05:04 PM 82.9°F28.3°C 74.1°F23.4°C 75% 4.0 mph S6.4 kmh S 8.9 mph14.3 kmh 29.94 in1013.9 mb 0.00 in0.0 mm 0.00 in0.0 mm 0.04 in1.0 mm
05:05 PM 82.9°F28.3°C 74.1°F23.4°C 75% 4.0 mph S6.4 kmh S 8.1 mph13.0 kmh 29.94 in1013.9 mb 0.00 in0.0 mm 0.00 in0.0 mm 0.04 in1.0 mm
05:06 PM 82.8°F28.2°C 73.9°F23.3°C 75% 4.0 mph SSE6.4 kmh SSE 12.1 mph19.5 kmh 29.94 in1013.9 mb 0.00 in0.0 mm 0.00 in0.0 mm 0.04 in1.0 mm
05:07 PM 82.6°F28.1°C 73.8°F23.2°C 75% 4.0 mph S6.4 kmh S 6.0 mph9.7 kmh 29.94 in1013.9 mb 0.00 in0.0 mm 0.00 in0.0 mm 0.04 in1.0 mm
05:08 PM 82.6°F28.1°C 74.3°F23.5°C 76% 4.0 mph SSE6.4 kmh SSE 8.9 mph14.3 kmh 29.94 in1013.9 mb 0.00 in0.0 mm 0.00 in0.0 mm 0.04 in1.0 mm
05:09 PM 82.4°F28.0°C 74.1°F23.4°C 76% 4.0 mph S6.4 kmh S 11.0 mph17.7 kmh 29.94 in1013.9 mb 0.00 in0.0 mm 0.00 in0.0 mm 0.04 in1.0 mm
05:10 PM 82.2°F27.9°C 73.9°F23.3°C 76% 4.0 mph S6.4 kmh S 6.9 mph11.1 kmh 29.94 in1013.9 mb 0.00 in0.0 mm 0.00 in0.0 mm 0.04 in1.0 mm
05:11 PM 82.0°F27.8°C 73.8°F23.2°C 76% 4.0 mph S6.4 kmh S 12.1 mph19.5 kmh 29.94 in1013.9 mb 0.00 in0.0 mm 0.00 in0.0 mm 0.04 in1.0 mm
05:12 PM 82.0°F27.8°C 73.8°F23.2°C 76% 4.9 mph S7.9 kmh S 12.1 mph19.5 kmh 29.94 in1013.9 mb 0.00 in0.0 mm 0.00 in0.0 mm 0.04 in1.0 mm
05:13 PM 81.9°F27.7°C 73.6°F23.1°C 76% 4.0 mph S6.4 kmh S 10.1 mph16.3 kmh 29.94 in1013.9 mb 0.00 in0.0 mm 0.00 in0.0 mm 0.04 in1.0 mm
05:14 PM 81.7°F27.6°C 73.8°F23.2°C 77% 4.9 mph S7.9 kmh S 4.9 mph7.9 kmh 29.94 in1013.9 mb 0.00 in0.0 mm 0.00 in0.0 mm 0.04 in1.0 mm
05:15 PM 81.7°F27.6°C 73.8°F23.2°C 77% 4.9 mph SE7.9 kmh SE 6.9 mph11.1 kmh 29.94 in1013.9 mb 0.00 in0.0 mm 0.00 in0.0 mm 0.04 in1.0 mm
05:16 PM 81.7°F27.6°C 74.1°F23.4°C 78% 4.9 mph S7.9 kmh S 10.1 mph16.3 kmh 29.94 in1013.9 mb 0.00 in0.0 mm 0.00 in0.0 mm 0.04 in1.0 mm
05:18 PM 81.5°F27.5°C 73.6°F23.1°C 77% 4.9 mph SSE7.9 kmh SSE 8.1 mph13.0 kmh 29.94 in1013.9 mb 0.00 in0.0 mm 0.00 in0.0 mm 0.04 in1.0 mm
05:19 PM 81.5°F27.5°C 73.6°F23.1°C 77% 4.9 mph S7.9 kmh S 6.9 mph11.1 kmh 29.94 in1013.9 mb 0.00 in0.0 mm 0.00 in0.0 mm 0.04 in1.0 mm
05:20 PM 81.5°F27.5°C 73.9°F23.3°C 78% 4.9 mph SSE7.9 kmh SSE 6.9 mph11.1 kmh 29.94 in1013.9 mb 0.00 in0.0 mm 0.00 in0.0 mm 0.04 in1.0 mm
05:21 PM 81.5°F27.5°C 73.9°F23.3°C 78% 4.9 mph SSE7.9 kmh SSE 6.9 mph11.1 kmh 29.94 in1013.9 mb 0.00 in0.0 mm 0.00 in0.0 mm 0.04 in1.0 mm
05:22 PM 81.3°F27.4°C 73.8°F23.2°C 78% 4.9 mph S7.9 kmh S 6.0 mph9.7 kmh 29.94 in1013.9 mb 0.00 in0.0 mm 0.00 in0.0 mm 0.04 in1.0 mm
05:23 PM 81.3°F27.4°C 73.8°F23.2°C 78% 4.0 mph S6.4 kmh S 8.9 mph14.3 kmh 29.94 in1013.9 mb 0.00 in0.0 mm 0.00 in0.0 mm 0.04 in1.0 mm
05:24 PM 81.3°F27.4°C 73.8°F23.2°C 78% 4.9 mph S7.9 kmh S 8.9 mph14.3 kmh 29.94 in1013.9 mb 0.00 in0.0 mm 0.00 in0.0 mm 0.04 in1.0 mm
05:25 PM 81.3°F27.4°C 73.8°F23.2°C 78% 4.0 mph S6.4 kmh S 6.0 mph9.7 kmh 29.94 in1013.9 mb 0.00 in0.0 mm 0.00 in0.0 mm 0.04 in1.0 mm
05:26 PM 81.3°F27.4°C 73.8°F23.2°C 78% 4.0 mph SE6.4 kmh SE 4.9 mph7.9 kmh 29.94 in1013.9 mb 0.00 in0.0 mm 0.00 in0.0 mm 0.04 in1.0 mm
05:27 PM 81.3°F27.4°C 73.8°F23.2°C 78% 4.0 mph SW6.4 kmh SW 10.0 mph16.1 kmh 29.94 in1013.9 mb 0.00 in0.0 mm 0.00 in0.0 mm 0.04 in1.0 mm
05:28 PM 81.3°F27.4°C 73.8°F23.2°C 78% 4.0 mph SSE6.4 kmh SSE 6.0 mph9.7 kmh 29.94 in1013.9 mb 0.00 in0.0 mm 0.00 in0.0 mm 0.04 in1.0 mm
05:29 PM 81.3°F27.4°C 73.8°F23.2°C 78% 4.0 mph S6.4 kmh S 8.1 mph13.0 kmh 29.95 in1014.2 mb 0.00 in0.0 mm 0.00 in0.0 mm 0.04 in1.0 mm
05:30 PM 81.3°F27.4°C 73.8°F23.2°C 78% 4.0 mph S6.4 kmh S 8.1 mph13.0 kmh 29.95 in1014.2 mb 0.00 in0.0 mm 0.00 in0.0 mm 0.04 in1.0 mm
05:31 PM 81.3°F27.4°C 73.8°F23.2°C 78% 4.0 mph S6.4 kmh S 6.0 mph9.7 kmh 29.94 in1013.9 mb 0.00 in0.0 mm 0.00 in0.0 mm 0.04 in1.0 mm
05:32 PM 81.1°F27.3°C 73.6°F23.1°C 78% 4.0 mph S6.4 kmh S 6.0 mph9.7 kmh 29.95 in1014.2 mb 0.00 in0.0 mm 0.00 in0.0 mm 0.04 in1.0 mm
05:33 PM 81.1°F27.3°C 73.6°F23.1°C 78% 4.0 mph SSE6.4 kmh SSE 6.0 mph9.7 kmh 29.94 in1013.9 mb 0.00 in0.0 mm 0.00 in0.0 mm 0.04 in1.0 mm
05:34 PM 81.1°F27.3°C 73.6°F23.1°C 78% 4.0 mph S6.4 kmh S 6.9 mph11.1 kmh 29.95 in1014.2 mb 0.00 in0.0 mm 0.00 in0.0 mm 0.04 in1.0 mm
05:35 PM 81.0°F27.2°C 73.4°F23.0°C 78% 4.0 mph S6.4 kmh S 11.0 mph17.7 kmh 29.95 in1014.2 mb 0.00 in0.0 mm 0.00 in0.0 mm 0.04 in1.0 mm
05:36 PM 81.0°F27.2°C 73.4°F23.0°C 78% 4.0 mph S6.4 kmh S 8.9 mph14.3 kmh 29.95 in1014.2 mb 0.00 in0.0 mm 0.00 in0.0 mm 0.04 in1.0 mm
05:37 PM 80.8°F27.1°C 73.2°F22.9°C 78% 4.0 mph S6.4 kmh S 8.9 mph14.3 kmh 29.95 in1014.2 mb 0.00 in0.0 mm 0.00 in0.0 mm 0.04 in1.0 mm
05:38 PM 80.8°F27.1°C 73.6°F23.1°C 79% 4.0 mph S6.4 kmh S 12.1 mph19.5 kmh 29.95 in1014.2 mb 0.00 in0.0 mm 0.00 in0.0 mm 0.04 in1.0 mm
05:39 PM 80.4°F26.9°C 73.2°F22.9°C 79% 4.0 mph SSE6.4 kmh SSE 14.1 mph22.7 kmh 29.95 in1014.2 mb 0.00 in0.0 mm 0.00 in0.0 mm 0.04 in1.0 mm
05:40 PM 80.2°F26.8°C 73.0°F22.8°C 79% 4.0 mph SE6.4 kmh SE 12.1 mph19.5 kmh 29.95 in1014.2 mb 0.00 in0.0 mm 0.00 in0.0 mm 0.04 in1.0 mm
05:41 PM 80.2°F26.8°C 73.0°F22.8°C 79% 4.9 mph SSE7.9 kmh SSE 12.1 mph19.5 kmh 29.95 in1014.2 mb 0.00 in0.0 mm 0.00 in0.0 mm 0.04 in1.0 mm
05:42 PM 80.1°F26.7°C 73.0°F22.8°C 79% 4.9 mph S7.9 kmh S 12.1 mph19.5 kmh 29.95 in1014.2 mb 0.00 in0.0 mm 0.00 in0.0 mm 0.04 in1.0 mm
05:43 PM 79.9°F26.6°C 73.2°F22.9°C 80% 4.9 mph SSE7.9 kmh SSE 12.1 mph19.5 kmh 29.95 in1014.2 mb 0.00 in0.0 mm 0.00 in0.0 mm 0.04 in1.0 mm
05:44 PM 79.5°F26.4°C 72.9°F22.7°C 80% 6.0 mph S9.7 kmh S 12.1 mph19.5 kmh 29.95 in1014.2 mb 0.00 in0.0 mm 0.00 in0.0 mm 0.04 in1.0 mm
05:45 PM 79.5°F26.4°C 72.9°F22.7°C 80% 6.0 mph S9.7 kmh S 10.1 mph16.3 kmh 29.95 in1014.2 mb 0.00 in0.0 mm 0.00 in0.0 mm 0.04 in1.0 mm
05:46 PM 79.3°F26.3°C 73.0°F22.8°C 81% 6.0 mph S9.7 kmh S 10.1 mph16.3 kmh 29.95 in1014.2 mb 0.00 in0.0 mm 0.00 in0.0 mm 0.04 in1.0 mm
05:47 PM 79.3°F26.3°C 73.0°F22.8°C 81% 6.0 mph SE9.7 kmh SE 11.0 mph17.7 kmh 29.95 in1014.2 mb 0.00 in0.0 mm 0.00 in0.0 mm 0.04 in1.0 mm
05:48 PM 79.3°F26.3°C 73.0°F22.8°C 81% 6.0 mph SE9.7 kmh SE 11.0 mph17.7 kmh 29.95 in1014.2 mb 0.00 in0.0 mm 0.00 in0.0 mm 0.04 in1.0 mm
05:49 PM 79.3°F26.3°C 73.0°F22.8°C 81% 4.9 mph SE7.9 kmh SE 14.0 mph22.5 kmh 29.95 in1014.2 mb 0.00 in0.0 mm 0.00 in0.0 mm 0.04 in1.0 mm
05:50 PM 79.2°F26.2°C 72.9°F22.7°C 81% 4.9 mph S7.9 kmh S 8.9 mph14.3 kmh 29.95 in1014.2 mb 0.00 in0.0 mm 0.00 in0.0 mm 0.04 in1.0 mm
05:51 PM 79.2°F26.2°C 72.9°F22.7°C 81% 4.9 mph S7.9 kmh S 8.1 mph13.0 kmh 29.95 in1014.2 mb 0.00 in0.0 mm 0.00 in0.0 mm 0.04 in1.0 mm
05:52 PM 79.2°F26.2°C 72.9°F22.7°C 81% 4.9 mph S7.9 kmh S 8.1 mph13.0 kmh 29.95 in1014.2 mb 0.00 in0.0 mm 0.00 in0.0 mm 0.04 in1.0 mm
05:53 PM 79.0°F26.1°C 72.7°F22.6°C 81% 4.9 mph S7.9 kmh S 10.1 mph16.3 kmh 29.95 in1014.2 mb 0.00 in0.0 mm 0.00 in0.0 mm 0.04 in1.0 mm
05:54 PM 79.0°F26.1°C 73.0°F22.8°C 82% 4.9 mph S7.9 kmh S 10.1 mph16.3 kmh 29.95 in1014.2 mb 0.00 in0.0 mm 0.00 in0.0 mm 0.04 in1.0 mm
05:55 PM 79.0°F26.1°C 73.0°F22.8°C 82% 4.9 mph SSE7.9 kmh SSE 6.0 mph9.7 kmh 29.95 in1014.2 mb 0.00 in0.0 mm 0.00 in0.0 mm 0.04 in1.0 mm
05:56 PM 79.0°F26.1°C 73.0°F22.8°C 82% 4.9 mph S7.9 kmh S 12.1 mph19.5 kmh 29.95 in1014.2 mb 0.00 in0.0 mm 0.00 in0.0 mm 0.04 in1.0 mm
05:57 PM 78.8°F26.0°C 72.9°F22.7°C 82% 4.9 mph S7.9 kmh S 8.1 mph13.0 kmh 29.95 in1014.2 mb 0.00 in0.0 mm 0.00 in0.0 mm 0.04 in1.0 mm
05:58 PM 78.6°F25.9°C 72.7°F22.6°C 82% 4.9 mph S7.9 kmh S 8.9 mph14.3 kmh 29.95 in1014.2 mb 0.00 in0.0 mm 0.00 in0.0 mm 0.04 in1.0 mm
05:59 PM 78.6°F25.9°C 72.7°F22.6°C 82% 4.9 mph S7.9 kmh S 10.1 mph16.3 kmh 29.95 in1014.2 mb 0.00 in0.0 mm 0.00 in0.0 mm 0.04 in1.0 mm
06:00 PM 78.6°F25.9°C 72.7°F22.6°C 82% 4.0 mph S6.4 kmh S 8.9 mph14.3 kmh 29.95 in1014.2 mb 0.00 in0.0 mm 0.00 in0.0 mm 0.04 in1.0 mm
06:01 PM 78.6°F25.9°C 73.0°F22.8°C 83% 4.0 mph SSE6.4 kmh SSE 6.0 mph9.7 kmh 29.95 in1014.2 mb 0.00 in0.0 mm 0.00 in0.0 mm 0.04 in1.0 mm
06:02 PM 78.4°F25.8°C 72.9°F22.7°C 83% 4.0 mph S6.4 kmh S 8.9 mph14.3 kmh 29.95 in1014.2 mb 0.00 in0.0 mm 0.00 in0.0 mm 0.04 in1.0 mm
06:03 PM 78.4°F25.8°C 72.9°F22.7°C 83% 4.0 mph S6.4 kmh S 6.9 mph11.1 kmh 29.95 in1014.2 mb 0.00 in0.0 mm 0.00 in0.0 mm 0.04 in1.0 mm
06:04 PM 78.4°F25.8°C 72.9°F22.7°C 83% 4.0 mph S6.4 kmh S 6.9 mph11.1 kmh 29.95 in1014.2 mb 0.00 in0.0 mm 0.00 in0.0 mm 0.04 in1.0 mm
06:05 PM 78.3°F25.7°C 72.7°F22.6°C 83% 4.0 mph S6.4 kmh S 6.9 mph11.1 kmh 29.96 in1014.6 mb 0.00 in0.0 mm 0.00 in0.0 mm 0.04 in1.0 mm
06:06 PM 78.3°F25.7°C 72.7°F22.6°C 83% 4.0 mph S6.4 kmh S 8.1 mph13.0 kmh 29.96 in1014.6 mb 0.00 in0.0 mm 0.00 in0.0 mm 0.04 in1.0 mm
06:07 PM 78.3°F25.7°C 72.7°F22.6°C 83% 4.0 mph S6.4 kmh S 8.9 mph14.3 kmh 29.96 in1014.6 mb 0.00 in0.0 mm 0.00 in0.0 mm 0.04 in1.0 mm
06:08 PM 78.3°F25.7°C 72.7°F22.6°C 83% 4.0 mph SSE6.4 kmh SSE 8.9 mph14.3 kmh 29.96 in1014.6 mb 0.00 in0.0 mm 0.00 in0.0 mm 0.04 in1.0 mm
06:09 PM 78.1°F25.6°C 72.5°F22.5°C 83% 4.0 mph SSE6.4 kmh SSE 11.0 mph17.7 kmh 29.96 in1014.6 mb 0.00 in0.0 mm 0.00 in0.0 mm 0.04 in1.0 mm
06:11 PM 78.1°F25.6°C 72.9°F22.7°C 84% 4.0 mph SW6.4 kmh SW 8.1 mph13.0 kmh 29.96 in1014.6 mb 0.00 in0.0 mm 0.00 in0.0 mm 0.04 in1.0 mm
06:12 PM 78.1°F25.6°C 72.9°F22.7°C 84% 4.9 mph S7.9 kmh S 10.1 mph16.3 kmh 29.96 in1014.6 mb 0.00 in0.0 mm 0.00 in0.0 mm 0.04 in1.0 mm
06:13 PM 78.1°F25.6°C 72.9°F22.7°C 84% 4.9 mph S7.9 kmh S 10.1 mph16.3 kmh 29.96 in1014.6 mb 0.00 in0.0 mm 0.00 in0.0 mm 0.04 in1.0 mm
06:14 PM 77.9°F25.5°C 72.7°F22.6°C 84% 4.9 mph SE7.9 kmh SE 6.9 mph11.1 kmh 29.96 in1014.6 mb 0.00 in0.0 mm 0.00 in0.0 mm 0.04 in1.0 mm
06:15 PM 77.9°F25.5°C 72.7°F22.6°C 84% 4.9 mph SSE7.9 kmh SSE 8.1 mph13.0 kmh 29.96 in1014.6 mb 0.00 in0.0 mm 0.00 in0.0 mm 0.04 in1.0 mm
06:16 PM 77.9°F25.5°C 72.7°F22.6°C 84% 4.9 mph S7.9 kmh S 4.9 mph7.9 kmh 29.96 in1014.6 mb 0.00 in0.0 mm 0.00 in0.0 mm 0.04 in1.0 mm
06:17 PM 77.7°F25.4°C 72.5°F22.5°C 84% 4.9 mph S7.9 kmh S 8.1 mph13.0 kmh 29.96 in1014.6 mb 0.00 in0.0 mm 0.00 in0.0 mm 0.04 in1.0 mm
06:18 PM 77.7°F25.4°C 72.9°F22.7°C 85% 4.9 mph S7.9 kmh S 8.1 mph13.0 kmh 29.96 in1014.6 mb 0.00 in0.0 mm 0.00 in0.0 mm 0.04 in1.0 mm
06:19 PM 77.7°F25.4°C 72.9°F22.7°C 85% 4.0 mph SE6.4 kmh SE 6.0 mph9.7 kmh 29.96 in1014.6 mb 0.00 in0.0 mm 0.00 in0.0 mm 0.04 in1.0 mm
06:20 PM 77.7°F25.4°C 72.9°F22.7°C 85% 4.0 mph S6.4 kmh S 11.0 mph17.7 kmh 29.96 in1014.6 mb 0.00 in0.0 mm 0.00 in0.0 mm 0.04 in1.0 mm
06:21 PM 77.5°F25.3°C 72.7°F22.6°C 85% 4.0 mph S6.4 kmh S 8.9 mph14.3 kmh 29.96 in1014.6 mb 0.00 in0.0 mm 0.00 in0.0 mm 0.04 in1.0 mm
06:22 PM 77.5°F25.3°C 72.7°F22.6°C 85% 4.0 mph S6.4 kmh S 12.1 mph19.5 kmh 29.96 in1014.6 mb 0.00 in0.0 mm 0.00 in0.0 mm 0.04 in1.0 mm
06:23 PM 77.5°F25.3°C 72.7°F22.6°C 85% 4.0 mph S6.4 kmh S 10.1 mph16.3 kmh 29.96 in1014.6 mb 0.00 in0.0 mm 0.00 in0.0 mm 0.04 in1.0 mm
06:24 PM 77.5°F25.3°C 72.7°F22.6°C 85% 4.9 mph S7.9 kmh S 10.1 mph16.3 kmh 29.96 in1014.6 mb 0.00 in0.0 mm 0.00 in0.0 mm 0.04 in1.0 mm
06:25 PM 77.5°F25.3°C 72.7°F22.6°C 85% 4.9 mph SSE7.9 kmh SSE 10.1 mph16.3 kmh 29.97 in1014.9 mb 0.00 in0.0 mm 0.00 in0.0 mm 0.04 in1.0 mm
06:26 PM 77.5°F25.3°C 72.7°F22.6°C 85% 4.9 mph S7.9 kmh S 11.0 mph17.7 kmh 29.97 in1014.9 mb 0.00 in0.0 mm 0.00 in0.0 mm 0.04 in1.0 mm
06:27 PM 77.4°F25.2°C 72.5°F22.5°C 85% 4.9 mph S7.9 kmh S 11.0 mph17.7 kmh 29.97 in1014.9 mb 0.00 in0.0 mm 0.00 in0.0 mm 0.04 in1.0 mm
06:28 PM 77.4°F25.2°C 72.5°F22.5°C 85% 4.9 mph S7.9 kmh S 6.9 mph11.1 kmh 29.97 in1014.9 mb 0.00 in0.0 mm 0.00 in0.0 mm 0.04 in1.0 mm
06:29 PM 77.4°F25.2°C 72.5°F22.5°C 85% 4.9 mph S7.9 kmh S 8.1 mph13.0 kmh 29.97 in1014.9 mb 0.00 in0.0 mm 0.00 in0.0 mm 0.04 in1.0 mm
06:30 PM 77.4°F25.2°C 72.5°F22.5°C 85% 4.9 mph S7.9 kmh S 8.1 mph13.0 kmh 29.97 in1014.9 mb 0.00 in0.0 mm 0.00 in0.0 mm 0.04 in1.0 mm
06:31 PM 77.4°F25.2°C 72.5°F22.5°C 85% 4.9 mph S7.9 kmh S 8.9 mph14.3 kmh 29.97 in1014.9 mb 0.00 in0.0 mm 0.00 in0.0 mm 0.04 in1.0 mm
06:32 PM 77.4°F25.2°C 72.5°F22.5°C 85% 4.9 mph S7.9 kmh S 6.0 mph9.7 kmh 29.97 in1014.9 mb 0.00 in0.0 mm 0.00 in0.0 mm 0.04 in1.0 mm
06:33 PM 77.4°F25.2°C 72.5°F22.5°C 85% 4.9 mph S7.9 kmh S 4.0 mph6.4 kmh 29.97 in1014.9 mb 0.00 in0.0 mm 0.00 in0.0 mm 0.04 in1.0 mm
06:34 PM 77.4°F25.2°C 72.5°F22.5°C 85% 4.0 mph S6.4 kmh S 6.9 mph11.1 kmh 29.97 in1014.9 mb 0.00 in0.0 mm 0.00 in0.0 mm 0.04 in1.0 mm
06:35 PM 77.4°F25.2°C 72.5°F22.5°C 85% 4.0 mph SSE6.4 kmh SSE 6.0 mph9.7 kmh 29.97 in1014.9 mb 0.00 in0.0 mm 0.00 in0.0 mm 0.04 in1.0 mm
06:36 PM 77.4°F25.2°C 72.5°F22.5°C 85% 4.0 mph S6.4 kmh S 10.0 mph16.1 kmh 29.97 in1014.9 mb 0.00 in0.0 mm 0.00 in0.0 mm 0.04 in1.0 mm
06:37 PM 77.4°F25.2°C 72.5°F22.5°C 85% 4.0 mph S6.4 kmh S 4.9 mph7.9 kmh 29.97 in1014.9 mb 0.00 in0.0 mm 0.00 in0.0 mm 0.04 in1.0 mm
06:38 PM 77.2°F25.1°C 72.3°F22.4°C 85% 4.0 mph S6.4 kmh S 8.1 mph13.0 kmh 29.97 in1014.9 mb 0.00 in0.0 mm 0.00 in0.0 mm 0.04 in1.0 mm
06:39 PM 77.2°F25.1°C 72.3°F22.4°C 85% 4.0 mph S6.4 kmh S 8.1 mph13.0 kmh 29.97 in1014.9 mb 0.00 in0.0 mm 0.00 in0.0 mm 0.04 in1.0 mm
06:40 PM 77.2°F25.1°C 72.3°F22.4°C 85% 4.0 mph S6.4 kmh S 8.1 mph13.0 kmh 29.97 in1014.9 mb 0.00 in0.0 mm 0.00 in0.0 mm 0.04 in1.0 mm
06:41 PM 77.2°F25.1°C 72.3°F22.4°C 85% 4.0 mph S6.4 kmh S 12.1 mph19.5 kmh 29.97 in1014.9 mb 0.00 in0.0 mm 0.00 in0.0 mm 0.04 in1.0 mm
06:42 PM 77.2°F25.1°C 72.3°F22.4°C 85% 4.0 mph S6.4 kmh S 4.9 mph7.9 kmh 29.97 in1014.9 mb 0.00 in0.0 mm 0.00 in0.0 mm 0.04 in1.0 mm
06:43 PM 77.0°F25.0°C 72.5°F22.5°C 86% 4.0 mph S6.4 kmh S 4.0 mph6.4 kmh 29.97 in1014.9 mb 0.00 in0.0 mm 0.00 in0.0 mm 0.04 in1.0 mm
06:44 PM 77.2°F25.1°C 72.7°F22.6°C 86% 4.0 mph S6.4 kmh S 4.0 mph6.4 kmh 29.97 in1014.9 mb 0.00 in0.0 mm 0.00 in0.0 mm 0.04 in1.0 mm
06:45 PM 77.0°F25.0°C 72.5°F22.5°C 86% 2.9 mph S4.7 kmh S 4.0 mph6.4 kmh 29.97 in1014.9 mb 0.00 in0.0 mm 0.00 in0.0 mm 0.04 in1.0 mm
06:46 PM 77.0°F25.0°C 72.5°F22.5°C 86% 2.9 mph S4.7 kmh S 4.0 mph6.4 kmh 29.97 in1014.9 mb 0.00 in0.0 mm 0.00 in0.0 mm 0.04 in1.0 mm
06:47 PM 76.8°F24.9°C 72.3°F22.4°C 86% 2.9 mph S4.7 kmh S 6.0 mph9.7 kmh 29.97 in1014.9 mb 0.00 in0.0 mm 0.00 in0.0 mm 0.04 in1.0 mm
06:48 PM 76.8°F24.9°C 72.3°F22.4°C 86% 2.9 mph S4.7 kmh S 8.1 mph13.0 kmh 29.97 in1014.9 mb 0.00 in0.0 mm 0.00 in0.0 mm 0.04 in1.0 mm
06:49 PM 76.8°F24.9°C 72.3°F22.4°C 86% 2.9 mph S4.7 kmh S 6.9 mph11.1 kmh 29.97 in1014.9 mb 0.00 in0.0 mm 0.00 in0.0 mm 0.04 in1.0 mm
06:51 PM 76.8°F24.9°C 72.3°F22.4°C 86% 2.9 mph S4.7 kmh S 11.0 mph17.7 kmh 29.97 in1014.9 mb 0.00 in0.0 mm 0.00 in0.0 mm 0.04 in1.0 mm
06:52 PM 76.8°F24.9°C 72.3°F22.4°C 86% 2.9 mph SE4.7 kmh SE 11.0 mph17.7 kmh 29.97 in1014.9 mb 0.00 in0.0 mm 0.00 in0.0 mm 0.04 in1.0 mm
06:53 PM 76.8°F24.9°C 72.3°F22.4°C 86% 2.9 mph S4.7 kmh S 4.0 mph6.4 kmh 29.97 in1014.9 mb 0.00 in0.0 mm 0.00 in0.0 mm 0.04 in1.0 mm
06:54 PM 76.8°F24.9°C 72.3°F22.4°C 86% 2.9 mph S4.7 kmh S 4.0 mph6.4 kmh 29.97 in1014.9 mb 0.00 in0.0 mm 0.00 in0.0 mm 0.04 in1.0 mm
06:55 PM 76.6°F24.8°C 72.1°F22.3°C 86% 2.9 mph S4.7 kmh S 4.0 mph6.4 kmh 29.98 in1015.2 mb 0.00 in0.0 mm 0.00 in0.0 mm 0.04 in1.0 mm
06:56 PM 76.6°F24.8°C 72.1°F22.3°C 86% 2.9 mph SE4.7 kmh SE 8.1 mph13.0 kmh 29.98 in1015.2 mb 0.00 in0.0 mm 0.00 in0.0 mm 0.04 in1.0 mm
06:57 PM 76.6°F24.8°C 72.1°F22.3°C 86% 2.9 mph S4.7 kmh S 8.1 mph13.0 kmh 29.98 in1015.2 mb 0.00 in0.0 mm 0.00 in0.0 mm 0.04 in1.0 mm
06:58 PM 76.6°F24.8°C 72.1°F22.3°C 86% 2.9 mph S4.7 kmh S 4.9 mph7.9 kmh 29.98 in1015.2 mb 0.00 in0.0 mm 0.00 in0.0 mm 0.04 in1.0 mm
06:59 PM 76.6°F24.8°C 72.5°F22.5°C 87% 2.9 mph SSE4.7 kmh SSE 4.0 mph6.4 kmh 29.98 in1015.2 mb 0.00 in0.0 mm 0.00 in0.0 mm 0.04 in1.0 mm
07:00 PM 76.6°F24.8°C 72.5°F22.5°C 87% 2.9 mph S4.7 kmh S 6.9 mph11.1 kmh 29.98 in1015.2 mb 0.00 in0.0 mm 0.00 in0.0 mm 0.04 in1.0 mm
07:01 PM 76.6°F24.8°C 72.5°F22.5°C 87% 2.9 mph SSW4.7 kmh SSW 6.9 mph11.1 kmh 29.98 in1015.2 mb 0.00 in0.0 mm 0.00 in0.0 mm 0.04 in1.0 mm
07:02 PM 76.5°F24.7°C 72.3°F22.4°C 87% 2.9 mph SSW4.7 kmh SSW 2.9 mph4.7 kmh 29.98 in1015.2 mb 0.00 in0.0 mm 0.00 in0.0 mm 0.04 in1.0 mm
07:03 PM 76.5°F24.7°C 72.3°F22.4°C 87% 2.9 mph S4.7 kmh S 6.9 mph11.1 kmh 29.98 in1015.2 mb 0.00 in0.0 mm 0.00 in0.0 mm 0.04 in1.0 mm
07:04 PM 76.5°F24.7°C 72.3°F22.4°C 87% 2.9 mph S4.7 kmh S 6.9 mph11.1 kmh 29.98 in1015.2 mb 0.00 in0.0 mm 0.00 in0.0 mm 0.04 in1.0 mm
07:05 PM 76.5°F24.7°C 72.3°F22.4°C 87% 2.9 mph S4.7 kmh S 4.9 mph7.9 kmh 29.98 in1015.2 mb 0.00 in0.0 mm 0.00 in0.0 mm 0.04 in1.0 mm
07:06 PM 76.5°F24.7°C 72.3°F22.4°C 87% 2.9 mph S4.7 kmh S 6.9 mph11.1 kmh 29.98 in1015.2 mb 0.00 in0.0 mm 0.00 in0.0 mm 0.04 in1.0 mm
07:07 PM 76.5°F24.7°C 72.3°F22.4°C 87% 2.9 mph S4.7 kmh S 8.0 mph12.9 kmh 29.98 in1015.2 mb 0.00 in0.0 mm 0.00 in0.0 mm 0.04 in1.0 mm
07:08 PM 76.5°F24.7°C 72.3°F22.4°C 87% 2.9 mph S4.7 kmh S 6.0 mph9.7 kmh 29.98 in1015.2 mb 0.00 in0.0 mm 0.00 in0.0 mm 0.04 in1.0 mm
07:09 PM 76.5°F24.7°C 72.3°F22.4°C 87% 2.9 mph S4.7 kmh S 6.0 mph9.7 kmh 29.98 in1015.2 mb 0.00 in0.0 mm 0.00 in0.0 mm 0.04 in1.0 mm
07:10 PM 76.3°F24.6°C 72.1°F22.3°C 87% 2.9 mph S4.7 kmh S 4.9 mph7.9 kmh 29.98 in1015.2 mb 0.00 in0.0 mm 0.00 in0.0 mm 0.04 in1.0 mm
07:11 PM 76.3°F24.6°C 72.1°F22.3°C 87% 2.9 mph SSW4.7 kmh SSW 4.0 mph6.4 kmh 29.98 in1015.2 mb 0.00 in0.0 mm 0.00 in0.0 mm 0.04 in1.0 mm
07:12 PM 76.3°F24.6°C 72.1°F22.3°C 87% 2.9 mph S4.7 kmh S 4.0 mph6.4 kmh 29.98 in1015.2 mb 0.00 in0.0 mm 0.00 in0.0 mm 0.04 in1.0 mm
07:13 PM 76.3°F24.6°C 72.1°F22.3°C 87% 2.9 mph S4.7 kmh S 4.9 mph7.9 kmh 29.98 in1015.2 mb 0.00 in0.0 mm 0.00 in0.0 mm 0.04 in1.0 mm
07:14 PM 76.3°F24.6°C 72.1°F22.3°C 87% 2.9 mph S4.7 kmh S 8.9 mph14.3 kmh 29.98 in1015.2 mb 0.00 in0.0 mm 0.00 in0.0 mm 0.04 in1.0 mm
07:15 PM 76.3°F24.6°C 72.1°F22.3°C 87% 2.9 mph S4.7 kmh S 8.9 mph14.3 kmh 29.98 in1015.2 mb 0.00 in0.0 mm 0.00 in0.0 mm 0.04 in1.0 mm
07:16 PM 76.3°F24.6°C 72.1°F22.3°C 87% 2.9 mph SSE4.7 kmh SSE 6.0 mph9.7 kmh 29.98 in1015.2 mb 0.00 in0.0 mm 0.00 in0.0 mm 0.04 in1.0 mm
07:17 PM 76.3°F24.6°C 72.1°F22.3°C 87% 2.9 mph S4.7 kmh S 4.9 mph7.9 kmh 29.98 in1015.2 mb 0.00 in0.0 mm 0.00 in0.0 mm 0.04 in1.0 mm
07:18 PM 76.3°F24.6°C 72.1°F22.3°C 87% 2.9 mph SSE4.7 kmh SSE 6.0 mph9.7 kmh 29.98 in1015.2 mb 0.00 in0.0 mm 0.00 in0.0 mm 0.04 in1.0 mm
07:19 PM 76.3°F24.6°C 72.1°F22.3°C 87% 2.9 mph SSE4.7 kmh SSE 8.1 mph13.0 kmh 29.98 in1015.2 mb 0.00 in0.0 mm 0.00 in0.0 mm 0.04 in1.0 mm
07:20 PM 76.3°F24.6°C 72.1°F22.3°C 87% 2.9 mph SSW4.7 kmh SSW 8.1 mph13.0 kmh 29.98 in1015.2 mb 0.00 in0.0 mm 0.00 in0.0 mm 0.04 in1.0 mm
07:21 PM 76.3°F24.6°C 72.1°F22.3°C 87% 2.9 mph S4.7 kmh S 4.0 mph6.4 kmh 29.98 in1015.2 mb 0.00 in0.0 mm 0.00 in0.0 mm 0.04 in1.0 mm
07:22 PM 76.3°F24.6°C 72.1°F22.3°C 87% 2.9 mph S4.7 kmh S 4.0 mph6.4 kmh 29.98 in1015.2 mb 0.00 in0.0 mm 0.00 in0.0 mm 0.04 in1.0 mm
07:23 PM 76.3°F24.6°C 72.1°F22.3°C 87% 2.9 mph S4.7 kmh S 4.0 mph6.4 kmh 29.98 in1015.2 mb 0.00 in0.0 mm 0.00 in0.0 mm 0.04 in1.0 mm
07:24 PM 76.3°F24.6°C 72.1°F22.3°C 87% 2.9 mph S4.7 kmh S 8.1 mph13.0 kmh 29.98 in1015.2 mb 0.00 in0.0 mm 0.00 in0.0 mm 0.04 in1.0 mm
07:25 PM 76.1°F24.5°C 72.0°F22.2°C 87% 2.9 mph S4.7 kmh S 8.1 mph13.0 kmh 29.98 in1015.2 mb 0.00 in0.0 mm 0.00 in0.0 mm 0.04 in1.0 mm
07:26 PM 76.1°F24.5°C 72.3°F22.4°C 88% 2.9 mph S4.7 kmh S 6.0 mph9.7 kmh 29.98 in1015.2 mb 0.00 in0.0 mm 0.00 in0.0 mm 0.04 in1.0 mm
07:27 PM 76.1°F24.5°C 72.3°F22.4°C 88% 2.9 mph S4.7 kmh S 6.0 mph9.7 kmh 29.98 in1015.2 mb 0.00 in0.0 mm 0.00 in0.0 mm 0.04 in1.0 mm
07:28 PM 76.1°F24.5°C 72.3°F22.4°C 88% 2.9 mph S4.7 kmh S 4.0 mph6.4 kmh 29.98 in1015.2 mb 0.00 in0.0 mm 0.00 in0.0 mm 0.04 in1.0 mm
07:29 PM 76.1°F24.5°C 72.3°F22.4°C 88% 2.9 mph SSE4.7 kmh SSE 4.0 mph6.4 kmh 29.98 in1015.2 mb 0.00 in0.0 mm 0.00 in0.0 mm 0.04 in1.0 mm
07:30 PM 75.9°F24.4°C 72.1°F22.3°C 88% 2.9 mph SSE4.7 kmh SSE 8.9 mph14.3 kmh 29.98 in1015.2 mb 0.00 in0.0 mm 0.00 in0.0 mm 0.04 in1.0 mm
07:31 PM 76.1°F24.5°C 72.3°F22.4°C 88% 2.9 mph S4.7 kmh S 6.0 mph9.7 kmh 29.98 in1015.2 mb 0.00 in0.0 mm 0.00 in0.0 mm 0.04 in1.0 mm
07:32 PM 76.1°F24.5°C 72.3°F22.4°C 88% 2.9 mph S4.7 kmh S 6.9 mph11.1 kmh 29.98 in1015.2 mb 0.00 in0.0 mm 0.00 in0.0 mm 0.04 in1.0 mm
07:33 PM 76.1°F24.5°C 72.3°F22.4°C 88% 2.9 mph S4.7 kmh S 8.9 mph14.3 kmh 29.98 in1015.2 mb 0.00 in0.0 mm 0.00 in0.0 mm 0.04 in1.0 mm
07:34 PM 76.1°F24.5°C 72.3°F22.4°C 88% 2.9 mph SSE4.7 kmh SSE 8.9 mph14.3 kmh 29.98 in1015.2 mb 0.00 in0.0 mm 0.00 in0.0 mm 0.04 in1.0 mm
07:35 PM 76.1°F24.5°C 72.3°F22.4°C 88% 2.9 mph S4.7 kmh S 4.0 mph6.4 kmh 29.98 in1015.2 mb 0.00 in0.0 mm 0.00 in0.0 mm 0.04 in1.0 mm
07:36 PM 75.9°F24.4°C 72.1°F22.3°C 88% 2.9 mph S4.7 kmh S 4.9 mph7.9 kmh 29.98 in1015.2 mb 0.00 in0.0 mm 0.00 in0.0 mm 0.04 in1.0 mm
07:38 PM 75.9°F24.4°C 72.1°F22.3°C 88% 2.9 mph SSE4.7 kmh SSE 4.0 mph6.4 kmh 29.98 in1015.2 mb 0.00 in0.0 mm 0.00 in0.0 mm 0.04 in1.0 mm
07:39 PM 75.9°F24.4°C 72.1°F22.3°C 88% 2.9 mph S4.7 kmh S 4.9 mph7.9 kmh 29.98 in1015.2 mb 0.00 in0.0 mm 0.00 in0.0 mm 0.04 in1.0 mm
07:40 PM 75.9°F24.4°C 72.1°F22.3°C 88% 2.9 mph SSE4.7 kmh SSE 6.9 mph11.1 kmh 29.98 in1015.2 mb 0.00 in0.0 mm 0.00 in0.0 mm 0.04 in1.0 mm
07:41 PM 75.9°F24.4°C 72.1°F22.3°C 88% 2.9 mph SSE4.7 kmh SSE 6.9 mph11.1 kmh 29.98 in1015.2 mb 0.00 in0.0 mm 0.00 in0.0 mm 0.04 in1.0 mm
07:42 PM 75.9°F24.4°C 72.1°F22.3°C 88% 2.9 mph S4.7 kmh S 6.9 mph11.1 kmh 29.98 in1015.2 mb 0.00 in0.0 mm 0.00 in0.0 mm 0.04 in1.0 mm
07:43 PM 75.9°F24.4°C 72.1°F22.3°C 88% 2.9 mph S4.7 kmh S 6.9 mph11.1 kmh 29.98 in1015.2 mb 0.00 in0.0 mm 0.00 in0.0 mm 0.04 in1.0 mm
07:44 PM 75.9°F24.4°C 72.1°F22.3°C 88% 2.9 mph SSW4.7 kmh SSW 4.0 mph6.4 kmh 29.98 in1015.2 mb 0.00 in0.0 mm 0.00 in0.0 mm 0.04 in1.0 mm
07:45 PM 75.9°F24.4°C 72.1°F22.3°C 88% 2.9 mph S4.7 kmh S 4.0 mph6.4 kmh 29.99 in1015.6 mb 0.00 in0.0 mm 0.00 in0.0 mm 0.04 in1.0 mm
07:46 PM 75.9°F24.4°C 72.1°F22.3°C 88% 2.9 mph S4.7 kmh S 6.0 mph9.7 kmh 29.99 in1015.6 mb 0.00 in0.0 mm 0.00 in0.0 mm 0.04 in1.0 mm
07:47 PM 75.9°F24.4°C 72.1°F22.3°C 88% 2.9 mph S4.7 kmh S 6.0 mph9.7 kmh 29.99 in1015.6 mb 0.00 in0.0 mm 0.00 in0.0 mm 0.04 in1.0 mm
07:48 PM 75.9°F24.4°C 72.5°F22.5°C 89% 2.9 mph S4.7 kmh S 6.9 mph11.1 kmh 29.99 in1015.6 mb 0.00 in0.0 mm 0.00 in0.0 mm 0.04 in1.0 mm
07:49 PM 75.7°F24.3°C 72.3°F22.4°C 89% 2.9 mph S4.7 kmh S 10.1 mph16.3 kmh 29.99 in1015.6 mb 0.00 in0.0 mm 0.00 in0.0 mm 0.04 in1.0 mm
07:50 PM 75.7°F24.3°C 72.3°F22.4°C 89% 2.9 mph S4.7 kmh S 6.9 mph11.1 kmh 29.99 in1015.6 mb 0.00 in0.0 mm 0.00 in0.0 mm 0.04 in1.0 mm
07:51 PM 75.7°F24.3°C 72.3°F22.4°C 89% 2.9 mph S4.7 kmh S 2.0 mph3.2 kmh 29.99 in1015.6 mb 0.00 in0.0 mm 0.00 in0.0 mm 0.04 in1.0 mm
07:52 PM 75.7°F24.3°C 72.3°F22.4°C 89% 2.9 mph S4.7 kmh S 4.9 mph7.9 kmh 29.99 in1015.6 mb 0.00 in0.0 mm 0.00 in0.0 mm 0.04 in1.0 mm
07:53 PM 75.7°F24.3°C 72.3°F22.4°C 89% 2.9 mph SSE4.7 kmh SSE 6.9 mph11.1 kmh 29.99 in1015.6 mb 0.00 in0.0 mm 0.00 in0.0 mm 0.04 in1.0 mm
07:54 PM 75.7°F24.3°C 72.3°F22.4°C 89% 2.9 mph SSE4.7 kmh SSE 6.9 mph11.1 kmh 29.99 in1015.6 mb 0.00 in0.0 mm 0.00 in0.0 mm 0.04 in1.0 mm
07:55 PM 75.7°F24.3°C 72.3°F22.4°C 89% 2.9 mph SSE4.7 kmh SSE 4.9 mph7.9 kmh 29.99 in1015.6 mb 0.00 in0.0 mm 0.00 in0.0 mm 0.04 in1.0 mm
07:56 PM 75.7°F24.3°C 72.3°F22.4°C 89% 2.9 mph S4.7 kmh S 6.9 mph11.1 kmh 29.99 in1015.6 mb 0.00 in0.0 mm 0.00 in0.0 mm 0.04 in1.0 mm
07:57 PM 75.7°F24.3°C 72.3°F22.4°C 89% 2.9 mph S4.7 kmh S 2.9 mph4.7 kmh 30.00 in1015.9 mb 0.00 in0.0 mm 0.00 in0.0 mm 0.04 in1.0 mm
07:58 PM 75.7°F24.3°C 72.3°F22.4°C 89% 2.9 mph S4.7 kmh S 9.0 mph14.5 kmh 29.99 in1015.6 mb 0.00 in0.0 mm 0.00 in0.0 mm 0.04 in1.0 mm
07:59 PM 75.7°F24.3°C 72.3°F22.4°C 89% 2.9 mph ESE4.7 kmh ESE 2.9 mph4.7 kmh 29.99 in1015.6 mb 0.00 in0.0 mm 0.00 in0.0 mm 0.04 in1.0 mm
08:00 PM 75.7°F24.3°C 72.3°F22.4°C 89% 2.0 mph SSE3.2 kmh SSE 4.0 mph6.4 kmh 30.00 in1015.9 mb 0.00 in0.0 mm 0.00 in0.0 mm 0.04 in1.0 mm
08:01 PM 75.7°F24.3°C 72.3°F22.4°C 89% 2.9 mph SSE4.7 kmh SSE 2.9 mph4.7 kmh 30.00 in1015.9 mb 0.00 in0.0 mm 0.00 in0.0 mm 0.04 in1.0 mm
08:02 PM 75.7°F24.3°C 72.3°F22.4°C 89% 2.9 mph S4.7 kmh S 4.0 mph6.4 kmh 30.00 in1015.9 mb 0.00 in0.0 mm 0.00 in0.0 mm 0.04 in1.0 mm
08:03 PM 75.7°F24.3°C 72.3°F22.4°C 89% 2.9 mph SE4.7 kmh SE 6.0 mph9.7 kmh 30.00 in1015.9 mb 0.00 in0.0 mm 0.00 in0.0 mm 0.04 in1.0 mm
08:04 PM 75.7°F24.3°C 72.3°F22.4°C 89% 2.0 mph S3.2 kmh S 4.9 mph7.9 kmh 30.00 in1015.9 mb 0.00 in0.0 mm 0.00 in0.0 mm 0.04 in1.0 mm
08:05 PM 75.6°F24.2°C 72.1°F22.3°C 89% 2.0 mph S3.2 kmh S 2.9 mph4.7 kmh 30.00 in1015.9 mb 0.00 in0.0 mm 0.00 in0.0 mm 0.04 in1.0 mm
08:06 PM 75.6°F24.2°C 72.1°F22.3°C 89% 2.0 mph SSE3.2 kmh SSE 4.0 mph6.4 kmh